Provisional Data: Hunts Run near Cameron, PA


Please select a monitoring station.
Please select start date.
Please select start date.

Toggle Unit: C/F Toggle Unit: C/F
Sample Time Temperature (C) Temperature (F) Specific Conductivity (mS/cm) pH   Turbidity (NTU+) DO (mg/L)
9/6/2021 12:00:00 AM 15.64 60.152 0.031 6.2 3.63 9.61
9/6/2021 12:15:00 AM 15.63 60.134 0.031 6.19 3.58 9.62
9/6/2021 12:30:00 AM 15.62 60.116 0.031 6.22 3.58 9.63
9/6/2021 12:45:00 AM 15.6 60.08 0.031 6.21 3.54 9.63
9/6/2021 1:00:00 AM 15.59 60.062 0.031 6.21 3.64 9.63
9/6/2021 1:15:00 AM 15.57 60.026 0.031 6.21 3.49 9.64
9/6/2021 1:30:00 AM 15.56 60.008 0.031 6.2 3.3 9.63
9/6/2021 1:45:00 AM 15.55 59.99 0.031 6.18 3.42 9.64
9/6/2021 2:00:00 AM 15.53 59.954 0.031 6.22 3.57 9.65
9/6/2021 2:15:00 AM 15.51 59.918 0.031 6.21 3.35 9.64
9/6/2021 2:30:00 AM 15.5 59.9 0.031 6.21 3.41 9.64
9/6/2021 2:45:00 AM 15.47 59.846 0.031 6.2 3.35 9.64
9/6/2021 3:00:00 AM 15.45 59.81 0.032 6.21 3.26 9.65
9/6/2021 3:15:00 AM 15.43 59.774 0.031 6.21 3.48 9.66
9/6/2021 3:30:00 AM 15.42 59.756 0.032 6.21 3.27 9.65
9/6/2021 3:45:00 AM 15.4 59.72 0.032 6.21 3.6 9.66
9/6/2021 4:00:00 AM 15.38 59.684 0.032 6.2 3.49 9.66
9/6/2021 4:15:00 AM 15.36 59.648 0.032 6.21 3.21 9.67
9/6/2021 4:30:00 AM 15.34 59.612 0.032 6.22 3.24 9.67
9/6/2021 4:45:00 AM 15.32 59.576 0.032 6.19 3.39 9.66
9/6/2021 5:00:00 AM 15.31 59.558 0.032 6.2 3.24 9.67
9/6/2021 5:15:00 AM 15.28 59.504 0.032 6.21 3.18 9.67
9/6/2021 5:30:00 AM 15.26 59.468 0.032 6.22 3.17 9.69
9/6/2021 5:45:00 AM 15.24 59.432 0.032 6.2 3.42 9.69
9/6/2021 6:00:00 AM 15.22 59.396 0.032 6.22 3.36 9.69
9/6/2021 6:15:00 AM 15.2 59.36 0.032 6.2 3.24 9.7
9/6/2021 6:30:00 AM 15.17 59.306 0.032 6.21 3.31 9.7
9/6/2021 6:45:00 AM 15.14 59.252 0.032 6.19 3.11 9.71
9/6/2021 7:00:00 AM 15.11 59.198 0.032 6.2 3.12 9.72
9/6/2021 7:15:00 AM 15.08 59.144 0.032 6.23 3.03 9.74
9/6/2021 7:30:00 AM 15.07 59.126 0.032 6.2 3.17 9.76
9/6/2021 7:45:00 AM 15.05 59.09 0.032 6.22 3.1 9.79
9/6/2021 8:00:00 AM 15.04 59.072 0.032 6.22 3.05 9.82
9/6/2021 8:15:00 AM 15.03 59.054 0.032 6.24 2.98 9.83
9/6/2021 8:30:00 AM 15.02 59.036 0.032 6.25 2.98 9.84
9/6/2021 8:45:00 AM 15.01 59.018 0.032 6.23 2.95 9.83
9/6/2021 9:00:00 AM 15.01 59.018 0.032 6.26 3.11 9.88
9/6/2021 9:15:00 AM 15.01 59.018 0.032 6.25 3.04 9.88
9/6/2021 9:30:00 AM 15.03 59.054 0.032 6.25 3.06 9.88
9/6/2021 9:45:00 AM 15.07 59.126 0.032 6.27 2.89 9.9
9/6/2021 10:00:00 AM 15.11 59.198 0.032 6.29 2.93 9.92
9/6/2021 10:15:00 AM 15.15 59.27 0.032 6.28 2.93 9.92
9/6/2021 10:30:00 AM 15.18 59.324 0.032 6.3 2.99 9.91
9/6/2021 10:45:00 AM 15.22 59.396 0.032 6.29 2.95 9.9
9/6/2021 11:00:00 AM 15.27 59.486 0.032 6.29 3.1 9.9
9/6/2021 11:15:00 AM 15.33 59.594 0.032 6.32 2.96 9.9
9/6/2021 11:30:00 AM 15.4 59.72 0.032 6.31 2.83 9.91
9/6/2021 11:45:00 AM 15.45 59.81 0.032 6.33 2.84 9.89
9/6/2021 12:00:00 PM 15.52 59.936 0.032 6.31 2.85 9.87
9/6/2021 12:15:00 PM -99999.99 -179968 -99999.99 -99999.99 -99999.99 -99999.99
9/6/2021 12:30:00 PM 15.74 60.332 0.032 6.36 2.91 9.89
9/6/2021 12:45:00 PM -99999.99 -179968 -99999.99 -99999.99 -99999.99 -99999.99
9/6/2021 1:00:00 PM 15.83 60.494 0.032 6.37 2.88 9.86
9/6/2021 1:15:00 PM 15.86 60.548 0.032 6.37 2.89 9.86
9/6/2021 1:30:00 PM 16.01 60.818 0.032 6.38 2.98 9.85
9/6/2021 1:45:00 PM 16.15 61.07 0.032 6.4 2.88 9.82
9/6/2021 2:00:00 PM 16.32 61.376 0.032 6.44 2.9 9.81
9/6/2021 2:15:00 PM 16.45 61.61 0.032 6.44 2.9 9.79
9/6/2021 2:30:00 PM 16.6 61.88 0.032 6.44 2.94 9.77
9/6/2021 2:45:00 PM 16.69 62.042 0.032 6.46 2.87 9.76
9/6/2021 3:00:00 PM 16.71 62.078 0.032 6.43 2.86 9.75
9/6/2021 3:15:00 PM 16.68 62.024 0.032 6.44 2.97 9.73
9/6/2021 3:30:00 PM 16.68 62.024 0.032 6.43 2.77 9.7
9/6/2021 3:45:00 PM 16.66 61.988 0.032 6.41 2.78 9.69
9/6/2021 4:00:00 PM 16.64 61.952 0.032 6.4 2.63 9.67
9/6/2021 4:15:00 PM 16.59 61.862 0.032 6.39 2.76 9.65
9/6/2021 4:30:00 PM 16.56 61.808 0.032 6.42 2.76 9.66
9/6/2021 4:45:00 PM 16.56 61.808 0.032 6.37 3.01 9.63
9/6/2021 5:00:00 PM 16.55 61.79 0.032 6.4 2.64 9.63
9/6/2021 5:15:00 PM 16.51 61.718 0.032 6.37 2.8 9.61
9/6/2021 5:30:00 PM 16.47 61.646 0.032 6.36 2.71 9.61
9/6/2021 5:45:00 PM 16.42 61.556 0.032 6.37 2.62 9.6
9/6/2021 6:00:00 PM 16.37 61.466 0.032 6.34 2.71 9.58
9/6/2021 6:15:00 PM 16.34 61.412 0.032 6.35 2.78 9.57
9/6/2021 6:30:00 PM 16.3 61.34 0.032 6.31 2.67 9.55
9/6/2021 6:45:00 PM 16.24 61.232 0.032 6.32 2.83 9.55
9/6/2021 7:00:00 PM 16.19 61.142 0.032 6.32 2.69 9.56
9/6/2021 7:15:00 PM 16.13 61.034 0.032 6.31 2.68 9.56
9/6/2021 7:30:00 PM 16.08 60.944 0.032 6.31 2.66 9.55
9/6/2021 7:45:00 PM 16.02 60.836 0.032 6.32 2.64 9.56
9/6/2021 8:00:00 PM 15.96 60.728 0.032 6.28 2.75 9.54
9/6/2021 8:15:00 PM 15.9 60.62 0.032 6.31 2.68 9.56
9/6/2021 8:30:00 PM 15.85 60.53 0.032 6.29 2.68 9.56
9/6/2021 8:45:00 PM 15.79 60.422 0.032 6.28 2.78 9.58
9/6/2021 9:00:00 PM 15.74 60.332 0.032 6.27 2.71 9.59
9/6/2021 9:15:00 PM 15.69 60.242 0.032 6.29 2.81 9.6
9/6/2021 9:30:00 PM 15.64 60.152 0.032 6.25 2.73 9.6
9/6/2021 9:45:00 PM 15.59 60.062 0.032 6.27 2.79 9.62
9/6/2021 10:00:00 PM 15.53 59.954 0.032 6.27 2.95 9.64
9/6/2021 10:15:00 PM 15.48 59.864 0.033 6.28 2.74 9.64
9/6/2021 10:30:00 PM 15.43 59.774 0.032 6.28 2.88 9.66
9/6/2021 10:45:00 PM 15.38 59.684 0.033 6.27 2.76 9.66
9/6/2021 11:00:00 PM 15.32 59.576 0.032 6.29 2.82 9.69
9/6/2021 11:15:00 PM 15.27 59.486 0.033 6.29 2.84 9.7
9/6/2021 11:30:00 PM 15.21 59.378 0.033 6.28 2.69 9.71
9/6/2021 11:45:00 PM 15.16 59.288 0.033 6.25 2.68 9.7
9/7/2021 12:00:00 AM 15.1 59.18 0.033 6.26 2.82 9.72
9/7/2021 12:15:00 AM 15.04 59.072 0.033 6.29 2.69 9.75
9/7/2021 12:30:00 AM 14.99 58.982 0.033 6.28 2.61 9.76
9/7/2021 12:45:00 AM 14.93 58.874 0.033 6.28 2.83 9.78
9/7/2021 1:00:00 AM 14.88 58.784 0.033 6.29 2.74 9.79
9/7/2021 1:15:00 AM 14.83 58.694 0.033 6.29 2.69 9.8
9/7/2021 1:30:00 AM 14.78 58.604 0.033 6.28 2.79 9.81
9/7/2021 1:45:00 AM 14.72 58.496 0.033 6.25 2.75 9.82
9/7/2021 2:00:00 AM 14.67 58.406 0.033 6.27 2.7 9.84
9/7/2021 2:15:00 AM 14.61 58.298 0.033 6.26 2.72 9.86
9/7/2021 2:30:00 AM 14.56 58.208 0.033 6.26 2.82 9.87
9/7/2021 2:45:00 AM 14.52 58.136 0.033 6.27 2.81 9.88
9/7/2021 3:00:00 AM 14.48 58.064 0.033 6.25 2.67 9.88
9/7/2021 3:15:00 AM 14.44 57.992 0.033 6.27 2.71 9.9
9/7/2021 3:30:00 AM 14.39 57.902 0.033 6.28 2.73 9.91
9/7/2021 3:45:00 AM 14.34 57.812 0.033 6.28 2.78 9.93
9/7/2021 4:00:00 AM 14.3 57.74 0.033 6.29 2.63 9.93
9/7/2021 4:15:00 AM 14.25 57.65 0.033 6.29 2.7 9.94
9/7/2021 4:30:00 AM 14.21 57.578 0.033 6.28 2.68 9.96
9/7/2021 4:45:00 AM 14.16 57.488 0.033 6.28 2.6 9.97
9/7/2021 5:00:00 AM 14.12 57.416 0.033 6.27 2.66 9.96
9/7/2021 5:15:00 AM 14.08 57.344 0.033 6.29 2.72 9.99
9/7/2021 5:30:00 AM 14.03 57.254 0.033 6.29 2.75 10
9/7/2021 5:45:00 AM 14 57.2 0.033 6.27 2.64 10
9/7/2021 6:00:00 AM 13.96 57.128 0.033 6.27 2.7 10.02
9/7/2021 6:15:00 AM 13.91 57.038 0.033 6.29 2.62 10.03
9/7/2021 6:30:00 AM 13.87 56.966 0.033 6.3 2.57 10.05
9/7/2021 6:45:00 AM 13.83 56.894 0.033 6.28 2.65 10.06
9/7/2021 7:00:00 AM 13.79 56.822 0.033 6.31 2.78 10.07
9/7/2021 7:15:00 AM 13.76 56.768 0.033 6.3 2.7 10.09
9/7/2021 7:30:00 AM 13.73 56.714 0.033 6.31 2.7 10.12
9/7/2021 7:45:00 AM 13.7 56.66 0.033 6.3 2.71 10.15
9/7/2021 8:00:00 AM 13.67 56.606 0.033 6.32 2.56 10.18
9/7/2021 8:15:00 AM 13.64 56.552 0.033 6.33 2.54 10.22
9/7/2021 8:30:00 AM 13.63 56.534 0.033 6.35 2.86 10.26
9/7/2021 8:45:00 AM 13.62 56.516 0.033 6.35 2.57 10.29
9/7/2021 9:00:00 AM 13.61 56.498 0.033 6.35 2.57 10.31
9/7/2021 9:15:00 AM 13.62 56.516 0.033 6.38 2.56 10.34
9/7/2021 9:30:00 AM 13.61 56.498 0.033 6.38 2.46 10.34
9/7/2021 9:45:00 AM 13.64 56.552 0.033 6.38 2.56 10.31
9/7/2021 10:00:00 AM 13.67 56.606 0.033 6.39 2.65 10.3
9/7/2021 10:15:00 AM 13.7 56.66 0.033 6.39 2.55 10.29
9/7/2021 10:30:00 AM 13.75 56.75 0.033 6.39 2.44 10.28
9/7/2021 10:45:00 AM 13.8 56.84 0.033 6.4 2.41 10.29
9/7/2021 11:00:00 AM 13.87 56.966 0.033 6.41 2.52 10.27
9/7/2021 11:15:00 AM 13.95 57.11 0.033 6.42 2.47 10.27
9/7/2021 11:30:00 AM 14.02 57.236 0.033 6.42 2.49 10.27
9/7/2021 11:45:00 AM 14.11 57.398 0.033 6.43 2.48 10.26
9/7/2021 12:00:00 PM 14.2 57.56 0.033 6.42 2.44 10.24
9/7/2021 12:15:00 PM 14.3 57.74 0.033 6.45 2.63 10.22
9/7/2021 12:30:00 PM 14.41 57.938 0.033 6.44 2.64 10.2
9/7/2021 12:45:00 PM 14.54 58.172 0.033 6.45 2.5 10.18
9/7/2021 1:00:00 PM 14.69 58.442 0.033 6.48 2.47 10.17
9/7/2021 1:15:00 PM 14.85 58.73 0.033 6.47 2.47 10.14
9/7/2021 1:30:00 PM 15.02 59.036 0.033 6.48 2.48 10.13
9/7/2021 1:45:00 PM 15.21 59.378 0.033 6.51 2.38 10.1
9/7/2021 2:00:00 PM 15.34 59.612 0.033 6.52 2.51 10.08
9/7/2021 2:15:00 PM 15.44 59.792 0.033 6.4 3.58 10.04
9/7/2021 2:30:00 PM 15.63 60.134 0.032 6.5 2.38 10.03
9/7/2021 2:45:00 PM 15.75 60.35 0.033 6.5 2.33 10
9/7/2021 3:00:00 PM 15.86 60.548 0.032 6.53 2.27 9.98
9/7/2021 3:15:00 PM 15.92 60.656 0.032 6.53 2.39 9.96
9/7/2021 3:30:00 PM 15.94 60.692 0.032 6.53 2.29 9.92
9/7/2021 3:45:00 PM 15.94 60.692 0.033 6.51 2.57 9.9
9/7/2021 4:00:00 PM 15.95 60.71 0.032 6.52 2.26 9.86
9/7/2021 4:15:00 PM 15.96 60.728 0.032 6.5 2.3 9.85
9/7/2021 4:30:00 PM 15.99 60.782 0.032 6.49 2.29 9.82
9/7/2021 4:45:00 PM 16.02 60.836 0.033 6.48 2.34 9.79
9/7/2021 5:00:00 PM 16.01 60.818 0.033 6.45 2.3 9.75
9/7/2021 5:15:00 PM 16.01 60.818 0.033 6.45 2.24 9.73
9/7/2021 5:30:00 PM 15.99 60.782 0.033 6.44 2.26 9.71
9/7/2021 5:45:00 PM 15.97 60.746 0.033 6.41 2.24 9.68
9/7/2021 6:00:00 PM 15.94 60.692 0.033 6.42 2.29 9.69
9/7/2021 6:15:00 PM 15.9 60.62 0.033 6.41 2.28 9.68
9/7/2021 6:30:00 PM 15.87 60.566 0.033 6.4 2.32 9.68
9/7/2021 6:45:00 PM 15.83 60.494 0.033 6.38 2.37 9.67
9/7/2021 7:00:00 PM 15.79 60.422 0.033 6.34 2.2 9.65
9/7/2021 7:15:00 PM 15.74 60.332 0.033 6.36 2.25 9.64
9/7/2021 7:30:00 PM 15.7 60.26 0.033 6.34 2.33 9.62
9/7/2021 7:45:00 PM 15.66 60.188 0.033 6.33 2.38 9.63
9/7/2021 8:00:00 PM 15.62 60.116 0.033 6.32 2.28 9.62
9/7/2021 8:15:00 PM 15.6 60.08 0.033 6.3 2.43 9.61
9/7/2021 8:30:00 PM 15.57 60.026 0.033 6.31 2.37 9.62
9/7/2021 8:45:00 PM 15.55 59.99 0.033 6.34 2.31 9.63
9/7/2021 9:00:00 PM 15.53 59.954 0.033 6.31 2.43 9.62
9/7/2021 9:15:00 PM 15.52 59.936 0.033 6.32 2.48 9.63
9/7/2021 9:30:00 PM 15.52 59.936 0.033 6.3 2.35 9.62
9/7/2021 9:45:00 PM 15.5 59.9 0.033 6.32 2.5 9.63
9/7/2021 10:00:00 PM 15.49 59.882 0.033 6.32 2.46 9.64
9/7/2021 10:15:00 PM 15.48 59.864 0.033 6.33 2.47 9.64
9/7/2021 10:30:00 PM 15.46 59.828 0.033 6.31 2.42 9.63
9/7/2021 10:45:00 PM 15.45 59.81 0.033 6.31 2.43 9.64
9/7/2021 11:00:00 PM 15.44 59.792 0.033 6.31 2.23 9.63
9/7/2021 11:15:00 PM 15.43 59.774 0.033 6.33 2.3 9.64
9/7/2021 11:30:00 PM 15.41 59.738 0.033 6.32 2.29 9.65
9/7/2021 11:45:00 PM 15.4 59.72 0.033 6.32 2.47 9.64
9/8/2021 12:00:00 AM 15.39 59.702 0.033 6.33 2.41 9.64
9/8/2021 12:15:00 AM 15.38 59.684 0.033 6.3 2.36 9.64
9/8/2021 12:30:00 AM 15.36 59.648 0.033 6.32 2.3 9.65
9/8/2021 12:45:00 AM 15.34 59.612 0.033 6.33 2.41 9.65
9/8/2021 1:00:00 AM 15.33 59.594 0.033 6.33 2.39 9.66
9/8/2021 1:15:00 AM 15.31 59.558 0.033 6.33 2.35 9.66
9/8/2021 1:30:00 AM 15.29 59.522 0.033 6.34 2.36 9.67
9/8/2021 1:45:00 AM 15.27 59.486 0.033 6.33 2.4 9.67
9/8/2021 2:00:00 AM 15.25 59.45 0.033 6.32 2.43 9.67
9/8/2021 2:15:00 AM 15.23 59.414 0.033 6.31 2.44 9.68
9/8/2021 2:30:00 AM 15.2 59.36 0.033 6.33 2.45 9.68
9/8/2021 2:45:00 AM 15.18 59.324 0.033 6.32 2.47 9.68
9/8/2021 3:00:00 AM 15.16 59.288 0.033 6.31 2.29 9.68
9/8/2021 3:15:00 AM 15.13 59.234 0.033 6.32 2.45 9.69
9/8/2021 3:30:00 AM 15.11 59.198 0.033 6.31 2.42 9.69
9/8/2021 3:45:00 AM 15.08 59.144 0.033 6.31 2.55 9.69
9/8/2021 4:00:00 AM 15.06 59.108 0.033 6.31 2.32 9.7
9/8/2021 4:15:00 AM 15.04 59.072 0.034 6.3 2.35 9.7
9/8/2021 4:30:00 AM 15.01 59.018 0.033 6.32 2.36 9.71
9/8/2021 4:45:00 AM 14.99 58.982 0.033 6.31 2.46 9.72
9/8/2021 5:00:00 AM 14.97 58.946 0.033 6.32 2.36 9.72
9/8/2021 5:15:00 AM 14.94 58.892 0.033 6.32 2.46 9.73
9/8/2021 5:30:00 AM 14.92 58.856 0.034 6.32 2.47 9.73
9/8/2021 5:45:00 AM 14.9 58.82 0.033 6.33 2.31 9.74
9/8/2021 6:00:00 AM 14.89 58.802 0.034 6.3 2.47 9.74
9/8/2021 6:15:00 AM 14.87 58.766 0.034 6.32 2.46 9.75
9/8/2021 6:30:00 AM 14.85 58.73 0.034 6.32 2.4 9.75
9/8/2021 6:45:00 AM 14.83 58.694 0.034 6.32 2.48 9.75
9/8/2021 7:00:00 AM 14.8 58.64 0.034 6.31 2.5 9.76
9/8/2021 7:15:00 AM 14.78 58.604 0.034 6.32 2.28 9.78
9/8/2021 7:30:00 AM 14.77 58.586 0.034 6.32 2.32 9.8
9/8/2021 7:45:00 AM 14.76 58.568 0.033 6.34 2.25 9.83
9/8/2021 8:00:00 AM 14.75 58.55 0.033 6.34 2.29 9.87
9/8/2021 8:15:00 AM 14.76 58.568 0.033 6.36 2.35 9.92
9/8/2021 8:30:00 AM 14.77 58.586 0.033 6.36 2.34 9.94
9/8/2021 8:45:00 AM 14.78 58.604 0.033 6.37 2.46 9.96
9/8/2021 9:00:00 AM 14.8 58.64 0.033 6.38 2.35 9.97
9/8/2021 9:15:00 AM 14.83 58.694 0.033 6.4 2.23 10.01
9/8/2021 9:30:00 AM 14.86 58.748 0.033 6.41 2.34 10.02
9/8/2021 9:45:00 AM 14.91 58.838 0.033 6.42 2.35 10.03
9/8/2021 10:00:00 AM 14.98 58.964 0.033 6.45 2.46 10.06
9/8/2021 10:15:00 AM 15.05 59.09 0.033 6.48 2.35 10.07
9/8/2021 10:30:00 AM 15.14 59.252 0.033 6.47 2.18 10.07
9/8/2021 10:45:00 AM 15.21 59.378 0.033 6.49 2.29 10.06
9/8/2021 11:00:00 AM 15.27 59.486 0.033 6.5 2.39 10.05
9/8/2021 11:15:00 AM 15.32 59.576 0.033 6.52 2.17 10.03
9/8/2021 11:30:00 AM 15.39 59.702 0.033 6.51 2.25 10.03
9/8/2021 11:45:00 AM 15.49 59.882 0.033 6.53 2.4 10.03
9/8/2021 12:00:00 PM 15.62 60.116 0.033 6.55 2.17 10.02
9/8/2021 12:15:00 PM 15.7 60.26 0.033 6.55 2.32 9.99
9/8/2021 12:30:00 PM 15.74 60.332 0.033 6.55 2.36 9.93
9/8/2021 12:45:00 PM 15.69 60.242 0.033 6.51 2.27 9.81
9/8/2021 1:00:00 PM 15.65 60.17 0.033 6.47 2.21 9.74
9/8/2021 1:15:00 PM 15.62 60.116 0.033 6.42 2.41 9.68
9/8/2021 1:30:00 PM 15.63 60.134 0.033 6.41 2.32 9.67
9/8/2021 1:45:00 PM 15.65 60.17 0.033 6.4 2.93 9.71
9/8/2021 2:00:00 PM 15.67 60.206 0.033 6.42 2.53 9.73
9/8/2021 2:15:00 PM 15.68 60.224 0.033 6.41 2.39 9.76
9/8/2021 2:30:00 PM 15.7 60.26 0.033 6.43 2.35 9.79
9/8/2021 2:45:00 PM 15.72 60.296 0.033 6.44 2.46 9.8
9/8/2021 3:00:00 PM 15.73 60.314 0.033 6.44 2.38 9.81
9/8/2021 3:15:00 PM 15.73 60.314 0.033 6.43 2.45 9.78
9/8/2021 3:30:00 PM 15.73 60.314 0.033 6.44 2.69 9.78
9/8/2021 3:45:00 PM 15.75 60.35 0.033 6.44 3.31 9.81
9/8/2021 4:00:00 PM 15.77 60.386 0.033 6.45 3.09 9.83
9/8/2021 4:15:00 PM 15.78 60.404 0.033 6.46 3.02 9.81
9/8/2021 4:30:00 PM 15.79 60.422 0.033 6.45 2.64 9.81
9/8/2021 4:45:00 PM 15.8 60.44 0.033 6.45 2.68 9.82
9/8/2021 5:00:00 PM 15.83 60.494 0.033 6.46 2.61 9.82
9/8/2021 5:15:00 PM 15.85 60.53 0.033 6.47 2.85 9.82
9/8/2021 5:30:00 PM 15.85 60.53 0.033 6.45 2.88 9.79
9/8/2021 5:45:00 PM 15.85 60.53 0.033 6.46 2.91 9.77
9/8/2021 6:00:00 PM 15.82 60.476 0.033 6.43 2.6 9.72
9/8/2021 6:15:00 PM 15.81 60.458 0.033 6.41 2.52 9.71
9/8/2021 6:30:00 PM 15.81 60.458 0.033 6.42 2.52 9.72
9/8/2021 6:45:00 PM 15.8 60.44 0.033 6.41 2.52 9.71
9/8/2021 7:00:00 PM 15.79 60.422 0.033 6.39 2.38 9.69
9/8/2021 7:15:00 PM 15.77 60.386 0.033 6.39 2.35 9.66
9/8/2021 7:30:00 PM 15.76 60.368 0.033 6.36 2.36 9.63
9/8/2021 7:45:00 PM 15.73 60.314 0.033 6.34 2.46 9.59
9/8/2021 8:00:00 PM 15.71 60.278 0.034 6.32 2.42 9.57
9/8/2021 8:15:00 PM 15.68 60.224 0.034 6.32 2.4 9.57
9/8/2021 8:30:00 PM 15.67 60.206 0.034 6.31 2.4 9.57
9/8/2021 8:45:00 PM 15.65 60.17 0.034 6.3 2.49 9.57
9/8/2021 9:00:00 PM 15.64 60.152 0.034 6.29 2.67 9.57
9/8/2021 9:15:00 PM 15.63 60.134 0.034 6.31 2.56 9.58
9/8/2021 9:30:00 PM 15.62 60.116 0.034 6.33 2.62 9.58
9/8/2021 9:45:00 PM 15.61 60.098 0.034 6.33 2.73 9.59
9/8/2021 10:00:00 PM 15.59 60.062 0.034 6.33 2.49 9.59
9/8/2021 10:15:00 PM 15.58 60.044 0.034 6.34 2.62 9.59
9/8/2021 10:30:00 PM 15.57 60.026 0.034 6.32 2.6 9.59
9/8/2021 10:45:00 PM 15.56 60.008 0.034 6.33 2.73 9.6
9/8/2021 11:00:00 PM 15.54 59.972 0.034 6.33 2.54 9.6
9/8/2021 11:15:00 PM 15.53 59.954 0.034 6.34 2.53 9.6
9/8/2021 11:30:00 PM 15.52 59.936 0.034 6.35 2.53 9.6
9/8/2021 11:45:00 PM 15.5 59.9 0.034 6.35 2.59 9.61
9/9/2021 12:00:00 AM 15.49 59.882 0.034 6.34 2.61 9.61
9/9/2021 12:15:00 AM 15.47 59.846 0.034 6.34 2.38 9.61
9/9/2021 12:30:00 AM 15.46 59.828 0.034 6.35 2.51 9.62
9/9/2021 12:45:00 AM 15.45 59.81 0.034 6.34 2.44 9.62
9/9/2021 1:00:00 AM 15.44 59.792 0.034 6.35 2.58 9.63
9/9/2021 1:15:00 AM 15.42 59.756 0.034 6.34 2.38 9.63
9/9/2021 1:30:00 AM 15.41 59.738 0.034 6.34 2.35 9.63
9/9/2021 1:45:00 AM 15.4 59.72 0.034 6.35 2.54 9.64
9/9/2021 2:00:00 AM 15.39 59.702 0.034 6.33 2.42 9.64
9/9/2021 2:15:00 AM 15.38 59.684 0.034 6.32 2.43 9.64
9/9/2021 2:30:00 AM 15.36 59.648 0.034 6.34 2.38 9.64
9/9/2021 2:45:00 AM 15.35 59.63 0.034 6.33 2.35 9.64
9/9/2021 3:00:00 AM 15.34 59.612 0.034 6.34 2.39 9.64
9/9/2021 3:15:00 AM 15.33 59.594 0.034 6.34 2.27 9.65
9/9/2021 3:30:00 AM 15.31 59.558 0.034 6.33 2.32 9.65
9/9/2021 3:45:00 AM 15.3 59.54 0.034 6.32 2.54 9.66
9/9/2021 4:00:00 AM 15.29 59.522 0.034 6.33 2.35 9.66
9/9/2021 4:15:00 AM 15.28 59.504 0.034 6.33 2.41 9.66
9/9/2021 4:30:00 AM 15.27 59.486 0.034 6.33 2.36 9.67
9/9/2021 4:45:00 AM 15.25 59.45 0.034 6.32 2.56 9.67
9/9/2021 5:00:00 AM 15.24 59.432 0.034 6.34 2.4 9.67
9/9/2021 5:15:00 AM 15.23 59.414 0.034 6.33 2.42 9.68
9/9/2021 5:30:00 AM 15.22 59.396 0.034 6.31 2.36 9.67
9/9/2021 5:45:00 AM 15.21 59.378 0.034 6.33 2.31 9.67
9/9/2021 6:00:00 AM 15.2 59.36 0.034 6.31 2.29 9.67
9/9/2021 6:15:00 AM 15.19 59.342 0.034 6.31 2.37 9.68
9/9/2021 6:30:00 AM 15.18 59.324 0.034 6.32 2.45 9.68
9/9/2021 6:45:00 AM 15.17 59.306 0.034 6.32 2.38 9.68
9/9/2021 7:00:00 AM 15.16 59.288 0.034 6.33 2.45 9.68
9/9/2021 7:15:00 AM 15.15 59.27 0.034 6.32 2.34 9.7
9/9/2021 7:30:00 AM 15.15 59.27 0.034 6.32 2.33 9.71
9/9/2021 7:45:00 AM 15.13 59.234 0.034 6.33 2.3 9.71
9/9/2021 8:00:00 AM 15.12 59.216 0.034 6.33 2.41 9.73
9/9/2021 8:15:00 AM 15.11 59.198 0.034 6.35 2.43 9.75
9/9/2021 8:30:00 AM 15.11 59.198 0.034 6.35 2.25 9.77
9/9/2021 8:45:00 AM 15.11 59.198 0.034 6.36 2.24 9.8
9/9/2021 9:00:00 AM 15.13 59.234 0.034 6.38 2.34 9.85
9/9/2021 9:15:00 AM 15.14 59.252 0.034 6.38 2.31 9.88
9/9/2021 9:30:00 AM 15.15 59.27 0.033 6.4 2.35 9.9
9/9/2021 9:45:00 AM 15.21 59.378 0.033 6.42 2.39 9.95
9/9/2021 10:00:00 AM 15.28 59.504 0.033 6.42 2.29 9.98
9/9/2021 10:15:00 AM 15.33 59.594 0.033 6.45 2.3 9.97
9/9/2021 10:30:00 AM 15.32 59.576 0.033 6.45 2.37 9.93
9/9/2021 10:45:00 AM 15.38 59.684 0.033 6.47 2.18 9.97
9/9/2021 11:00:00 AM 15.42 59.756 0.033 6.46 2.3 9.96
9/9/2021 11:15:00 AM 15.44 59.792 0.033 6.46 2.32 9.94
9/9/2021 11:30:00 AM 15.44 59.792 0.033 6.46 2.3 9.91
9/9/2021 11:45:00 AM 15.48 59.864 0.033 6.48 2.41 9.92
9/9/2021 12:00:00 PM 15.53 59.954 0.033 6.48 2.34 9.95
9/9/2021 12:15:00 PM 15.54 59.972 0.033 6.48 2.33 9.92
9/9/2021 12:30:00 PM 15.6 60.08 0.033 6.5 2.32 9.94
9/9/2021 12:45:00 PM 15.67 60.206 0.033 6.51 2.19 9.96
9/9/2021 1:00:00 PM 15.75 60.35 0.033 6.53 2.17 9.97
9/9/2021 1:15:00 PM 15.86 60.548 0.033 6.54 2.24 9.97
9/9/2021 1:30:00 PM 15.91 60.638 0.033 6.54 2.34 9.95
9/9/2021 1:45:00 PM 16 60.8 0.033 6.55 2.15 9.92
9/9/2021 2:00:00 PM 15.99 60.782 0.033 6.54 2.32 9.9
9/9/2021 2:15:00 PM 16.1 60.98 0.033 6.55 2.22 9.9
9/9/2021 2:30:00 PM 16.21 61.178 0.033 6.55 2.25 9.9
9/9/2021 2:45:00 PM 16.4 61.52 0.033 6.57 2.28 9.88
9/9/2021 3:00:00 PM 16.44 61.592 0.033 6.58 2.28 9.85
9/9/2021 3:15:00 PM 16.45 61.61 0.033 6.59 2.12 9.83
9/9/2021 3:30:00 PM 16.45 61.61 0.033 6.55 2.29 9.81
9/9/2021 3:45:00 PM 16.34 61.412 0.033 6.54 2.33 9.77
9/9/2021 4:00:00 PM 16.34 61.412 0.033 6.52 2.49 9.78
9/9/2021 4:15:00 PM 16.35 61.43 0.033 6.51 2.2 9.76
9/9/2021 4:30:00 PM 16.39 61.502 0.033 6.51 2.35 9.75
9/9/2021 4:45:00 PM 16.37 61.466 0.033 6.52 2.16 9.73
9/9/2021 5:00:00 PM 16.35 61.43 0.033 6.51 2.22 9.72
9/9/2021 5:15:00 PM 16.32 61.376 0.033 6.49 2.3 9.7
9/9/2021 5:30:00 PM 16.3 61.34 0.033 6.48 2.2 9.68
9/9/2021 5:45:00 PM 16.29 61.322 0.033 6.47 2.21 9.67
9/9/2021 6:00:00 PM 16.26 61.268 0.033 6.46 2.28 9.65
9/9/2021 6:15:00 PM 16.23 61.214 0.033 6.45 2.35 9.64
9/9/2021 6:30:00 PM 16.18 61.124 0.033 6.44 2.17 9.61
9/9/2021 6:45:00 PM 16.13 61.034 0.033 6.44 2.23 9.61
9/9/2021 7:00:00 PM 16.07 60.926 0.033 6.41 2.34 9.59
9/9/2021 7:15:00 PM 16.01 60.818 0.033 6.4 2.2 9.57
9/9/2021 7:30:00 PM 15.95 60.71 0.034 6.38 2.21 9.56
9/9/2021 7:45:00 PM 15.89 60.602 0.034 6.39 2.29 9.56
9/9/2021 8:00:00 PM 15.83 60.494 0.034 6.38 2.21 9.55
9/9/2021 8:15:00 PM 15.77 60.386 0.034 6.38 2.29 9.56
9/9/2021 8:30:00 PM 15.71 60.278 0.034 6.37 2.36 9.57
9/9/2021 8:45:00 PM 15.65 60.17 0.034 6.36 2.36 9.58
9/9/2021 9:00:00 PM 15.6 60.08 0.034 6.36 2.39 9.59
9/9/2021 9:15:00 PM 15.54 59.972 0.034 6.34 2.28 9.6
9/9/2021 9:30:00 PM 15.48 59.864 0.034 6.33 2.36 9.61
9/9/2021 9:45:00 PM 15.43 59.774 0.034 6.34 2.36 9.62
9/9/2021 10:00:00 PM 15.37 59.666 0.034 6.34 2.32 9.64
9/9/2021 10:15:00 PM 15.32 59.576 0.034 6.34 2.35 9.65
9/9/2021 10:30:00 PM 15.26 59.468 0.034 6.34 2.37 9.66
9/9/2021 10:45:00 PM 15.21 59.378 0.034 6.34 2.5 9.67
9/9/2021 11:00:00 PM 15.15 59.27 0.034 6.35 2.4 9.69
9/9/2021 11:15:00 PM 15.1 59.18 0.034 6.33 2.37 9.7
9/9/2021 11:30:00 PM 15.04 59.072 0.034 6.33 2.39 9.71
9/9/2021 11:45:00 PM 14.99 58.982 0.034 6.34 2.41 9.73
9/10/2021 12:00:00 AM 14.94 58.892 0.034 6.33 2.26 9.74
9/10/2021 12:15:00 AM 14.89 58.802 0.034 6.33 2.43 9.75
9/10/2021 12:30:00 AM 14.85 58.73 0.034 6.34 2.32 9.76
9/10/2021 12:45:00 AM 14.81 58.658 0.034 6.34 2.49 9.78
9/10/2021 1:00:00 AM 14.78 58.604 0.034 6.33 2.41 9.79
9/10/2021 1:15:00 AM 14.74 58.532 0.034 6.33 2.37 9.8
9/10/2021 1:30:00 AM 14.71 58.478 0.034 6.35 2.3 9.81
9/10/2021 1:45:00 AM 14.68 58.424 0.034 6.34 2.32 9.81
9/10/2021 2:00:00 AM 14.65 58.37 0.034 6.34 2.35 9.82
9/10/2021 2:15:00 AM 14.61 58.298 0.034 6.35 2.3 9.83
9/10/2021 2:30:00 AM 14.58 58.244 0.034 6.35 2.26 9.83
9/10/2021 2:45:00 AM 14.56 58.208 0.034 6.34 2.37 9.84
9/10/2021 3:00:00 AM 14.53 58.154 0.034 6.34 2.49 9.85
9/10/2021 3:15:00 AM 14.51 58.118 0.034 6.34 2.25 9.85
9/10/2021 3:30:00 AM 14.48 58.064 0.034 6.34 2.38 9.86
9/10/2021 3:45:00 AM 14.44 57.992 0.034 6.35 2.32 9.87
9/10/2021 4:00:00 AM 14.4 57.92 0.034 6.35 2.3 9.88
9/10/2021 4:15:00 AM 14.36 57.848 0.034 6.34 2.41 9.88
9/10/2021 4:30:00 AM 14.32 57.776 0.034 6.35 2.29 9.9
9/10/2021 4:45:00 AM 14.29 57.722 0.034 6.34 2.64 9.89
9/10/2021 5:00:00 AM 14.25 57.65 0.034 6.35 2.27 9.91
9/10/2021 5:15:00 AM 14.22 57.596 0.034 6.33 2.35 9.92
9/10/2021 5:30:00 AM 14.18 57.524 0.034 6.34 2.33 9.94
9/10/2021 5:45:00 AM 14.15 57.47 0.034 6.34 2.41 9.95
9/10/2021 6:00:00 AM 14.11 57.398 0.034 6.35 2.36 9.96
9/10/2021 6:15:00 AM 14.08 57.344 0.034 6.33 2.39 9.96
9/10/2021 6:30:00 AM 14.05 57.29 0.034 6.34 2.24 9.97
9/10/2021 6:45:00 AM 14.02 57.236 0.034 6.34 2.33 9.98
9/10/2021 7:00:00 AM 13.98 57.164 0.034 6.34 2.32 10
9/10/2021 7:15:00 AM 13.95 57.11 0.034 6.33 2.29 10.02
9/10/2021 7:30:00 AM 13.92 57.056 0.034 6.35 2.31 10.05
9/10/2021 7:45:00 AM 13.88 56.984 0.034 6.37 2.65 10.09
9/10/2021 8:00:00 AM 13.86 56.948 0.034 6.37 2.29 10.12
9/10/2021 8:15:00 AM 13.84 56.912 0.034 6.38 2.28 10.17
9/10/2021 8:30:00 AM 13.84 56.912 0.034 6.39 2.44 10.22
9/10/2021 8:45:00 AM 13.83 56.894 0.034 6.4 2.25 10.21
9/10/2021 9:00:00 AM 13.87 56.966 0.034 6.41 2.3 10.26
9/10/2021 9:15:00 AM 13.9 57.02 0.034 6.43 2.15 10.29
9/10/2021 9:30:00 AM 13.92 57.056 0.034 6.45 2.24 10.29
9/10/2021 9:45:00 AM 13.95 57.11 0.034 6.44 2.22 10.29
9/10/2021 10:00:00 AM 14 57.2 0.034 6.46 2.17 10.29
9/10/2021 10:15:00 AM 14.08 57.344 0.033 6.48 2.13 10.31
9/10/2021 10:30:00 AM 14.15 57.47 0.033 6.5 2.24 10.33
9/10/2021 10:45:00 AM 14.17 57.506 0.033 6.51 2.25 10.31
9/10/2021 11:00:00 AM 14.22 57.596 0.033 6.5 2.27 10.29
9/10/2021 11:15:00 AM 14.3 57.74 0.033 6.51 2.37 10.28
9/10/2021 11:30:00 AM 14.37 57.866 0.033 6.53 2.32 10.27
9/10/2021 11:45:00 AM 14.46 58.028 0.033 6.52 2.38 10.27
9/10/2021 12:00:00 PM 14.55 58.19 0.033 6.52 2.26 10.26
9/10/2021 12:15:00 PM 14.64 58.352 0.033 6.54 2.11 10.25
9/10/2021 12:30:00 PM 14.72 58.496 0.033 6.56 2.26 10.23
9/10/2021 12:45:00 PM 14.8 58.64 0.033 6.56 2.24 10.24
9/10/2021 1:00:00 PM 14.84 58.712 0.033 6.55 2.19 10.22
9/10/2021 1:15:00 PM 14.96 58.928 0.033 6.56 2.36 10.22
9/10/2021 1:30:00 PM 15.02 59.036 0.033 6.58 2.24 10.2
9/10/2021 1:45:00 PM 15.17 59.306 0.033 6.56 2.24 10.18
9/10/2021 2:00:00 PM 15.16 59.288 0.033 6.57 2.18 10.14
9/10/2021 2:15:00 PM 15.34 59.612 0.033 6.55 2.3 10.15
9/10/2021 2:30:00 PM 15.39 59.702 0.033 6.59 2.3 10.15
9/10/2021 2:45:00 PM 15.31 59.558 0.033 6.56 2.22 10.09
9/10/2021 3:00:00 PM 15.32 59.576 0.033 6.55 2.21 10.09
9/10/2021 3:15:00 PM 15.25 59.45 0.033 6.52 2.8 10.03
9/10/2021 3:30:00 PM 15.33 59.594 0.033 6.52 2.21 10.06
9/10/2021 3:45:00 PM 15.37 59.666 0.033 6.53 2.32 10.1
9/10/2021 4:00:00 PM 15.38 59.684 0.033 6.55 2.35 10.09
9/10/2021 4:15:00 PM 15.37 59.666 0.033 6.52 2.11 10.06
9/10/2021 4:30:00 PM 15.38 59.684 0.033 6.52 2.22 10.05
9/10/2021 4:45:00 PM 15.39 59.702 0.033 6.51 2.12 10.01
9/10/2021 5:00:00 PM 15.35 59.63 0.033 6.49 2.24 9.96
9/10/2021 5:15:00 PM 15.33 59.594 0.033 6.48 2.16 9.93
9/10/2021 5:30:00 PM 15.3 59.54 0.033 6.46 2.21 9.9
9/10/2021 5:45:00 PM 15.28 59.504 0.034 6.45 2.19 9.88
9/10/2021 6:00:00 PM 15.27 59.486 0.034 6.44 2.18 9.88
9/10/2021 6:15:00 PM 15.26 59.468 0.034 6.42 2.13 9.86
9/10/2021 6:30:00 PM 15.24 59.432 0.034 6.42 2.31 9.85
9/10/2021 6:45:00 PM 15.21 59.378 0.034 6.42 2.28 9.84
9/10/2021 7:00:00 PM 15.16 59.288 0.034 6.41 2.22 9.82
9/10/2021 7:15:00 PM 15.12 59.216 0.034 6.41 2.24 9.82
9/10/2021 7:30:00 PM 15.07 59.126 0.034 6.39 2.53 9.81
9/10/2021 7:45:00 PM 15.03 59.054 0.034 6.38 2.18 9.79
9/10/2021 8:00:00 PM 14.98 58.964 0.034 6.37 2.24 9.79
9/10/2021 8:15:00 PM 14.94 58.892 0.034 6.37 2.24 9.8
9/10/2021 8:30:00 PM 14.89 58.802 0.034 6.38 2.17 9.8
9/10/2021 8:45:00 PM 14.84 58.712 0.034 6.37 2.28 9.81
9/10/2021 9:00:00 PM 14.78 58.604 0.034 6.36 2.37 9.82
9/10/2021 9:15:00 PM 14.73 58.514 0.034 6.35 2.3 9.84
9/10/2021 9:30:00 PM 14.68 58.424 0.034 6.36 2.4 9.85
9/10/2021 9:45:00 PM 14.63 58.334 0.034 6.35 2.28 9.86
9/10/2021 10:00:00 PM 14.57 58.226 0.034 6.36 2.23 9.88
9/10/2021 10:15:00 PM 14.52 58.136 0.034 6.35 2.3 9.89
9/10/2021 10:30:00 PM 14.47 58.046 0.034 6.34 2.26 9.9
9/10/2021 10:45:00 PM 14.42 57.956 0.034 6.34 2.2 9.91
9/10/2021 11:00:00 PM 14.37 57.866 0.034 6.35 2.27 9.92
9/10/2021 11:15:00 PM 14.31 57.758 0.034 6.34 2.24 9.94
9/10/2021 11:30:00 PM 14.26 57.668 0.034 6.35 2.28 9.96
9/10/2021 11:45:00 PM 14.21 57.578 0.034 6.34 2.29 9.96
9/11/2021 12:00:00 AM 14.16 57.488 0.034 6.33 2.37 9.99
9/11/2021 12:15:00 AM 14.11 57.398 0.034 6.33 2.27 9.98
9/11/2021 12:30:00 AM 14.07 57.326 0.034 6.34 2.33 10.01
9/11/2021 12:45:00 AM 14.03 57.254 0.034 6.34 2.29 10.02
9/11/2021 1:00:00 AM 13.97 57.146 0.034 6.33 2.38 10.03
9/11/2021 1:15:00 AM 13.91 57.038 0.034 6.34 2.4 10.05
9/11/2021 1:30:00 AM 13.86 56.948 0.034 6.34 2.49 10.05
9/11/2021 1:45:00 AM 13.81 56.858 0.034 6.33 2.28 10.07
9/11/2021 2:00:00 AM 13.76 56.768 0.034 6.34 2.33 10.08
9/11/2021 2:15:00 AM 13.72 56.696 0.034 6.32 2.29 10.09
9/11/2021 2:30:00 AM 13.68 56.624 0.034 6.32 2.29 10.1
9/11/2021 2:45:00 AM 13.64 56.552 0.034 6.33 2.25 10.11
9/11/2021 3:00:00 AM 13.61 56.498 0.034 6.32 2.29 10.12
9/11/2021 3:15:00 AM 13.57 56.426 0.034 6.33 2.34 10.13
9/11/2021 3:30:00 AM 13.54 56.372 0.034 6.33 2.24 10.14
9/11/2021 3:45:00 AM 13.51 56.318 0.034 6.32 2.31 10.15
9/11/2021 4:00:00 AM 13.48 56.264 0.034 6.35 2.25 10.16
9/11/2021 4:15:00 AM 13.45 56.21 0.034 6.34 2.36 10.17
9/11/2021 4:30:00 AM 13.42 56.156 0.034 6.34 2.51 10.17
9/11/2021 4:45:00 AM 13.39 56.102 0.034 6.34 2.53 10.18
9/11/2021 5:00:00 AM 13.36 56.048 0.034 6.34 2.3 10.19
9/11/2021 5:15:00 AM 13.34 56.012 0.034 6.35 2.28 10.19
9/11/2021 5:30:00 AM 13.31 55.958 0.034 6.33 2.21 10.19
9/11/2021 5:45:00 AM 13.29 55.922 0.034 6.35 2.49 10.19
9/11/2021 6:00:00 AM 13.27 55.886 0.034 6.34 2.44 10.21
9/11/2021 6:15:00 AM 13.24 55.832 0.034 6.34 3.93 10.22
9/11/2021 6:30:00 AM 13.22 55.796 0.034 6.35 3.21 10.23
9/11/2021 6:45:00 AM 13.2 55.76 0.034 6.36 2.64 10.23
9/11/2021 7:00:00 AM 13.17 55.706 0.034 6.35 2.36 10.25
9/11/2021 7:15:00 AM 13.15 55.67 0.034 6.36 2.26 10.26
9/11/2021 7:30:00 AM 13.13 55.634 0.034 6.36 2.11 10.29
9/11/2021 7:45:00 AM 13.12 55.616 0.034 6.37 2.19 10.32
9/11/2021 8:00:00 AM 13.1 55.58 0.034 6.37 2.31 10.35
9/11/2021 8:15:00 AM 13.1 55.58 0.034 6.38 2.28 10.39
9/11/2021 8:30:00 AM 13.1 55.58 0.034 6.41 2.13 10.45
9/11/2021 8:45:00 AM 13.1 55.58 0.034 6.42 2.17 10.5
9/11/2021 9:00:00 AM 13.11 55.598 0.034 6.42 2.16 10.53
9/11/2021 9:15:00 AM 13.1 55.58 0.034 6.43 2.12 10.54
9/11/2021 9:30:00 AM 13.11 55.598 0.034 6.44 2.14 10.54
9/11/2021 9:45:00 AM 13.13 55.634 0.034 6.44 2.17 10.54
9/11/2021 10:00:00 AM 13.18 55.724 0.034 6.45 2.11 10.53
9/11/2021 10:15:00 AM 13.24 55.832 0.034 6.46 2.23 10.53
9/11/2021 10:30:00 AM 13.3 55.94 0.034 6.47 2.14 10.52
9/11/2021 10:45:00 AM 13.38 56.084 0.034 6.48 2.18 10.51
9/11/2021 11:00:00 AM 13.45 56.21 0.034 6.49 2.11 10.51
9/11/2021 11:15:00 AM 13.55 56.39 0.034 6.5 2.26 10.5
9/11/2021 11:30:00 AM 13.65 56.57 0.034 6.5 2.13 10.5
9/11/2021 11:45:00 AM 13.77 56.786 0.034 6.51 2.13 10.48
9/11/2021 12:00:00 PM 13.89 57.002 0.034 6.52 2.05 10.47
9/11/2021 12:15:00 PM 14.01 57.218 0.034 6.54 2.05 10.46
9/11/2021 12:30:00 PM 14.14 57.452 0.034 6.54 2.23 10.44
9/11/2021 12:45:00 PM 14.29 57.722 0.034 6.55 2.25 10.42
9/11/2021 1:00:00 PM 14.43 57.974 0.034 6.57 2.08 10.39
9/11/2021 1:15:00 PM 14.6 58.28 0.034 6.58 2.14 10.38
9/11/2021 1:30:00 PM 14.78 58.604 0.034 6.6 2.08 10.34
9/11/2021 1:45:00 PM 14.95 58.91 0.034 6.6 2.02 10.31
9/11/2021 2:00:00 PM 15.12 59.216 0.034 6.61 2.1 10.28
9/11/2021 2:15:00 PM 15.28 59.504 0.034 6.61 2.15 10.26
9/11/2021 2:30:00 PM 15.41 59.738 0.034 6.62 2.12 10.24
9/11/2021 2:45:00 PM 15.5 59.9 0.034 6.61 2.11 10.21
9/11/2021 3:00:00 PM 15.57 60.026 0.034 6.62 2.08 10.19
9/11/2021 3:15:00 PM 15.52 59.936 0.034 6.59 2 10.15
9/11/2021 3:30:00 PM 15.49 59.882 0.034 6.58 2.15 10.14
9/11/2021 3:45:00 PM 15.51 59.918 0.034 6.58 2.11 10.13
9/11/2021 4:00:00 PM 15.51 59.918 0.034 6.56 2.01 10.11
9/11/2021 4:15:00 PM 15.52 59.936 0.034 6.56 2.1 10.1
9/11/2021 4:30:00 PM 15.54 59.972 0.034 6.54 2.05 10.08
9/11/2021 4:45:00 PM 15.56 60.008 0.034 6.55 2.15 10.05
9/11/2021 5:00:00 PM 15.56 60.008 0.034 6.54 1.99 10.01
9/11/2021 5:15:00 PM 15.54 59.972 0.034 6.52 2.17 9.95
9/11/2021 5:30:00 PM 15.52 59.936 0.034 6.49 2.11 9.91
9/11/2021 5:45:00 PM 15.51 59.918 0.034 6.48 2.18 9.88
9/11/2021 6:00:00 PM 15.49 59.882 0.034 6.45 2.14 9.86
9/11/2021 6:15:00 PM 15.47 59.846 0.034 6.46 2.08 9.84
9/11/2021 6:30:00 PM 15.45 59.81 0.034 6.43 2.09 9.83
9/11/2021 6:45:00 PM 15.42 59.756 0.034 6.42 2.07 9.81
9/11/2021 7:00:00 PM 15.38 59.684 0.034 6.41 5.77 9.79
9/11/2021 7:15:00 PM 15.34 59.612 0.034 6.39 2.13 9.77
9/11/2021 7:30:00 PM 15.3 59.54 0.034 6.39 2.17 9.76
9/11/2021 7:45:00 PM 15.25 59.45 0.034 6.38 2.27 9.75
9/11/2021 8:00:00 PM 15.21 59.378 0.034 6.37 2.19 9.73
9/11/2021 8:15:00 PM 15.16 59.288 0.034 6.36 2.09 9.74
9/11/2021 8:30:00 PM 15.12 59.216 0.034 6.35 2.17 9.74
9/11/2021 8:45:00 PM 15.07 59.126 0.034 6.35 2.25 9.75
9/11/2021 9:00:00 PM 15.03 59.054 0.034 6.36 2.17 9.76
9/11/2021 9:15:00 PM 15 59 0.034 6.34 3 9.77
9/11/2021 9:30:00 PM 14.95 58.91 0.034 6.36 2.2 9.78
9/11/2021 9:45:00 PM 14.92 58.856 0.034 6.36 2.1 9.79
9/11/2021 10:00:00 PM 14.88 58.784 0.034 6.34 2.41 9.8
9/11/2021 10:15:00 PM 14.84 58.712 0.034 6.35 2.16 9.8
9/11/2021 10:30:00 PM 14.81 58.658 0.034 6.33 2.34 9.81
9/11/2021 10:45:00 PM 14.77 58.586 0.034 6.33 2.28 9.81
9/11/2021 11:00:00 PM 14.73 58.514 0.035 6.33 2.22 9.83
9/11/2021 11:15:00 PM 14.69 58.442 0.034 6.34 2.14 9.83
9/11/2021 11:30:00 PM 14.65 58.37 0.035 6.33 2.32 9.84
9/11/2021 11:45:00 PM 14.62 58.316 0.034 6.34 2.17 9.85
9/12/2021 12:00:00 AM 14.58 58.244 0.034 6.35 2.22 9.86
9/12/2021 12:15:00 AM 14.55 58.19 0.035 6.33 2.16 9.87
9/12/2021 12:30:00 AM 14.53 58.154 0.035 6.34 2.24 9.87
9/12/2021 12:45:00 AM 14.5 58.1 0.035 6.33 2.21 9.88
9/12/2021 1:00:00 AM 14.47 58.046 0.035 6.34 2.22 9.88
9/12/2021 1:15:00 AM 14.44 57.992 0.035 6.33 2.06 9.9
9/12/2021 1:30:00 AM 14.42 57.956 0.035 6.33 2.14 9.9
9/12/2021 1:45:00 AM 14.39 57.902 0.035 6.34 2.19 9.9
9/12/2021 2:00:00 AM 14.37 57.866 0.035 6.34 2.19 9.91
9/12/2021 2:15:00 AM 14.34 57.812 0.035 6.33 2.29 9.91
9/12/2021 2:30:00 AM 14.33 57.794 0.035 6.31 2.28 9.92
9/12/2021 2:45:00 AM 14.31 57.758 0.035 6.34 2.4 9.92
9/12/2021 3:00:00 AM 14.3 57.74 0.035 6.34 2.18 9.93
9/12/2021 3:15:00 AM 14.29 57.722 0.035 6.34 2.2 9.93
9/12/2021 3:30:00 AM 14.28 57.704 0.035 6.36 2.22 9.94
9/12/2021 3:45:00 AM 14.27 57.686 0.035 6.34 2.13 9.93
9/12/2021 4:00:00 AM 14.27 57.686 0.035 6.35 2.24 9.93
9/12/2021 4:15:00 AM 14.26 57.668 0.035 6.35 2.22 9.93
9/12/2021 4:30:00 AM 14.26 57.668 0.035 6.34 2.23 9.93
9/12/2021 4:45:00 AM 14.26 57.668 0.035 6.35 2.18 9.93
9/12/2021 5:00:00 AM 14.27 57.686 0.035 6.34 2.79 9.92
9/12/2021 5:15:00 AM 14.27 57.686 0.035 6.36 2.17 9.93
9/12/2021 5:30:00 AM 14.28 57.704 0.035 6.35 2.12 9.94
9/12/2021 5:45:00 AM 14.29 57.722 0.035 6.35 2.19 9.93
9/12/2021 6:00:00 AM 14.3 57.74 0.035 6.36 2.17 9.94
9/12/2021 6:15:00 AM 14.31 57.758 0.035 6.34 12.69 9.89
9/12/2021 6:30:00 AM 14.32 57.776 0.035 6.34 3.4 9.9
9/12/2021 6:45:00 AM 14.33 57.794 0.035 6.35 2.28 9.89
9/12/2021 7:00:00 AM 14.33 57.794 0.035 6.36 2.14 9.92
9/12/2021 7:15:00 AM 14.35 57.83 0.035 6.37 2.37 9.81
9/12/2021 7:30:00 AM 14.36 57.848 0.035 6.34 2.21 9.92
9/12/2021 7:45:00 AM 14.38 57.884 0.035 6.38 2.42 9.98
9/12/2021 8:00:00 AM 14.4 57.92 0.035 6.39 2.15 10.03
9/12/2021 8:15:00 AM 14.43 57.974 0.035 6.4 2.2 10.07
9/12/2021 8:30:00 AM 14.45 58.01 0.035 6.41 2.06 10.1
9/12/2021 8:45:00 AM 14.48 58.064 0.035 6.42 2.17 10.14
9/12/2021 9:00:00 AM 14.51 58.118 0.035 6.44 2.23 10.14
9/12/2021 9:15:00 AM 14.54 58.172 0.035 6.42 1.96 10.12
9/12/2021 9:30:00 AM 14.57 58.226 0.035 6.44 2.05 10.13
9/12/2021 9:45:00 AM 14.61 58.298 0.035 6.43 2.05 10.15
9/12/2021 10:00:00 AM 14.65 58.37 0.035 6.46 2.22 10.18
9/12/2021 10:15:00 AM 14.71 58.478 0.034 6.48 2.31 10.2
9/12/2021 10:30:00 AM 14.77 58.586 0.034 6.5 2.03 10.23
9/12/2021 10:45:00 AM 14.8 58.64 0.034 6.5 2.09 10.21
9/12/2021 11:00:00 AM 14.84 58.712 0.034 6.5 2.19 10.19
9/12/2021 11:15:00 AM 14.88 58.784 0.034 6.52 2.21 10.21
9/12/2021 11:30:00 AM 14.93 58.874 0.034 6.53 2.03 10.23
9/12/2021 11:45:00 AM 15 59 0.034 6.54 2.04 10.23
9/12/2021 12:00:00 PM 15.07 59.126 0.034 6.55 2.03 10.24
9/12/2021 12:15:00 PM 15.13 59.234 0.034 6.56 2.07 10.23
9/12/2021 12:30:00 PM 15.25 59.45 0.034 6.57 2.05 10.24
9/12/2021 12:45:00 PM 15.33 59.594 0.034 6.6 2.03 10.23
9/12/2021 1:00:00 PM 15.42 59.756 0.034 6.6 2.03 10.22
9/12/2021 1:15:00 PM 15.52 59.936 0.034 6.63 1.98 10.22
9/12/2021 1:30:00 PM 15.59 60.062 0.034 6.62 2.1 10.2
9/12/2021 1:45:00 PM 15.67 60.206 0.034 6.64 2.04 10.18
9/12/2021 2:00:00 PM 15.77 60.386 0.034 6.64 2.09 10.17
9/12/2021 2:15:00 PM 15.86 60.548 0.034 6.65 1.96 10.16
9/12/2021 2:30:00 PM 15.92 60.656 0.034 6.66 2 10.15
9/12/2021 2:45:00 PM 16 60.8 0.034 6.66 2.06 10.12
9/12/2021 3:00:00 PM 16.05 60.89 0.034 6.66 2.08 10.08
9/12/2021 3:15:00 PM 16.08 60.944 0.034 6.64 2.02 10.04
9/12/2021 3:30:00 PM 16.11 60.998 0.034 6.63 1.96 10.02
9/12/2021 3:45:00 PM 16.1 60.98 0.034 6.6 2.02 9.97
9/12/2021 4:00:00 PM 16.12 61.016 0.034 6.6 2.16 9.98
9/12/2021 4:15:00 PM 16.16 61.088 0.034 6.6 2.09 9.98
9/12/2021 4:30:00 PM 16.21 61.178 0.034 6.6 2.1 9.97
9/12/2021 4:45:00 PM 16.24 61.232 0.034 6.6 2.08 9.95
9/12/2021 5:00:00 PM 16.28 61.304 0.034 6.6 2.04 9.93
9/12/2021 5:15:00 PM 16.27 61.286 0.034 6.57 1.96 9.88
9/12/2021 5:30:00 PM 16.26 61.268 0.034 6.56 2.1 9.83
9/12/2021 5:45:00 PM 16.25 61.25 0.034 6.54 2.08 9.8
9/12/2021 6:00:00 PM 16.24 61.232 0.034 6.51 2.12 9.77
9/12/2021 6:15:00 PM 16.23 61.214 0.035 6.48 2.04 9.74
9/12/2021 6:30:00 PM 16.22 61.196 0.035 6.49 2.05 9.7
9/12/2021 6:45:00 PM 16.2 61.16 0.035 6.45 2.12 9.67
9/12/2021 7:00:00 PM 16.18 61.124 0.035 6.42 1.99 9.63
9/12/2021 7:15:00 PM 16.15 61.07 0.035 6.41 2.13 9.59
9/12/2021 7:30:00 PM 16.13 61.034 0.035 6.39 2.11 9.56
9/12/2021 7:45:00 PM 16.1 60.98 0.035 6.38 2.15 9.53
9/12/2021 8:00:00 PM 16.07 60.926 0.035 6.34 2.05 9.52
9/12/2021 8:15:00 PM 16.06 60.908 0.035 6.35 2.03 9.51
9/12/2021 8:30:00 PM 16.04 60.872 0.035 6.32 2.01 9.52
9/12/2021 8:45:00 PM 16.03 60.854 0.035 6.31 2.06 9.52
9/12/2021 9:00:00 PM 16.01 60.818 0.035 6.3 2.21 9.52
9/12/2021 9:15:00 PM 16 60.8 0.035 6.29 2 9.52
9/12/2021 9:30:00 PM 15.99 60.782 0.035 6.3 2.07 9.52
9/12/2021 9:45:00 PM 15.98 60.764 0.035 6.32 2.09 9.52
9/12/2021 10:00:00 PM 15.97 60.746 0.036 6.29 2.51 9.52
9/12/2021 10:15:00 PM 15.96 60.728 0.036 6.31 2.09 9.52
9/12/2021 10:30:00 PM 15.95 60.71 0.036 6.3 2.2 9.53
9/12/2021 10:45:00 PM 15.94 60.692 0.036 6.31 2.03 9.53
9/12/2021 11:00:00 PM 15.93 60.674 0.036 6.3 2.14 9.53
9/12/2021 11:15:00 PM 15.92 60.656 0.036 6.31 2.02 9.53
9/12/2021 11:30:00 PM 15.91 60.638 0.036 6.29 2.13 9.53
9/12/2021 11:45:00 PM 15.91 60.638 0.036 6.3 2.32 9.53
9/13/2021 12:00:00 AM 15.91 60.638 0.036 6.31 1.99 9.54
9/13/2021 12:15:00 AM 15.9 60.62 0.036 6.31 2.03 9.53
9/13/2021 12:30:00 AM 15.89 60.602 0.036 6.3 2.05 9.54
9/13/2021 12:45:00 AM 15.89 60.602 0.036 6.32 2.09 9.54
9/13/2021 1:00:00 AM 15.89 60.602 0.036 6.29 2.11 9.54
9/13/2021 1:15:00 AM 15.88 60.584 0.036 6.31 2.09 9.54
9/13/2021 1:30:00 AM 15.88 60.584 0.036 6.28 1.99 9.54
9/13/2021 1:45:00 AM 15.87 60.566 0.036 6.29 2.17 9.54
9/13/2021 2:00:00 AM 15.87 60.566 0.036 6.29 2.16 9.54
9/13/2021 2:15:00 AM 15.87 60.566 0.036 6.27 2.04 9.54
9/13/2021 2:30:00 AM 15.88 60.584 0.036 6.29 2.15 9.54
9/13/2021 2:45:00 AM 15.88 60.584 0.036 6.3 2.09 9.54
9/13/2021 3:00:00 AM 15.88 60.584 0.036 6.29 2.1 9.54
9/13/2021 3:15:00 AM 15.88 60.584 0.036 6.31 2.16 9.54
9/13/2021 3:30:00 AM 15.88 60.584 0.036 6.28 2.11 9.54
9/13/2021 3:45:00 AM 15.87 60.566 0.036 6.28 2.12 9.54
9/13/2021 4:00:00 AM 15.87 60.566 0.036 6.27 2.01 9.54
9/13/2021 4:15:00 AM 15.86 60.548 0.036 6.28 2.13 9.54
9/13/2021 4:30:00 AM 15.86 60.548 0.036 6.27 2.05 9.54
9/13/2021 4:45:00 AM 15.85 60.53 0.036 6.27 2.1 9.54
9/13/2021 5:00:00 AM 15.84 60.512 0.036 6.28 2.12 9.54
9/13/2021 5:15:00 AM 15.84 60.512 0.036 6.28 2.12 9.55
9/13/2021 5:30:00 AM 15.84 60.512 0.036 6.26 2 9.54
9/13/2021 5:45:00 AM 15.83 60.494 0.036 6.3 4.27 9.54
9/13/2021 6:00:00 AM 15.84 60.512 0.036 6.26 2.11 9.54
9/13/2021 6:15:00 AM 15.83 60.494 0.036 6.27 2.05 9.55
9/13/2021 6:30:00 AM 15.83 60.494 0.036 6.29 2.07 9.54
9/13/2021 6:45:00 AM 15.83 60.494 0.036 6.28 2.1 9.55
9/13/2021 7:00:00 AM 15.83 60.494 0.036 6.29 2.11 9.55
9/13/2021 7:15:00 AM 15.84 60.512 0.036 6.29 2.01 9.56
9/13/2021 7:30:00 AM 15.84 60.512 0.036 6.3 2.18 9.57
9/13/2021 7:45:00 AM 15.84 60.512 0.036 6.3 2.08 9.58
9/13/2021 8:00:00 AM 15.85 60.53 0.036 6.32 1.92 9.61
9/13/2021 8:15:00 AM 15.85 60.53 0.036 6.31 2.06 9.64
9/13/2021 8:30:00 AM 15.86 60.548 0.036 6.33 2.02 9.66
9/13/2021 8:45:00 AM 15.87 60.566 0.036 6.33 2.05 9.65
9/13/2021 9:00:00 AM 15.88 60.584 0.036 6.33 2.03 9.67
9/13/2021 9:15:00 AM 15.89 60.602 0.036 6.33 2.02 9.74
9/13/2021 9:30:00 AM 15.92 60.656 0.036 6.34 2.13 9.79
9/13/2021 9:45:00 AM 15.93 60.674 0.036 6.33 2.03 9.79
9/13/2021 10:00:00 AM 15.95 60.71 0.036 6.35 2.11 9.79
9/13/2021 10:15:00 AM 15.95 60.71 0.036 6.36 2.05 9.77
9/13/2021 10:30:00 AM 15.96 60.728 0.036 6.38 2.04 9.77
9/13/2021 10:45:00 AM 15.97 60.746 0.036 6.38 2.18 9.78
9/13/2021 11:00:00 AM 15.99 60.782 0.036 6.41 1.97 9.8
9/13/2021 11:15:00 AM 16.01 60.818 0.036 6.4 2.19 9.84
9/13/2021 11:30:00 AM 16.05 60.89 0.036 6.44 2 9.89
9/13/2021 11:45:00 AM 16.09 60.962 0.036 6.46 2.12 9.91
9/13/2021 12:00:00 PM 16.15 61.07 0.035 6.5 1.98 9.96
9/13/2021 12:15:00 PM 16.23 61.214 0.035 6.54 2.14 9.99
9/13/2021 12:30:00 PM 16.31 61.358 0.035 6.57 1.97 10.03
9/13/2021 12:45:00 PM 16.36 61.448 0.035 6.6 2.03 10
9/13/2021 1:00:00 PM 16.4 61.52 0.035 6.59 2 9.96
9/13/2021 1:15:00 PM 16.48 61.664 0.035 6.6 2.03 9.99
9/13/2021 1:30:00 PM 16.64 61.952 0.035 6.65 2.1 10.01
9/13/2021 1:45:00 PM 16.78 62.204 0.035 6.69 1.98 10
9/13/2021 2:00:00 PM 16.88 62.384 0.035 6.68 2 9.97
9/13/2021 2:15:00 PM 17.01 62.618 0.035 6.7 2 9.95
9/13/2021 2:30:00 PM 17.1 62.78 0.035 6.69 1.85 9.93
9/13/2021 2:45:00 PM 17.17 62.906 0.035 6.7 2.01 9.91
9/13/2021 3:00:00 PM 17.19 62.942 0.035 6.7 2 9.88
9/13/2021 3:15:00 PM 17.23 63.014 0.035 6.71 1.92 9.86
9/13/2021 3:30:00 PM 17.27 63.086 0.035 6.7 1.95 9.84
9/13/2021 3:45:00 PM 17.23 63.014 0.035 6.67 2.04 9.77
9/13/2021 4:00:00 PM 17.2 62.96 0.035 6.63 1.97 9.73
9/13/2021 4:15:00 PM 17.19 62.942 0.035 6.63 1.99 9.71
9/13/2021 4:30:00 PM 17.19 62.942 0.035 6.58 2.1 9.68
9/13/2021 4:45:00 PM 17.17 62.906 0.035 6.56 1.98 9.63
9/13/2021 5:00:00 PM 17.16 62.888 0.035 6.53 2.14 9.55
9/13/2021 5:15:00 PM 17.16 62.888 0.035 6.51 1.88 9.56
9/13/2021 5:30:00 PM 17.16 62.888 0.035 6.51 1.92 9.56
9/13/2021 5:45:00 PM 17.16 62.888 0.035 6.52 2.09 9.56
9/13/2021 6:00:00 PM 17.16 62.888 0.035 6.5 2.01 9.53
9/13/2021 6:15:00 PM 17.15 62.87 0.035 6.47 2.03 9.49
9/13/2021 6:30:00 PM 17.13 62.834 0.036 6.46 1.94 9.42
9/13/2021 6:45:00 PM 17.19 62.942 0.035 6.45 2.61 9.36
9/13/2021 7:00:00 PM 17.22 62.996 0.035 6.46 2.5 9.31
9/13/2021 7:15:00 PM 17.2 62.96 0.035 6.45 3 9.27
9/13/2021 7:30:00 PM 17.17 62.906 0.035 6.45 2.69 9.26
9/13/2021 7:45:00 PM 17.14 62.852 0.036 6.46 2.63 9.25
9/13/2021 8:00:00 PM 17.1 62.78 0.036 6.44 2.74 9.26
9/13/2021 8:15:00 PM 17.07 62.726 0.036 6.44 2.66 9.27
9/13/2021 8:30:00 PM 17.03 62.654 0.036 6.43 2.57 9.28
9/13/2021 8:45:00 PM 17 62.6 0.036 6.43 2.84 9.29
9/13/2021 9:00:00 PM 16.98 62.564 0.036 6.43 5.84 9.29
9/13/2021 9:15:00 PM 16.95 62.51 0.036 6.42 15.36 9.3
9/13/2021 9:30:00 PM 16.93 62.474 0.036 6.43 20.19 9.3
9/13/2021 9:45:00 PM 16.92 62.456 0.036 6.41 14.41 9.3
9/13/2021 10:00:00 PM 16.9 62.42 0.036 6.42 10.08 9.31
9/13/2021 10:15:00 PM 16.88 62.384 0.036 6.41 7.85 9.31
9/13/2021 10:30:00 PM 16.87 62.366 0.036 6.42 5.69 9.32
9/13/2021 10:45:00 PM 16.85 62.33 0.036 6.41 6.26 9.32
9/13/2021 11:00:00 PM 16.83 62.294 0.036 6.41 8.29 9.33
9/13/2021 11:15:00 PM 16.81 62.258 0.036 6.42 11.45 9.33
9/13/2021 11:30:00 PM 16.8 62.24 0.036 6.43 15.16 9.34
9/13/2021 11:45:00 PM 16.78 62.204 0.036 6.43 14.21 9.34
9/14/2021 12:00:00 AM 16.76 62.168 0.036 6.44 14 9.35
9/14/2021 12:15:00 AM 16.74 62.132 0.037 6.44 11.47 9.35
9/14/2021 12:30:00 AM 16.72 62.096 0.036 6.45 8.55 9.36
9/14/2021 12:45:00 AM 16.7 62.06 0.036 6.41 6.66 9.36
9/14/2021 1:00:00 AM 16.68 62.024 0.036 6.42 5.28 9.37
9/14/2021 1:15:00 AM 16.66 61.988 0.036 6.42 4.55 9.37
9/14/2021 1:30:00 AM 16.64 61.952 0.036 6.41 3.88 9.38
9/14/2021 1:45:00 AM 16.62 61.916 0.036 6.42 3.51 9.38
9/14/2021 2:00:00 AM 16.59 61.862 0.036 6.43 3.31 9.39
9/14/2021 2:15:00 AM 16.56 61.808 0.036 6.41 3.11 9.39
9/14/2021 2:30:00 AM 16.54 61.772 0.036 6.43 3.22 9.4
9/14/2021 2:45:00 AM 16.53 61.754 0.036 6.43 2.88 9.41
9/14/2021 3:00:00 AM 16.51 61.718 0.036 6.43 2.99 9.41
9/14/2021 3:15:00 AM 16.5 61.7 0.036 6.44 2.79 9.42
9/14/2021 3:30:00 AM 16.49 61.682 0.036 6.44 2.73 9.42
9/14/2021 3:45:00 AM 16.48 61.664 0.036 6.44 2.58 9.42
9/14/2021 4:00:00 AM 16.46 61.628 0.036 6.42 2.59 9.42
9/14/2021 4:15:00 AM 16.45 61.61 0.036 6.43 2.66 9.42
9/14/2021 4:30:00 AM 16.43 61.574 0.036 6.41 2.59 9.42
9/14/2021 4:45:00 AM 16.42 61.556 0.036 6.42 2.78 9.43
9/14/2021 5:00:00 AM 16.41 61.538 0.036 6.42 2.67 9.43
9/14/2021 5:15:00 AM 16.4 61.52 0.036 6.43 2.69 9.43
9/14/2021 5:30:00 AM 16.39 61.502 0.036 6.42 2.58 9.43
9/14/2021 5:45:00 AM 16.38 61.484 0.036 6.42 2.59 9.44
9/14/2021 6:00:00 AM 16.37 61.466 0.036 6.43 2.63 9.44
9/14/2021 6:15:00 AM 16.36 61.448 0.036 6.43 2.6 9.43
9/14/2021 6:30:00 AM 16.35 61.43 0.036 6.43 2.7 9.44
9/14/2021 6:45:00 AM 16.34 61.412 0.036 6.44 2.62 9.45
9/14/2021 7:00:00 AM 16.33 61.394 0.036 6.44 2.49 9.45
9/14/2021 7:15:00 AM 16.32 61.376 0.036 6.42 2.57 9.46
9/14/2021 7:30:00 AM 16.31 61.358 0.036 6.44 2.78 9.49
9/14/2021 7:45:00 AM 16.31 61.358 0.036 6.44 2.45 9.5
9/14/2021 8:00:00 AM 16.31 61.358 0.036 6.46 2.35 9.53
9/14/2021 8:15:00 AM 16.31 61.358 0.036 6.46 2.37 9.55
9/14/2021 8:30:00 AM 16.31 61.358 0.036 6.45 2.44 9.57
9/14/2021 8:45:00 AM 16.31 61.358 0.036 6.47 2.35 9.59
9/14/2021 9:00:00 AM 16.32 61.376 0.036 6.47 2.26 9.61
9/14/2021 9:15:00 AM 16.32 61.376 0.036 6.47 2.38 9.64
9/14/2021 9:30:00 AM 16.33 61.394 0.036 6.48 2.25 9.68
9/14/2021 9:45:00 AM 16.35 61.43 0.036 6.49 2.35 9.71
9/14/2021 10:00:00 AM 16.37 61.466 0.036 6.49 2.22 9.74
9/14/2021 10:15:00 AM 16.4 61.52 0.036 6.51 2.29 9.79
9/14/2021 10:30:00 AM 16.44 61.592 0.035 6.54 2.32 9.82
9/14/2021 10:45:00 AM 16.48 61.664 0.035 6.53 2.13 9.85
9/14/2021 11:00:00 AM 16.52 61.736 0.035 6.56 2.23 9.88
9/14/2021 11:15:00 AM 16.58 61.844 0.035 6.57 2.28 9.91
9/14/2021 11:30:00 AM 16.65 61.97 0.035 6.61 2.14 9.92
9/14/2021 11:45:00 AM 16.72 62.096 0.035 6.62 2.27 9.91
9/14/2021 12:00:00 PM 16.81 62.258 0.035 6.64 2.21 9.92
9/14/2021 12:15:00 PM 16.91 62.438 0.035 6.66 2.12 9.92
9/14/2021 12:30:00 PM 17.03 62.654 0.035 6.68 2.26 9.9
9/14/2021 12:45:00 PM 17.16 62.888 0.035 6.69 2.22 9.86
9/14/2021 1:00:00 PM 17.25 63.05 0.035 6.7 2.28 9.83
9/14/2021 1:15:00 PM 17.36 63.248 0.035 6.7 2.11 9.82
9/14/2021 1:30:00 PM 17.46 63.428 0.035 6.71 2.12 9.81
9/14/2021 1:45:00 PM 17.63 63.734 0.035 6.73 2.15 9.8
9/14/2021 2:00:00 PM 17.76 63.968 0.035 6.75 2.46 9.77
9/14/2021 2:15:00 PM 17.83 64.094 0.035 6.74 2.16 9.74
9/14/2021 2:30:00 PM 17.98 64.364 0.035 6.77 2.27 9.73
9/14/2021 2:45:00 PM 18.08 64.544 0.035 6.77 2.2 9.72
9/14/2021 3:00:00 PM 18.09 64.562 0.035 6.76 2.07 9.7
9/14/2021 3:15:00 PM 18.09 64.562 0.035 6.77 2.24 9.68
9/14/2021 3:30:00 PM 18.11 64.598 0.035 6.77 2.17 9.66
9/14/2021 3:45:00 PM 18.13 64.634 0.035 6.77 2.23 9.65
9/14/2021 4:00:00 PM 18.13 64.634 0.035 6.74 2.17 9.62
9/14/2021 4:15:00 PM 18.1 64.58 0.035 6.72 2.15 9.59
9/14/2021 4:30:00 PM 18.08 64.544 0.035 6.7 2.14 9.54
9/14/2021 4:45:00 PM 18.07 64.526 0.035 6.66 2.24 9.54
9/14/2021 5:00:00 PM 18.07 64.526 0.035 6.65 2.12 9.51
9/14/2021 5:15:00 PM 18.07 64.526 0.035 6.63 2.19 9.48
9/14/2021 5:30:00 PM 18.06 64.508 0.035 6.64 2.09 9.44
9/14/2021 5:45:00 PM 18.05 64.49 0.035 6.62 2.1 9.41
9/14/2021 6:00:00 PM 18.03 64.454 0.035 6.6 2.08 9.37
9/14/2021 6:15:00 PM 18.01 64.418 0.035 6.57 2.1 9.32
9/14/2021 6:30:00 PM 17.97 64.346 0.035 6.55 2.19 9.27
9/14/2021 6:45:00 PM 17.94 64.292 0.036 6.54 2.11 9.23
9/14/2021 7:00:00 PM 17.89 64.202 0.036 6.51 2.11 9.2
9/14/2021 7:15:00 PM 17.86 64.148 0.036 6.5 2.1 9.18
9/14/2021 7:30:00 PM 17.81 64.058 0.036 6.48 2.22 9.15
9/14/2021 7:45:00 PM 17.77 63.986 0.036 6.45 2.06 9.12
9/14/2021 8:00:00 PM 17.73 63.914 0.036 6.45 2.23 9.11
9/14/2021 8:15:00 PM 17.69 63.842 0.036 6.45 2.33 9.1
9/14/2021 8:30:00 PM 17.65 63.77 0.036 6.42 2.19 9.1
9/14/2021 8:45:00 PM 17.61 63.698 0.036 6.43 2.29 9.11
9/14/2021 9:00:00 PM 17.57 63.626 0.036 6.42 2.2 9.12
9/14/2021 9:15:00 PM 17.53 63.554 0.036 6.42 2.23 9.13
9/14/2021 9:30:00 PM 17.49 63.482 0.036 6.42 2.38 9.13
9/14/2021 9:45:00 PM 17.45 63.41 0.036 6.42 2.24 9.13
9/14/2021 10:00:00 PM 17.42 63.356 0.036 6.42 2.21 9.14
9/14/2021 10:15:00 PM 17.38 63.284 0.036 6.42 2.29 9.16
9/14/2021 10:30:00 PM 17.34 63.212 0.036 6.42 2.32 9.16
9/14/2021 10:45:00 PM 17.3 63.14 0.036 6.43 2.25 9.17
9/14/2021 11:00:00 PM 17.27 63.086 0.036 6.42 2.34 9.17
9/14/2021 11:15:00 PM 17.24 63.032 0.036 6.43 2.22 9.18
9/14/2021 11:30:00 PM 17.21 62.978 0.036 6.43 2.14 9.19
9/14/2021 11:45:00 PM 17.17 62.906 0.036 6.44 2.19 9.2
9/15/2021 12:00:00 AM 17.14 62.852 0.036 6.44 2.21 9.2
9/15/2021 12:15:00 AM 17.1 62.78 0.036 6.45 2.22 9.21
9/15/2021 12:30:00 AM 17.07 62.726 0.036 6.43 2.19 9.22
9/15/2021 12:45:00 AM 17.04 62.672 0.036 6.42 2.26 9.22
9/15/2021 1:00:00 AM 17.01 62.618 0.036 6.43 2.25 9.23
9/15/2021 1:15:00 AM 16.97 62.546 0.036 6.44 2.21 9.24
9/15/2021 1:30:00 AM 16.94 62.492 0.036 6.43 2.17 9.24
9/15/2021 1:45:00 AM 16.92 62.456 0.036 6.43 2.12 9.24
9/15/2021 2:00:00 AM 16.89 62.402 0.036 6.43 2.45 9.25
9/15/2021 2:15:00 AM 16.86 62.348 0.036 6.44 2.12 9.26
9/15/2021 2:30:00 AM 16.84 62.312 0.036 6.43 2.21 9.26
9/15/2021 2:45:00 AM 16.81 62.258 0.036 6.43 2.18 9.26
9/15/2021 3:00:00 AM 16.78 62.204 0.036 6.44 2.33 9.27
9/15/2021 3:15:00 AM 16.76 62.168 0.036 6.44 2.25 9.28
9/15/2021 3:30:00 AM 16.74 62.132 0.036 6.45 2.27 9.29
9/15/2021 3:45:00 AM 16.71 62.078 0.036 6.43 2.25 9.29
9/15/2021 4:00:00 AM 16.69 62.042 0.036 6.44 2.23 9.29
9/15/2021 4:15:00 AM 16.67 62.006 0.036 6.44 2.34 9.29
9/15/2021 4:30:00 AM 16.65 61.97 0.036 6.44 2.22 9.3
9/15/2021 4:45:00 AM 16.62 61.916 0.036 6.45 2.23 9.3
9/15/2021 5:00:00 AM 16.6 61.88 0.036 6.45 2.13 9.31
9/15/2021 5:15:00 AM 16.58 61.844 0.036 6.43 2.05 9.31
9/15/2021 5:30:00 AM 16.56 61.808 0.036 6.44 2.23 9.31
9/15/2021 5:45:00 AM 16.54 61.772 0.036 6.43 2.22 9.32
9/15/2021 6:00:00 AM 16.52 61.736 0.036 6.44 2.95 9.32
9/15/2021 6:15:00 AM 16.51 61.718 0.036 6.42 2.31 9.32
9/15/2021 6:30:00 AM 16.5 61.7 0.036 6.44 2.09 9.32
9/15/2021 6:45:00 AM 16.49 61.682 0.036 6.44 2.16 9.33
9/15/2021 7:00:00 AM 16.48 61.664 0.036 6.45 2.12 9.34
9/15/2021 7:15:00 AM 16.47 61.646 0.036 6.44 2.37 9.35
9/15/2021 7:30:00 AM 16.45 61.61 0.036 6.45 2.24 9.38
9/15/2021 7:45:00 AM 16.44 61.592 0.036 6.44 2.23 9.42
9/15/2021 8:00:00 AM 16.44 61.592 0.036 6.45 2.21 9.46
9/15/2021 8:15:00 AM 16.43 61.574 0.036 6.48 2.05 9.47
9/15/2021 8:30:00 AM 16.43 61.574 0.036 6.47 2.2 9.52
9/15/2021 8:45:00 AM 16.45 61.61 0.036 6.49 2.02 9.58
9/15/2021 9:00:00 AM 16.46 61.628 0.036 6.52 2.07 9.61
9/15/2021 9:15:00 AM 16.49 61.682 0.036 6.51 2.17 9.64
9/15/2021 9:30:00 AM 16.53 61.754 0.036 6.53 2.14 9.68
9/15/2021 9:45:00 AM 16.6 61.88 0.036 6.55 2.12 9.74
9/15/2021 10:00:00 AM 16.66 61.988 0.036 6.58 2.14 9.78
9/15/2021 10:15:00 AM 16.7 62.06 0.036 6.61 2.08 9.76
9/15/2021 10:30:00 AM 16.73 62.114 0.036 6.6 2.06 9.73
9/15/2021 10:45:00 AM 16.73 62.114 0.036 6.59 2.03 9.68
9/15/2021 11:00:00 AM 16.73 62.114 0.036 6.55 2.17 9.63
9/15/2021 11:15:00 AM 16.72 62.096 0.036 6.55 2.14 9.61
9/15/2021 11:30:00 AM 16.74 62.132 0.036 6.55 2.14 9.65
9/15/2021 11:45:00 AM 16.77 62.186 0.036 6.57 2.2 9.71
9/15/2021 12:00:00 PM 16.81 62.258 0.036 6.59 2.11 9.73
9/15/2021 12:15:00 PM 16.83 62.294 0.036 6.59 2.08 9.69
9/15/2021 12:30:00 PM 16.84 62.312 0.036 6.57 2.06 9.65
9/15/2021 12:45:00 PM 16.84 62.312 0.036 6.57 2.13 9.58
9/15/2021 1:00:00 PM 16.84 62.312 0.036 6.54 2.19 9.49
9/15/2021 1:15:00 PM 16.85 62.33 0.036 6.51 2.32 9.44
9/15/2021 1:30:00 PM 16.86 62.348 0.036 6.53 2.18 9.42
9/15/2021 1:45:00 PM 16.89 62.402 0.036 6.52 2.27 9.46
9/15/2021 2:00:00 PM 16.93 62.474 0.036 6.54 2.32 9.57
9/15/2021 2:15:00 PM 16.94 62.492 0.036 6.56 2.2 9.58
9/15/2021 2:30:00 PM 16.96 62.528 0.036 6.57 2.28 9.6
9/15/2021 2:45:00 PM 17 62.6 0.036 6.59 2.24 9.63
9/15/2021 3:00:00 PM 17.01 62.618 0.036 6.6 2.36 9.64
9/15/2021 3:15:00 PM 17.03 62.654 0.036 6.59 2.14 9.64
9/15/2021 3:30:00 PM 17.06 62.708 0.036 6.6 2.26 9.68
9/15/2021 3:45:00 PM 17.06 62.708 0.036 6.6 2.19 9.57
9/15/2021 4:00:00 PM 17.11 62.798 0.035 6.59 3.18 9.46
9/15/2021 4:15:00 PM 17.11 62.798 0.035 6.57 4.2 9.39
9/15/2021 4:30:00 PM 17.08 62.744 0.035 6.53 5.61 9.35
9/15/2021 4:45:00 PM 17.05 62.69 0.036 6.54 6 9.34
9/15/2021 5:00:00 PM 17.03 62.654 0.036 6.55 5.19 9.34
9/15/2021 5:15:00 PM 17.01 62.618 0.037 6.54 5.29 9.35
9/15/2021 5:30:00 PM 16.99 62.582 0.037 6.54 5.7 9.35
9/15/2021 5:45:00 PM 16.98 62.564 0.037 6.52 5.67 9.35
9/15/2021 6:00:00 PM 16.96 62.528 0.037 6.53 6.49 9.36
9/15/2021 6:15:00 PM 16.94 62.492 0.037 6.52 13.31 9.35
9/15/2021 6:30:00 PM 16.92 62.456 0.037 6.53 21.72 9.35
9/15/2021 6:45:00 PM 16.9 62.42 0.037 6.53 24.23 9.36
9/15/2021 7:00:00 PM 16.89 62.402 0.037 6.53 21.28 9.35
9/15/2021 7:15:00 PM 16.87 62.366 0.037 6.53 17.77 9.34
9/15/2021 7:30:00 PM 16.85 62.33 0.037 6.52 16.67 9.34
9/15/2021 7:45:00 PM 16.83 62.294 0.037 6.51 19.27 9.33
9/15/2021 8:00:00 PM 16.8 62.24 0.037 6.5 16.72 9.34
9/15/2021 8:15:00 PM 16.77 62.186 0.037 6.51 15.49 9.35
9/15/2021 8:30:00 PM 16.74 62.132 0.037 6.52 15.5 9.36
9/15/2021 8:45:00 PM 16.71 62.078 0.037 6.52 12.09 9.37
9/15/2021 9:00:00 PM 16.69 62.042 0.036 6.52 10.52 9.38
9/15/2021 9:15:00 PM 16.66 61.988 0.036 6.52 11.34 9.39
9/15/2021 9:30:00 PM 16.63 61.934 0.036 6.52 8.67 9.4
9/15/2021 9:45:00 PM 16.6 61.88 0.036 6.52 8.2 9.42
9/15/2021 10:00:00 PM 16.57 61.826 0.036 6.5 6.28 9.43
9/15/2021 10:15:00 PM 16.54 61.772 0.036 6.5 5.81 9.44
9/15/2021 10:30:00 PM 16.52 61.736 0.036 6.51 5.21 9.45
9/15/2021 10:45:00 PM 16.49 61.682 0.036 6.52 4.73 9.46
9/15/2021 11:00:00 PM 16.47 61.646 0.036 6.49 4.97 9.46
9/15/2021 11:15:00 PM 16.45 61.61 0.036 6.5 4.51 9.46
9/15/2021 11:30:00 PM 16.43 61.574 0.036 6.51 4.39 9.48
9/15/2021 11:45:00 PM 16.41 61.538 0.036 6.5 4.21 9.47
9/16/2021 12:00:00 AM 16.39 61.502 0.035 6.5 4.36 9.48
9/16/2021 12:15:00 AM 16.37 61.466 0.035 6.49 4.71 9.49
9/16/2021 12:30:00 AM 16.35 61.43 0.035 6.49 4.51 9.5
9/16/2021 12:45:00 AM 16.33 61.394 0.035 6.48 4.79 9.5
9/16/2021 1:00:00 AM 16.31 61.358 0.035 6.5 4.64 9.5
9/16/2021 1:15:00 AM 16.3 61.34 0.035 6.49 4.54 9.5
9/16/2021 1:30:00 AM 16.27 61.286 0.035 6.49 4.28 9.51
9/16/2021 1:45:00 AM 16.25 61.25 0.035 6.49 4.56 9.51
9/16/2021 2:00:00 AM 16.23 61.214 0.035 6.49 4.65 9.52
9/16/2021 2:15:00 AM 16.21 61.178 0.035 6.49 4.22 9.52
9/16/2021 2:30:00 AM 16.17 61.106 0.035 6.47 4.11 9.53
9/16/2021 2:45:00 AM 16.14 61.052 0.035 6.5 3.92 9.53
9/16/2021 3:00:00 AM 16.11 60.998 0.035 6.48 3.89 9.54
9/16/2021 3:15:00 AM 16.08 60.944 0.035 6.47 3.99 9.55
9/16/2021 3:30:00 AM 16.04 60.872 0.035 6.48 3.59 9.55
9/16/2021 3:45:00 AM 16.01 60.818 0.035 6.48 3.6 9.57
9/16/2021 4:00:00 AM 15.98 60.764 0.035 6.47 3.44 9.57
9/16/2021 4:15:00 AM 15.95 60.71 0.035 6.48 3.36 9.58
9/16/2021 4:30:00 AM 15.92 60.656 0.035 6.48 3.28 9.58
9/16/2021 4:45:00 AM 15.88 60.584 0.035 6.48 3.24 9.59
9/16/2021 5:00:00 AM 15.84 60.512 0.035 6.49 3.33 9.59
9/16/2021 5:15:00 AM 15.8 60.44 0.035 6.47 3.4 9.6
9/16/2021 5:30:00 AM 15.77 60.386 0.035 6.48 3.24 9.61
9/16/2021 5:45:00 AM 15.74 60.332 0.035 6.46 3.33 9.62
9/16/2021 6:00:00 AM 15.69 60.242 0.035 6.46 3.04 9.63
9/16/2021 6:15:00 AM 15.64 60.152 0.035 6.46 3.24 9.63
9/16/2021 6:30:00 AM 15.59 60.062 0.035 6.45 3.12 9.64
9/16/2021 6:45:00 AM 15.55 59.99 0.035 6.46 3.04 9.66
9/16/2021 7:00:00 AM 15.51 59.918 0.035 6.46 3.15 9.67
9/16/2021 7:15:00 AM 15.47 59.846 0.035 6.46 2.83 9.69
9/16/2021 7:30:00 AM 15.45 59.81 0.035 6.48 2.93 9.72
9/16/2021 7:45:00 AM 15.42 59.756 0.035 6.48 2.83 9.75
9/16/2021 8:00:00 AM 15.4 59.72 0.035 6.47 2.78 9.79
9/16/2021 8:15:00 AM 15.39 59.702 0.035 6.49 2.89 9.84
9/16/2021 8:30:00 AM 15.39 59.702 0.035 6.52 2.74 9.88
9/16/2021 8:45:00 AM 15.4 59.72 0.035 6.52 2.83 9.92
9/16/2021 9:00:00 AM 15.42 59.756 0.035 6.55 2.83 9.96
9/16/2021 9:15:00 AM 15.43 59.774 0.035 6.56 2.72 9.99
9/16/2021 9:30:00 AM 15.45 59.81 0.035 6.57 2.69 10
9/16/2021 9:45:00 AM 15.47 59.846 0.035 6.59 2.72 10.02
9/16/2021 10:00:00 AM 15.5 59.9 0.035 6.61 2.85 10.05
9/16/2021 10:15:00 AM 15.53 59.954 0.035 6.62 2.58 10.07
9/16/2021 10:30:00 AM 15.58 60.044 0.035 6.63 2.67 10.1
9/16/2021 10:45:00 AM 15.62 60.116 0.035 6.65 2.75 10.08
9/16/2021 11:00:00 AM 15.69 60.242 0.035 6.64 2.58 10.06
9/16/2021 11:15:00 AM 15.76 60.368 0.035 6.66 2.63 10.09
9/16/2021 11:30:00 AM 15.83 60.494 0.035 6.66 2.49 10.11
9/16/2021 11:45:00 AM 15.9 60.62 0.035 6.7 2.55 10.12
9/16/2021 12:00:00 PM 15.96 60.728 0.035 6.7 2.51 10.12
9/16/2021 12:15:00 PM 16 60.8 0.035 6.7 2.47 10.11
9/16/2021 12:30:00 PM 16.04 60.872 0.035 6.69 2.47 10.11
9/16/2021 12:45:00 PM 16.08 60.944 0.035 6.7 2.58 10.09
9/16/2021 1:00:00 PM 16.11 60.998 0.035 6.72 2.61 10.08
9/16/2021 1:15:00 PM 16.16 61.088 0.035 6.7 2.48 10.08
9/16/2021 1:30:00 PM 16.22 61.196 0.035 6.72 2.51 10.08
9/16/2021 1:45:00 PM 16.31 61.358 0.035 6.73 2.42 10.08
9/16/2021 2:00:00 PM 16.42 61.556 0.035 6.74 2.48 10.07
9/16/2021 2:15:00 PM 16.48 61.664 0.035 6.72 2.71 10.04
9/16/2021 2:30:00 PM 16.55 61.79 0.035 6.74 2.38 10.03
9/16/2021 2:45:00 PM 16.61 61.898 0.035 6.75 2.43 10.02
9/16/2021 3:00:00 PM 16.64 61.952 0.035 6.73 2.47 9.97
9/16/2021 3:15:00 PM 16.72 62.096 0.035 6.72 2.4 9.96
9/16/2021 3:30:00 PM 16.75 62.15 0.035 6.72 2.45 9.93
9/16/2021 3:45:00 PM 16.78 62.204 0.035 6.7 2.39 9.89
9/16/2021 4:00:00 PM 16.84 62.312 0.035 6.71 2.44 9.9
9/16/2021 4:15:00 PM 16.86 62.348 0.035 6.71 2.92 9.85
9/16/2021 4:30:00 PM 16.84 62.312 0.035 6.67 2.59 9.82
9/16/2021 4:45:00 PM 16.86 62.348 0.035 6.68 2.52 9.82
9/16/2021 5:00:00 PM 16.88 62.384 0.035 6.66 2.5 9.81
9/16/2021 5:15:00 PM 16.9 62.42 0.035 6.65 2.65 9.77
9/16/2021 5:30:00 PM 16.89 62.402 0.035 6.63 2.33 9.72
9/16/2021 5:45:00 PM 16.87 62.366 0.035 6.62 2.31 9.69
9/16/2021 6:00:00 PM 16.86 62.348 0.035 6.61 2.49 9.64
9/16/2021 6:15:00 PM 16.83 62.294 0.035 6.58 2.43 9.58
9/16/2021 6:30:00 PM 16.79 62.222 0.036 6.54 2.62 9.52
9/16/2021 6:45:00 PM 16.76 62.168 0.036 6.53 2.35 9.49
9/16/2021 7:00:00 PM 16.73 62.114 0.036 6.51 2.26 9.45
9/16/2021 7:15:00 PM 16.71 62.078 0.036 6.48 2.43 9.44
9/16/2021 7:30:00 PM 16.68 62.024 0.036 6.47 2.52 9.43
9/16/2021 7:45:00 PM 16.66 61.988 0.036 6.47 2.37 9.42
9/16/2021 8:00:00 PM 16.64 61.952 0.036 6.46 2.49 9.41
9/16/2021 8:15:00 PM 16.62 61.916 0.036 6.44 2.53 9.42
9/16/2021 8:30:00 PM 16.6 61.88 0.036 6.44 2.71 9.42
9/16/2021 8:45:00 PM 16.58 61.844 0.036 6.44 2.35 9.43
9/16/2021 9:00:00 PM 16.56 61.808 0.036 6.42 2.43 9.42
9/16/2021 9:15:00 PM 16.54 61.772 0.036 6.42 2.49 9.42
9/16/2021 9:30:00 PM 16.52 61.736 0.036 6.44 2.4 9.44
9/16/2021 9:45:00 PM 16.51 61.718 0.036 6.43 2.45 9.44
9/16/2021 10:00:00 PM 16.5 61.7 0.036 6.43 2.29 9.44
9/16/2021 10:15:00 PM 16.48 61.664 0.036 6.44 2.6 9.45
9/16/2021 10:30:00 PM 16.47 61.646 0.036 6.45 2.3 9.45
9/16/2021 10:45:00 PM 16.45 61.61 0.036 6.43 2.35 9.45
9/16/2021 11:00:00 PM 16.44 61.592 0.037 6.43 2.35 9.45
9/16/2021 11:15:00 PM 16.43 61.574 0.037 6.46 2.35 9.45
9/16/2021 11:30:00 PM 16.41 61.538 0.037 6.42 2.33 9.45
9/16/2021 11:45:00 PM 16.39 61.502 0.037 6.44 2.46 9.45
9/17/2021 12:00:00 AM 16.38 61.484 0.037 6.43 2.48 9.46
9/17/2021 12:15:00 AM 16.37 61.466 0.037 6.45 2.35 9.46
9/17/2021 12:30:00 AM 16.35 61.43 0.037 6.43 2.39 9.46
9/17/2021 12:45:00 AM 16.34 61.412 0.037 6.44 2.3 9.46
9/17/2021 1:00:00 AM 16.32 61.376 0.037 6.43 2.51 9.46
9/17/2021 1:15:00 AM 16.31 61.358 0.037 6.45 2.37 9.46
9/17/2021 1:30:00 AM 16.29 61.322 0.037 6.45 2.26 9.47
9/17/2021 1:45:00 AM 16.27 61.286 0.037 6.44 2.32 9.47
9/17/2021 2:00:00 AM 16.25 61.25 0.037 6.45 2.29 9.47
9/17/2021 2:15:00 AM 16.24 61.232 0.037 6.43 2.35 9.48
9/17/2021 2:30:00 AM 16.22 61.196 0.037 6.43 2.35 9.48
9/17/2021 2:45:00 AM 16.21 61.178 0.037 6.45 2.45 9.48
9/17/2021 3:00:00 AM 16.21 61.178 0.037 6.44 2.32 9.49
9/17/2021 3:15:00 AM 16.2 61.16 0.037 6.46 2.3 9.48
9/17/2021 3:30:00 AM 16.2 61.16 0.037 6.45 2.24 9.48
9/17/2021 3:45:00 AM 16.19 61.142 0.037 6.44 2.3 9.49
9/17/2021 4:00:00 AM 16.18 61.124 0.037 6.43 2.29 9.49
9/17/2021 4:15:00 AM 16.16 61.088 0.037 6.45 2.52 9.49
9/17/2021 4:30:00 AM 16.14 61.052 0.037 6.44 2.44 9.49
9/17/2021 4:45:00 AM 16.12 61.016 0.037 6.45 2.44 9.5
9/17/2021 5:00:00 AM 16.11 60.998 0.037 6.43 2.28 9.5
9/17/2021 5:15:00 AM 16.11 60.998 0.037 6.43 2.33 9.51
9/17/2021 5:30:00 AM 16.1 60.98 0.037 6.44 2.78 9.51
9/17/2021 5:45:00 AM 16.1 60.98 0.037 6.43 2.95 9.51
9/17/2021 6:00:00 AM 16.1 60.98 0.037 6.44 2.76 9.51
9/17/2021 6:15:00 AM 16.09 60.962 0.037 6.44 2.68 9.52
9/17/2021 6:30:00 AM 16.09 60.962 0.037 6.44 2.7 9.52
9/17/2021 6:45:00 AM 16.08 60.944 0.037 6.44 2.34 9.52
9/17/2021 7:00:00 AM 16.08 60.944 0.037 6.45 2.22 9.52
9/17/2021 7:15:00 AM 16.07 60.926 0.037 6.44 2.34 9.53
9/17/2021 7:30:00 AM 16.07 60.926 0.037 6.44 2.36 9.53
9/17/2021 7:45:00 AM 16.07 60.926 0.037 6.44 2.57 9.55
9/17/2021 8:00:00 AM 16.07 60.926 0.037 6.44 2.38 9.57
9/17/2021 8:15:00 AM 16.08 60.944 0.037 6.43 2.28 9.61
9/17/2021 8:30:00 AM 16.09 60.962 0.037 6.45 2.59 9.63
9/17/2021 8:45:00 AM 16.1 60.98 0.037 6.47 2.38 9.67
9/17/2021 9:00:00 AM 16.12 61.016 0.037 6.46 2.29 9.7
9/17/2021 9:15:00 AM 16.13 61.034 0.037 6.48 2.29 9.72
9/17/2021 9:30:00 AM 16.15 61.07 0.037 6.48 2.21 9.75
9/17/2021 9:45:00 AM 16.17 61.106 0.037 6.48 2.11 9.78
9/17/2021 10:00:00 AM 16.19 61.142 0.037 6.49 2.19 9.79
9/17/2021 10:15:00 AM 16.22 61.196 0.037 6.49 2.23 9.81
9/17/2021 10:30:00 AM 16.26 61.268 0.037 6.49 2.27 9.85
9/17/2021 10:45:00 AM 16.3 61.34 0.037 6.52 2.45 9.9
9/17/2021 11:00:00 AM 16.34 61.412 0.037 6.53 2.26 9.91
9/17/2021 11:15:00 AM 16.39 61.502 0.036 6.54 2.12 9.93
9/17/2021 11:30:00 AM 16.43 61.574 0.036 6.59 2.25 9.95
9/17/2021 11:45:00 AM 16.49 61.682 0.036 6.61 2.32 9.97
9/17/2021 12:00:00 PM 16.56 61.808 0.036 6.63 2.18 9.97
9/17/2021 12:15:00 PM 16.66 61.988 0.036 6.66 2.25 10
9/17/2021 12:30:00 PM 16.8 62.24 0.036 6.68 2.28 10.01
9/17/2021 12:45:00 PM 16.93 62.474 0.036 6.72 2.12 10.01
9/17/2021 1:00:00 PM 17.02 62.636 0.036 6.72 2.22 9.98
9/17/2021 1:15:00 PM 17.05 62.69 0.036 6.73 2.56 9.93
9/17/2021 1:30:00 PM 17.06 62.708 0.036 6.73 2.76 9.91
9/17/2021 1:45:00 PM 17.1 62.78 0.036 6.72 2.76 9.92
9/17/2021 2:00:00 PM 17.17 62.906 0.036 6.75 2.25 9.94
9/17/2021 2:15:00 PM 17.25 63.05 0.036 6.76 2.29 9.92
9/17/2021 2:30:00 PM 17.44 63.392 0.036 6.77 2.16 9.9
9/17/2021 2:45:00 PM 17.65 63.77 0.036 6.77 2.19 9.86
9/17/2021 3:00:00 PM 17.82 64.076 0.036 6.77 2.25 9.8
9/17/2021 3:15:00 PM 17.91 64.238 0.036 6.78 2.29 9.74
9/17/2021 3:30:00 PM 17.95 64.31 0.036 6.77 2.09 9.69
9/17/2021 3:45:00 PM 17.98 64.364 0.036 6.77 2.66 9.65
9/17/2021 4:00:00 PM 17.92 64.256 0.036 6.74 2.15 9.61
9/17/2021 4:15:00 PM 17.84 64.112 0.036 6.71 2.2 9.58
9/17/2021 4:30:00 PM 17.79 64.022 0.036 6.7 2.26 9.59
9/17/2021 4:45:00 PM 17.78 64.004 0.036 6.7 2.19 9.6
9/17/2021 5:00:00 PM 17.78 64.004 0.036 6.67 2.17 9.57
9/17/2021 5:15:00 PM 17.76 63.968 0.036 6.67 2.21 9.56
9/17/2021 5:30:00 PM 17.75 63.95 0.036 6.66 2.24 9.52
9/17/2021 5:45:00 PM 17.72 63.896 0.036 6.63 2.14 9.48
9/17/2021 6:00:00 PM 17.7 63.86 0.037 6.61 2.19 9.43
9/17/2021 6:15:00 PM 17.67 63.806 0.037 6.58 2.16 9.37
9/17/2021 6:30:00 PM 17.65 63.77 0.037 6.58 2.14 9.34
9/17/2021 6:45:00 PM 17.62 63.716 0.037 6.56 2.16 9.31
9/17/2021 7:00:00 PM 17.58 63.644 0.037 6.55 2.15 9.28
9/17/2021 7:15:00 PM 17.53 63.554 0.037 6.52 2.28 9.26
9/17/2021 7:30:00 PM 17.49 63.482 0.037 6.48 2.29 9.23
9/17/2021 7:45:00 PM 17.45 63.41 0.037 6.49 2.26 9.21
9/17/2021 8:00:00 PM 17.41 63.338 0.037 6.47 2.29 9.21
9/17/2021 8:15:00 PM 17.38 63.284 0.037 6.48 2.17 9.21
9/17/2021 8:30:00 PM 17.34 63.212 0.037 6.47 2.2 9.21
9/17/2021 8:45:00 PM 17.31 63.158 0.037 6.47 2.23 9.22
9/17/2021 9:00:00 PM 17.27 63.086 0.037 6.46 2.13 9.22
9/17/2021 9:15:00 PM 17.24 63.032 0.037 6.46 2.15 9.23
9/17/2021 9:30:00 PM 17.2 62.96 0.037 6.47 2.16 9.24
9/17/2021 9:45:00 PM 17.17 62.906 0.037 6.45 2.32 9.25
9/17/2021 10:00:00 PM 17.13 62.834 0.037 6.46 2.31 9.25
9/17/2021 10:15:00 PM 17.1 62.78 0.037 6.48 2.28 9.26
9/17/2021 10:30:00 PM 17.07 62.726 0.037 6.47 2.13 9.26
9/17/2021 10:45:00 PM 17.05 62.69 0.037 6.47 2.36 9.27
9/17/2021 11:00:00 PM 17.02 62.636 0.037 6.47 2.23 9.27
9/17/2021 11:15:00 PM 17 62.6 0.037 6.48 2.32 9.28
9/17/2021 11:30:00 PM 16.97 62.546 0.037 6.49 2.17 9.28
9/17/2021 11:45:00 PM 16.95 62.51 0.037 6.48 2.35 9.29
9/18/2021 12:00:00 AM 16.93 62.474 0.037 6.47 2.22 9.29
9/18/2021 12:15:00 AM 16.91 62.438 0.037 6.49 2.31 9.3
9/18/2021 12:30:00 AM 16.89 62.402 0.037 6.49 2.36 9.3
9/18/2021 12:45:00 AM 16.87 62.366 0.037 6.49 2.24 9.3
9/18/2021 1:00:00 AM 16.85 62.33 0.037 6.47 2.28 9.31
9/18/2021 1:15:00 AM 16.83 62.294 0.037 6.48 2.18 9.32
9/18/2021 1:30:00 AM 16.81 62.258 0.037 6.49 2.26 9.32
9/18/2021 1:45:00 AM 16.79 62.222 0.037 6.48 2.27 9.32
9/18/2021 2:00:00 AM 16.77 62.186 0.037 6.49 2.2 9.32
9/18/2021 2:15:00 AM 16.75 62.15 0.037 6.49 2.1 9.33
9/18/2021 2:30:00 AM 16.73 62.114 0.037 6.48 2.61 9.32
9/18/2021 2:45:00 AM 16.72 62.096 0.037 6.47 2.16 9.33
9/18/2021 3:00:00 AM 16.7 62.06 0.037 6.48 2.32 9.33
9/18/2021 3:15:00 AM 16.68 62.024 0.037 6.49 2.22 9.34
9/18/2021 3:30:00 AM 16.67 62.006 0.037 6.48 2.28 9.34
9/18/2021 3:45:00 AM 16.65 61.97 0.037 6.48 2.18 9.35
9/18/2021 4:00:00 AM 16.63 61.934 0.037 6.49 2.16 9.36
9/18/2021 4:15:00 AM 16.62 61.916 0.037 6.47 2.23 9.35
9/18/2021 4:30:00 AM 16.6 61.88 0.037 6.49 2.26 9.35
9/18/2021 4:45:00 AM 16.59 61.862 0.037 6.48 2.32 9.35
9/18/2021 5:00:00 AM 16.58 61.844 0.037 6.47 2.38 9.36
9/18/2021 5:15:00 AM 16.57 61.826 0.037 6.48 2.26 9.36
9/18/2021 5:30:00 AM 16.55 61.79 0.037 6.48 2.16 9.37
9/18/2021 5:45:00 AM 16.54 61.772 0.037 6.48 2.23 9.38
9/18/2021 6:00:00 AM 16.53 61.754 0.037 6.5 2.18 9.37
9/18/2021 6:15:00 AM 16.53 61.754 0.037 6.48 2.12 9.39
9/18/2021 6:30:00 AM 16.52 61.736 0.037 6.49 2.23 9.38
9/18/2021 6:45:00 AM 16.51 61.718 0.037 6.48 2.2 9.38
9/18/2021 7:00:00 AM 16.5 61.7 0.037 6.49 2.26 9.38
9/18/2021 7:15:00 AM 16.5 61.7 0.037 6.48 2.22 9.4
9/18/2021 7:30:00 AM 16.49 61.682 0.037 6.49 2.26 9.43
9/18/2021 7:45:00 AM 16.49 61.682 0.037 6.49 2.13 9.45
9/18/2021 8:00:00 AM 16.49 61.682 0.037 6.5 2.26 9.47
9/18/2021 8:15:00 AM 16.49 61.682 0.037 6.49 2.22 9.49
9/18/2021 8:30:00 AM 16.49 61.682 0.037 6.49 2.24 9.53
9/18/2021 8:45:00 AM 16.5 61.7 0.037 6.51 2.13 9.56
9/18/2021 9:00:00 AM 16.5 61.7 0.037 6.51 2.12 9.58
9/18/2021 9:15:00 AM 16.51 61.718 0.037 6.52 2.14 9.63
9/18/2021 9:30:00 AM 16.55 61.79 0.037 6.54 2.1 9.71
9/18/2021 9:45:00 AM 16.62 61.916 0.037 6.57 2.1 9.79
9/18/2021 10:00:00 AM 16.7 62.06 0.037 6.62 2.18 9.81
9/18/2021 10:15:00 AM 16.77 62.186 0.037 6.63 2.15 9.78
9/18/2021 10:30:00 AM 16.83 62.294 0.037 6.62 2.18 9.73
9/18/2021 10:45:00 AM 16.89 62.402 0.037 6.63 2.09 9.71
9/18/2021 11:00:00 AM 16.96 62.528 0.037 6.65 2.11 9.71
9/18/2021 11:15:00 AM 17.03 62.654 0.037 6.66 2.12 9.72
9/18/2021 11:30:00 AM 17.1 62.78 0.037 6.66 2.07 9.72
9/18/2021 11:45:00 AM 17.21 62.978 0.037 6.69 2.01 9.73
9/18/2021 12:00:00 PM 17.3 63.14 0.037 6.71 2.16 9.72
9/18/2021 12:15:00 PM 17.41 63.338 0.037 6.69 2.3 9.72
9/18/2021 12:30:00 PM 17.58 63.644 0.037 6.74 2.09 9.76
9/18/2021 12:45:00 PM 17.7 63.86 0.037 6.76 2.01 9.78
9/18/2021 1:00:00 PM 17.82 64.076 0.036 6.78 2.23 9.79
9/18/2021 1:15:00 PM 17.84 64.112 0.036 6.78 2.06 9.76
9/18/2021 1:30:00 PM 17.98 64.364 0.036 6.77 2.18 9.73
9/18/2021 1:45:00 PM 18.1 64.58 0.036 6.79 2.21 9.73
9/18/2021 2:00:00 PM 18.07 64.526 0.036 6.78 2.16 9.67
9/18/2021 2:15:00 PM 18.14 64.652 0.036 6.77 2.6 9.67
9/18/2021 2:30:00 PM 18.15 64.67 0.036 6.78 2.12 9.67
9/18/2021 2:45:00 PM 18.1 64.58 0.037 6.75 2.09 9.59
9/18/2021 3:00:00 PM 18.1 64.58 0.037 6.75 2.04 9.56
9/18/2021 3:15:00 PM 18.14 64.652 0.037 6.74 2.13 9.61
9/18/2021 3:30:00 PM 18.12 64.616 0.037 6.72 2.12 9.58
9/18/2021 3:45:00 PM 18.09 64.562 0.037 6.73 2.29 9.58
9/18/2021 4:00:00 PM 18.09 64.562 0.037 6.71 2.18 9.58
9/18/2021 4:15:00 PM 18.1 64.58 0.037 6.71 1.94 9.57
9/18/2021 4:30:00 PM 18.15 64.67 0.037 6.73 2.03 9.58
9/18/2021 4:45:00 PM 18.21 64.778 0.037 6.73 2.05 9.56
9/18/2021 5:00:00 PM 18.24 64.832 0.037 6.72 2.06 9.53
9/18/2021 5:15:00 PM 18.28 64.904 0.037 6.74 2.03 9.52
9/18/2021 5:30:00 PM 18.29 64.922 0.037 6.7 2.1 9.44
9/18/2021 5:45:00 PM 18.27 64.886 0.037 6.69 2.02 9.38
9/18/2021 6:00:00 PM 18.22 64.796 0.037 6.65 2.13 9.3
9/18/2021 6:15:00 PM 18.19 64.742 0.037 6.65 2.02 9.27
9/18/2021 6:30:00 PM 18.15 64.67 0.037 6.62 2.03 9.24
9/18/2021 6:45:00 PM 18.11 64.598 0.037 6.62 2.22 9.2
9/18/2021 7:00:00 PM 18.07 64.526 0.037 6.59 2.1 9.17
9/18/2021 7:15:00 PM 18.02 64.436 0.037 6.57 2.33 9.14
9/18/2021 7:30:00 PM 17.98 64.364 0.037 6.54 2.07 9.11
9/18/2021 7:45:00 PM 17.93 64.274 0.038 6.53 2.1 9.08
9/18/2021 8:00:00 PM 17.89 64.202 0.038 6.52 2.05 9.08
9/18/2021 8:15:00 PM 17.86 64.148 0.038 6.52 2.16 9.09
9/18/2021 8:30:00 PM 17.82 64.076 0.038 6.5 2.25 9.09
9/18/2021 8:45:00 PM 17.78 64.004 0.038 6.52 2.09 9.09
9/18/2021 9:00:00 PM 17.73 63.914 0.038 6.52 2.09 9.11
9/18/2021 9:15:00 PM 17.69 63.842 0.038 6.52 2.13 9.11
9/18/2021 9:30:00 PM 17.65 63.77 0.038 6.51 2.16 9.12
9/18/2021 9:45:00 PM 17.6 63.68 0.038 6.52 2.32 9.13
9/18/2021 10:00:00 PM 17.56 63.608 0.038 6.51 2.19 9.14
9/18/2021 10:15:00 PM 17.52 63.536 0.038 6.52 2.11 9.15
9/18/2021 10:30:00 PM 17.47 63.446 0.038 6.52 2.2 9.16
9/18/2021 10:45:00 PM 17.42 63.356 0.038 6.52 2.16 9.17
9/18/2021 11:00:00 PM 17.37 63.266 0.038 6.52 2.12 9.18
9/18/2021 11:15:00 PM 17.33 63.194 0.038 6.52 2.14 9.19
9/18/2021 11:30:00 PM 17.28 63.104 0.038 6.52 2.12 9.2
9/18/2021 11:45:00 PM 17.23 63.014 0.038 6.52 2.33 9.21
9/19/2021 12:00:00 AM 17.17 62.906 0.038 6.52 2.17 9.22
9/19/2021 12:15:00 AM 17.12 62.816 0.038 6.51 2.12 9.23
9/19/2021 12:30:00 AM 17.07 62.726 0.038 6.51 2.22 9.25
9/19/2021 12:45:00 AM 17.01 62.618 0.038 6.51 2.24 9.25
9/19/2021 1:00:00 AM 16.96 62.528 0.038 6.51 2.28 9.26
9/19/2021 1:15:00 AM 16.92 62.456 0.038 6.51 2.19 9.28
9/19/2021 1:30:00 AM 16.86 62.348 0.038 6.51 2.24 9.29
9/19/2021 1:45:00 AM 16.8 62.24 0.038 6.51 2.18 9.3
9/19/2021 2:00:00 AM 16.74 62.132 0.038 6.5 2.08 9.32
9/19/2021 2:15:00 AM 16.69 62.042 0.038 6.52 2.11 9.33
9/19/2021 2:30:00 AM 16.66 61.988 0.038 6.52 2.32 9.34
9/19/2021 2:45:00 AM 16.62 61.916 0.038 6.52 2.35 9.35
9/19/2021 3:00:00 AM 16.58 61.844 0.038 6.52 2.18 9.36
9/19/2021 3:15:00 AM 16.55 61.79 0.038 6.51 2.21 9.36
9/19/2021 3:30:00 AM 16.51 61.718 0.038 6.52 2.45 9.37
9/19/2021 3:45:00 AM 16.46 61.628 0.038 6.51 2.14 9.38
9/19/2021 4:00:00 AM 16.42 61.556 0.038 6.52 2.3 9.39
9/19/2021 4:15:00 AM 16.37 61.466 0.038 6.53 2.33 9.4
9/19/2021 4:30:00 AM 16.33 61.394 0.038 6.52 2.31 9.41
9/19/2021 4:45:00 AM 16.29 61.322 0.038 6.52 2.14 9.42
9/19/2021 5:00:00 AM 16.25 61.25 0.038 6.53 2.3 9.43
9/19/2021 5:15:00 AM 16.21 61.178 0.038 6.52 2.19 9.44
9/19/2021 5:30:00 AM 16.18 61.124 0.038 6.53 2.24 9.44
9/19/2021 5:45:00 AM 16.15 61.07 0.038 6.52 2.17 9.46
9/19/2021 6:00:00 AM 16.12 61.016 0.038 6.54 2.14 9.47
9/19/2021 6:15:00 AM 16.09 60.962 0.038 6.52 2.15 9.47
9/19/2021 6:30:00 AM 16.06 60.908 0.038 6.53 2.12 9.47
9/19/2021 6:45:00 AM 16.02 60.836 0.038 6.54 2.2 9.49
9/19/2021 7:00:00 AM 15.99 60.782 0.038 6.52 2.35 9.49
9/19/2021 7:15:00 AM 15.95 60.71 0.038 6.53 2.16 9.51
9/19/2021 7:30:00 AM 15.93 60.674 0.038 6.53 2.22 9.53
9/19/2021 7:45:00 AM 15.89 60.602 0.038 6.53 2.32 9.56
9/19/2021 8:00:00 AM 15.86 60.548 0.038 6.55 2.2 9.6
9/19/2021 8:15:00 AM 15.84 60.512 0.037 6.55 2.16 9.63
9/19/2021 8:30:00 AM 15.82 60.476 0.037 6.57 2.16 9.67
9/19/2021 8:45:00 AM 15.8 60.44 0.037 6.56 2.63 9.71
9/19/2021 9:00:00 AM 15.79 60.422 0.037 6.58 2.17 9.75
9/19/2021 9:15:00 AM 15.78 60.404 0.037 6.58 2.08 9.79
9/19/2021 9:30:00 AM 15.77 60.386 0.037 6.61 2.15 9.84
9/19/2021 9:45:00 AM 15.77 60.386 0.037 6.63 2.15 9.91
9/19/2021 10:00:00 AM 15.79 60.422 0.037 6.64 2.1 9.96
9/19/2021 10:15:00 AM 15.8 60.44 0.037 6.64 2.11 10
9/19/2021 10:30:00 AM 15.82 60.476 0.037 6.67 2.2 10.05
9/19/2021 10:45:00 AM 15.86 60.548 0.037 6.68 2.07 10.08
9/19/2021 11:00:00 AM 15.9 60.62 0.037 6.71 2.12 10.1
9/19/2021 11:15:00 AM 15.95 60.71 0.037 6.7 2.05 10.11
9/19/2021 11:30:00 AM 16.03 60.854 0.037 6.73 2.26 10.11
9/19/2021 11:45:00 AM 16.11 60.998 0.037 6.72 2.21 10.05
9/19/2021 12:00:00 PM 16.23 61.214 0.037 6.72 2.23 9.98
9/19/2021 12:15:00 PM 16.33 61.394 0.037 6.73 2.15 9.93
9/19/2021 12:30:00 PM 16.43 61.574 0.037 6.73 2.06 9.91
9/19/2021 12:45:00 PM 16.54 61.772 0.037 6.74 2 9.88
9/19/2021 1:00:00 PM 16.65 61.97 0.037 6.72 2.02 9.87
9/19/2021 1:15:00 PM 16.8 62.24 0.037 6.74 2.01 9.85
9/19/2021 1:30:00 PM 16.94 62.492 0.037 6.75 2.02 9.83
9/19/2021 1:45:00 PM 17.11 62.798 0.037 6.75 2.12 9.82
9/19/2021 2:00:00 PM 17.27 63.086 0.037 6.78 2.08 9.81
9/19/2021 2:15:00 PM 17.43 63.374 0.037 6.77 2.05 9.79
9/19/2021 2:30:00 PM 17.55 63.59 0.037 6.78 2.12 9.78
9/19/2021 2:45:00 PM 17.66 63.788 0.037 6.79 2 9.76
9/19/2021 3:00:00 PM 17.72 63.896 0.037 6.75 2.05 9.73
9/19/2021 3:15:00 PM 17.75 63.95 0.037 6.76 2.02 9.71
9/19/2021 3:30:00 PM 17.72 63.896 0.037 6.77 2.09 9.68
9/19/2021 3:45:00 PM 17.66 63.788 0.037 6.74 2.03 9.64
9/19/2021 4:00:00 PM 17.6 63.68 0.037 6.7 2.05 9.63
9/19/2021 4:15:00 PM 17.51 63.518 0.037 6.7 2.04 9.61
9/19/2021 4:30:00 PM 17.46 63.428 0.037 6.68 2 9.59
9/19/2021 4:45:00 PM 17.4 63.32 0.037 6.66 2.03 9.57
9/19/2021 5:00:00 PM 17.34 63.212 0.037 6.65 1.99 9.55
9/19/2021 5:15:00 PM 17.27 63.086 0.037 6.62 2.01 9.52
9/19/2021 5:30:00 PM 17.18 62.924 0.037 6.61 2.21 9.49
9/19/2021 5:45:00 PM 17.11 62.798 0.037 6.61 2.05 9.46
9/19/2021 6:00:00 PM 17.06 62.708 0.037 6.59 2.13 9.44
9/19/2021 6:15:00 PM 17.01 62.618 0.037 6.57 2.13 9.43
9/19/2021 6:30:00 PM 16.95 62.51 0.037 6.56 2.08 9.42
9/19/2021 6:45:00 PM 16.9 62.42 0.037 6.57 2.17 9.41
9/19/2021 7:00:00 PM 16.85 62.33 0.037 6.56 2.11 9.39
9/19/2021 7:15:00 PM 16.8 62.24 0.038 6.54 2.25 9.38
9/19/2021 7:30:00 PM 16.74 62.132 0.038 6.53 2.06 9.36
9/19/2021 7:45:00 PM 16.68 62.024 0.038 6.53 2.13 9.36
9/19/2021 8:00:00 PM 16.63 61.934 0.038 6.51 2.07 9.35
9/19/2021 8:15:00 PM 16.58 61.844 0.038 6.52 2.24 9.35
9/19/2021 8:30:00 PM 16.52 61.736 0.038 6.53 2.55 9.36
9/19/2021 8:45:00 PM 16.47 61.646 0.038 6.51 2.07 9.37
9/19/2021 9:00:00 PM 16.41 61.538 0.038 6.51 2.17 9.38
9/19/2021 9:15:00 PM 16.34 61.412 0.038 6.5 2.16 9.4
9/19/2021 9:30:00 PM 16.28 61.304 0.038 6.51 2.27 9.41
9/19/2021 9:45:00 PM 16.21 61.178 0.038 6.5 2.14 9.42
9/19/2021 10:00:00 PM 16.14 61.052 0.038 6.5 2.17 9.44
9/19/2021 10:15:00 PM 16.07 60.926 0.038 6.5 2.16 9.45
9/19/2021 10:30:00 PM 16.01 60.818 0.038 6.48 2.2 9.47
9/19/2021 10:45:00 PM 15.94 60.692 0.038 6.5 2.16 9.49
9/19/2021 11:00:00 PM 15.87 60.566 0.038 6.48 2.15 9.5
9/19/2021 11:15:00 PM 15.8 60.44 0.038 6.49 2.23 9.52
9/19/2021 11:30:00 PM 15.73 60.314 0.038 6.49 2.09 9.53
9/19/2021 11:45:00 PM 15.68 60.224 0.038 6.49 2.13 9.55
9/20/2021 12:00:00 AM 15.62 60.116 0.038 6.48 2.24 9.56
9/20/2021 12:15:00 AM 15.57 60.026 0.038 6.49 2.19 9.57
9/20/2021 12:30:00 AM 15.52 59.936 0.038 6.49 2.26 9.59
9/20/2021 12:45:00 AM 15.47 59.846 0.038 6.5 2.15 9.6
9/20/2021 1:00:00 AM 15.43 59.774 0.038 6.5 2.08 9.61
9/20/2021 1:15:00 AM 15.39 59.702 0.038 6.5 2.26 9.62
9/20/2021 1:30:00 AM 15.34 59.612 0.038 6.49 2.09 9.63
9/20/2021 1:45:00 AM 15.29 59.522 0.038 6.49 2.17 9.64
9/20/2021 2:00:00 AM 15.23 59.414 0.038 6.5 2.14 9.66
9/20/2021 2:15:00 AM 15.18 59.324 0.038 6.5 2.2 9.67
9/20/2021 2:30:00 AM 15.13 59.234 0.038 6.49 2.2 9.68
9/20/2021 2:45:00 AM 15.08 59.144 0.038 6.5 2.26 9.69
9/20/2021 3:00:00 AM 15.02 59.036 0.038 6.49 2.28 9.7
9/20/2021 3:15:00 AM 14.97 58.946 0.038 6.48 2.21 9.71
9/20/2021 3:30:00 AM 14.92 58.856 0.038 6.48 2.3 9.73
9/20/2021 3:45:00 AM 14.87 58.766 0.038 6.49 2.24 9.74
9/20/2021 4:00:00 AM 14.82 58.676 0.038 6.49 2.19 9.75
9/20/2021 4:15:00 AM 14.77 58.586 0.038 6.49 2.3 9.75
9/20/2021 4:30:00 AM 14.72 58.496 0.038 6.48 2.14 9.77
9/20/2021 4:45:00 AM 14.67 58.406 0.038 6.5 2.17 9.78
9/20/2021 5:00:00 AM 14.61 58.298 0.038 6.49 2.18 9.79
9/20/2021 5:15:00 AM 14.54 58.172 0.038 6.49 2.29 9.81
9/20/2021 5:30:00 AM 14.47 58.046 0.038 6.48 2.27 9.82
9/20/2021 5:45:00 AM 14.41 57.938 0.038 6.49 2.3 9.84
9/20/2021 6:00:00 AM 14.35 57.83 0.038 6.48 2.45 9.85
9/20/2021 6:15:00 AM 14.29 57.722 0.038 6.48 2.19 9.88
9/20/2021 6:30:00 AM 14.23 57.614 0.038 6.47 2.19 9.88
9/20/2021 6:45:00 AM 14.18 57.524 0.038 6.48 2.24 9.89
9/20/2021 7:00:00 AM 14.12 57.416 0.038 6.48 2.27 9.91
9/20/2021 7:15:00 AM 14.06 57.308 0.038 6.48 2.16 9.95
9/20/2021 7:30:00 AM 14.01 57.218 0.038 6.49 2.2 9.98
9/20/2021 7:45:00 AM 13.95 57.11 0.038 6.49 2.12 10.01
9/20/2021 8:00:00 AM 13.91 57.038 0.038 6.49 2.13 10.05
9/20/2021 8:15:00 AM 13.87 56.966 0.038 6.51 2.27 10.08
9/20/2021 8:30:00 AM 13.85 56.93 0.038 6.51 2.34 10.13
9/20/2021 8:45:00 AM 13.84 56.912 0.038 6.52 2.11 10.18
9/20/2021 9:00:00 AM 13.86 56.948 0.037 6.56 2.13 10.25
9/20/2021 9:15:00 AM 13.87 56.966 0.037 6.55 2.08 10.26
9/20/2021 9:30:00 AM 13.9 57.02 0.037 6.57 2.09 10.26
9/20/2021 9:45:00 AM 13.95 57.11 0.037 6.58 2.18 10.27
9/20/2021 10:00:00 AM 14.01 57.218 0.037 6.59 2.1 10.28
9/20/2021 10:15:00 AM 14.08 57.344 0.037 6.62 1.98 10.3
9/20/2021 10:30:00 AM 14.15 57.47 0.037 6.61 2.16 10.3
9/20/2021 10:45:00 AM 14.24 57.632 0.037 6.63 2.1 10.31
9/20/2021 11:00:00 AM 14.33 57.794 0.037 6.63 2.09 10.3
9/20/2021 11:15:00 AM 14.44 57.992 0.037 6.65 2.12 10.3
9/20/2021 11:30:00 AM 14.56 58.208 0.037 6.66 2.03 10.3
9/20/2021 11:45:00 AM 14.7 58.46 0.037 6.69 2.06 10.3
9/20/2021 12:00:00 PM 14.84 58.712 0.037 6.7 2.09 10.29
9/20/2021 12:15:00 PM 15 59 0.037 6.7 2.06 10.27
9/20/2021 12:30:00 PM 15.17 59.306 0.037 6.73 2.08 10.25
9/20/2021 12:45:00 PM 15.34 59.612 0.037 6.74 2.06 10.23
9/20/2021 1:00:00 PM 15.52 59.936 0.037 6.75 1.99 10.24
9/20/2021 1:15:00 PM 15.69 60.242 0.037 6.76 2.01 10.24
9/20/2021 1:30:00 PM 15.76 60.368 0.037 6.76 2.15 10.23
9/20/2021 1:45:00 PM 15.84 60.512 0.037 6.77 1.92 10.23
9/20/2021 2:00:00 PM 15.91 60.638 0.037 6.78 2.06 10.21
9/20/2021 2:15:00 PM 15.98 60.764 0.037 6.78 2.08 10.21
9/20/2021 2:30:00 PM 16.24 61.232 0.037 6.77 1.94 10.19
9/20/2021 2:45:00 PM 16.41 61.538 0.037 6.78 2.05 10.17
9/20/2021 3:00:00 PM 16.5 61.7 0.037 6.8 2.27 10.15
9/20/2021 3:15:00 PM 16.56 61.808 0.037 6.79 2.03 10.12
9/20/2021 3:30:00 PM 16.6 61.88 0.037 6.78 2.08 10.08
9/20/2021 3:45:00 PM 16.59 61.862 0.037 6.78 2.05 10.05
9/20/2021 4:00:00 PM 16.57 61.826 0.037 6.76 2 10.01
9/20/2021 4:15:00 PM 16.55 61.79 0.037 6.73 2.06 10
9/20/2021 4:30:00 PM 16.52 61.736 0.037 6.73 1.96 9.97
9/20/2021 4:45:00 PM 16.47 61.646 0.037 6.69 2.09 9.9
9/20/2021 5:00:00 PM 16.44 61.592 0.037 6.67 2.05 9.84
9/20/2021 5:15:00 PM 16.43 61.574 0.037 6.66 2.08 9.83
9/20/2021 5:30:00 PM 16.43 61.574 0.037 6.64 2.09 9.79
9/20/2021 5:45:00 PM 16.42 61.556 0.037 6.63 2.01 9.72
9/20/2021 6:00:00 PM 16.41 61.538 0.037 6.59 2.06 9.68
9/20/2021 6:15:00 PM 16.4 61.52 0.037 6.57 2.02 9.63
9/20/2021 6:30:00 PM 16.4 61.52 0.037 6.57 2.07 9.59
9/20/2021 6:45:00 PM 16.39 61.502 0.038 6.57 1.98 9.55
9/20/2021 7:00:00 PM 16.39 61.502 0.038 6.56 2.09 9.52
9/20/2021 7:15:00 PM 16.38 61.484 0.038 6.54 2.05 9.49
9/20/2021 7:30:00 PM 16.36 61.448 0.038 6.52 2.01 9.46
9/20/2021 7:45:00 PM 16.34 61.412 0.038 6.52 2.17 9.45
9/20/2021 8:00:00 PM 16.32 61.376 0.038 6.51 2.16 9.44
9/20/2021 8:15:00 PM 16.29 61.322 0.038 6.5 2.12 9.43
9/20/2021 8:30:00 PM 16.27 61.286 0.038 6.5 2.02 9.44
9/20/2021 8:45:00 PM 16.24 61.232 0.038 6.5 2.04 9.44
9/20/2021 9:00:00 PM 16.22 61.196 0.038 6.5 2.16 9.44
9/20/2021 9:15:00 PM 16.19 61.142 0.038 6.49 2.3 9.44
9/20/2021 9:30:00 PM 16.16 61.088 0.038 6.49 2.15 9.45
9/20/2021 9:45:00 PM 16.13 61.034 0.038 6.49 2.16 9.45
9/20/2021 10:00:00 PM 16.11 60.998 0.038 6.48 2.06 9.45
9/20/2021 10:15:00 PM 16.08 60.944 0.038 6.48 2.04 9.46
9/20/2021 10:30:00 PM 16.05 60.89 0.038 6.5 2.1 9.47
9/20/2021 10:45:00 PM 16.02 60.836 0.038 6.49 2.04 9.47
9/20/2021 11:00:00 PM 15.99 60.782 0.038 6.49 2.13 9.48
9/20/2021 11:15:00 PM 15.97 60.746 0.038 6.48 2.18 9.49
9/20/2021 11:30:00 PM 15.94 60.692 0.038 6.49 2.05 9.49
9/20/2021 11:45:00 PM 15.91 60.638 0.038 6.49 2.14 9.49
9/21/2021 12:00:00 AM 15.88 60.584 0.038 6.48 2.05 9.5
9/21/2021 12:15:00 AM 15.84 60.512 0.038 6.49 2.2 9.5
9/21/2021 12:30:00 AM 15.81 60.458 0.038 6.48 2.23 9.51
9/21/2021 12:45:00 AM 15.77 60.386 0.038 6.47 2.8 9.52
9/21/2021 1:00:00 AM 15.74 60.332 0.038 6.49 2.1 9.53
9/21/2021 1:15:00 AM 15.71 60.278 0.038 6.49 2.13 9.54
9/21/2021 1:30:00 AM 15.68 60.224 0.038 6.47 2.12 9.55
9/21/2021 1:45:00 AM 15.65 60.17 0.038 6.49 2.07 9.54
9/21/2021 2:00:00 AM 15.61 60.098 0.038 6.48 2.97 9.56
9/21/2021 2:15:00 AM 15.59 60.062 0.038 6.47 2.21 9.57
9/21/2021 2:30:00 AM 15.57 60.026 0.038 6.47 2.19 9.57
9/21/2021 2:45:00 AM 15.55 59.99 0.038 6.48 2.11 9.58
9/21/2021 3:00:00 AM 15.54 59.972 0.038 6.48 2.2 9.59
9/21/2021 3:15:00 AM 15.53 59.954 0.038 6.49 2.12 9.58
9/21/2021 3:30:00 AM 15.52 59.936 0.038 6.48 2.09 9.58
9/21/2021 3:45:00 AM 15.51 59.918 0.038 6.48 2.11 9.58
9/21/2021 4:00:00 AM 15.51 59.918 0.038 6.48 2.32 9.59
9/21/2021 4:15:00 AM 15.5 59.9 0.038 6.49 2.12 9.59
9/21/2021 4:30:00 AM 15.5 59.9 0.038 6.48 2.15 9.59
9/21/2021 4:45:00 AM 15.49 59.882 0.038 6.48 2.35 9.59
9/21/2021 5:00:00 AM 15.49 59.882 0.038 6.5 2.11 9.6
9/21/2021 5:15:00 AM 15.48 59.864 0.038 6.49 2.1 9.6
9/21/2021 5:30:00 AM 15.48 59.864 0.038 6.5 2.13 9.59
9/21/2021 5:45:00 AM 15.47 59.846 0.038 6.47 2.12 9.6
9/21/2021 6:00:00 AM 15.47 59.846 0.038 6.5 2.12 9.6
9/21/2021 6:15:00 AM 15.46 59.828 0.038 6.49 2.1 9.61
9/21/2021 6:30:00 AM 15.45 59.81 0.038 6.48 2.23 9.61
9/21/2021 6:45:00 AM 15.44 59.792 0.038 6.5 2.27 9.62
9/21/2021 7:00:00 AM 15.44 59.792 0.038 6.47 2.11 9.62
9/21/2021 7:15:00 AM 15.43 59.774 0.038 6.48 2.07 9.63
9/21/2021 7:30:00 AM 15.43 59.774 0.038 6.49 2.14 9.64
9/21/2021 7:45:00 AM 15.44 59.792 0.038 6.5 2.06 9.67
9/21/2021 8:00:00 AM 15.46 59.828 0.038 6.53 2.04 9.75
9/21/2021 8:15:00 AM 15.47 59.846 0.038 6.54 2.07 9.79
9/21/2021 8:30:00 AM 15.48 59.864 0.038 6.55 2.14 9.8
9/21/2021 8:45:00 AM 15.5 59.9 0.038 6.57 2.03 9.83
9/21/2021 9:00:00 AM 15.52 59.936 0.038 6.57 2.12 9.86
9/21/2021 9:15:00 AM 15.54 59.972 0.038 6.59 2.02 9.89
9/21/2021 9:30:00 AM 15.57 60.026 0.038 6.59 2.14 9.92
9/21/2021 9:45:00 AM 15.62 60.116 0.038 6.61 2.02 9.99
9/21/2021 10:00:00 AM 15.67 60.206 0.038 6.65 2.12 10.05
9/21/2021 10:15:00 AM 15.73 60.314 0.037 6.66 1.94 10.07
9/21/2021 10:30:00 AM 15.8 60.44 0.037 6.69 1.99 10.1
9/21/2021 10:45:00 AM 15.86 60.548 0.037 6.69 2.03 10.1
9/21/2021 11:00:00 AM 15.92 60.656 0.037 6.69 2.2 10.09
9/21/2021 11:15:00 AM 16 60.8 0.037 6.71 2.22 10.1
9/21/2021 11:30:00 AM 16.08 60.944 0.037 6.7 1.92 10.11
9/21/2021 11:45:00 AM 16.14 61.052 0.037 6.74 2.04 10.11
9/21/2021 12:00:00 PM 16.22 61.196 0.037 6.73 2.08 10.11
9/21/2021 12:15:00 PM 16.29 61.322 0.037 6.75 2.07 10.11
9/21/2021 12:30:00 PM 16.34 61.412 0.037 6.74 2.09 10.09
9/21/2021 12:45:00 PM 16.38 61.484 0.037 6.74 2.06 10.07
9/21/2021 1:00:00 PM 16.4 61.52 0.037 6.74 1.99 10.04
9/21/2021 1:15:00 PM 16.44 61.592 0.037 6.72 1.95 10.03
9/21/2021 1:30:00 PM 16.48 61.664 0.037 6.74 1.97 10.04
9/21/2021 1:45:00 PM 16.48 61.664 0.037 6.74 2.04 9.99
9/21/2021 2:00:00 PM 16.48 61.664 0.037 6.72 2.03 9.95
9/21/2021 2:15:00 PM 16.5 61.7 0.037 6.72 1.94 9.94
9/21/2021 2:30:00 PM 16.56 61.808 0.037 6.69 2.07 9.91
9/21/2021 2:45:00 PM 16.62 61.916 0.037 6.72 2.05 9.96
9/21/2021 3:00:00 PM 16.65 61.97 0.037 6.72 2.07 9.93
9/21/2021 3:15:00 PM 16.66 61.988 0.037 6.71 1.94 9.9
9/21/2021 3:30:00 PM 16.68 62.024 0.037 6.7 2.03 9.89
9/21/2021 3:45:00 PM 16.71 62.078 0.037 6.71 2.03 9.89
9/21/2021 4:00:00 PM 16.71 62.078 0.037 6.7 1.98 9.86
9/21/2021 4:15:00 PM 16.72 62.096 0.037 6.72 2.02 9.85
9/21/2021 4:30:00 PM 16.73 62.114 0.037 6.72 1.98 9.85
9/21/2021 4:45:00 PM 16.74 62.132 0.037 6.72 2 9.84
9/21/2021 5:00:00 PM 16.74 62.132 0.037 6.69 1.9 9.82
9/21/2021 5:15:00 PM 16.74 62.132 0.037 6.68 2.02 9.79
9/21/2021 5:30:00 PM 16.74 62.132 0.037 6.67 2.01 9.76
9/21/2021 5:45:00 PM 16.74 62.132 0.037 6.64 1.97 9.73
9/21/2021 6:00:00 PM 16.72 62.096 0.037 6.64 1.94 9.67
9/21/2021 6:15:00 PM 16.7 62.06 0.038 6.61 2.01 9.63
9/21/2021 6:30:00 PM 16.68 62.024 0.038 6.59 1.95 9.56
9/21/2021 6:45:00 PM 16.66 61.988 0.038 6.58 2.01 9.52
9/21/2021 7:00:00 PM 16.64 61.952 0.038 6.56 2.04 9.46
9/21/2021 7:15:00 PM 16.61 61.898 0.038 6.54 2.06 9.43
9/21/2021 7:30:00 PM 16.59 61.862 0.038 6.53 2 9.38
9/21/2021 7:45:00 PM 16.56 61.808 0.038 6.52 2 9.36
9/21/2021 8:00:00 PM 16.54 61.772 0.038 6.52 2.08 9.35
9/21/2021 8:15:00 PM 16.52 61.736 0.038 6.5 2.03 9.35
9/21/2021 8:30:00 PM 16.51 61.718 0.038 6.51 2.17 9.34
9/21/2021 8:45:00 PM 16.5 61.7 0.038 6.5 2.05 9.34
9/21/2021 9:00:00 PM 16.48 61.664 0.038 6.5 2.21 9.34
9/21/2021 9:15:00 PM 16.47 61.646 0.038 6.51 2.13 9.34
9/21/2021 9:30:00 PM 16.46 61.628 0.038 6.49 2.06 9.34
9/21/2021 9:45:00 PM 16.45 61.61 0.039 6.48 2.06 9.33
9/21/2021 10:00:00 PM 16.44 61.592 0.039 6.47 2.1 9.32
9/21/2021 10:15:00 PM 16.43 61.574 0.039 6.48 2.29 9.33
9/21/2021 10:30:00 PM 16.42 61.556 0.039 6.47 2.51 9.32
9/21/2021 10:45:00 PM 16.41 61.538 0.039 6.48 2.16 9.32
9/21/2021 11:00:00 PM 16.4 61.52 0.039 6.48 2.94 9.32
9/21/2021 11:15:00 PM 16.39 61.502 0.039 6.47 2.73 9.32
9/21/2021 11:30:00 PM 16.39 61.502 0.039 6.47 2.21 9.33
9/21/2021 11:45:00 PM 16.38 61.484 0.039 6.47 2.33 9.32
9/22/2021 12:00:00 AM 16.37 61.466 0.039 6.46 2.26 9.31
9/22/2021 12:15:00 AM 16.37 61.466 0.039 6.48 2.08 9.32
9/22/2021 12:30:00 AM 16.36 61.448 0.039 6.46 2.09 9.31
9/22/2021 12:45:00 AM 16.36 61.448 0.039 6.48 2.21 9.32
9/22/2021 1:00:00 AM 16.35 61.43 0.039 6.47 2.12 9.32
9/22/2021 1:15:00 AM 16.35 61.43 0.039 6.46 2.11 9.32
9/22/2021 1:30:00 AM 16.34 61.412 0.039 6.45 2.2 9.31
9/22/2021 1:45:00 AM 16.34 61.412 0.039 6.46 2.13 9.32
9/22/2021 2:00:00 AM 16.34 61.412 0.039 6.47 2.18 9.32
9/22/2021 2:15:00 AM 16.33 61.394 0.039 6.48 2.1 9.33
9/22/2021 2:30:00 AM 16.33 61.394 0.039 6.47 2.2 9.32
9/22/2021 2:45:00 AM 16.33 61.394 0.039 6.47 2.28 9.32
9/22/2021 3:00:00 AM 16.32 61.376 0.039 6.47 2.31 9.32
9/22/2021 3:15:00 AM 16.32 61.376 0.039 6.46 2.3 9.32
9/22/2021 3:30:00 AM 16.32 61.376 0.039 6.48 2.43 9.33
9/22/2021 3:45:00 AM 16.31 61.358 0.039 6.48 2.4 9.33
9/22/2021 4:00:00 AM 16.31 61.358 0.039 6.48 2.34 9.32
9/22/2021 4:15:00 AM 16.31 61.358 0.039 6.49 2.29 9.33
9/22/2021 4:30:00 AM 16.3 61.34 0.039 6.48 2.32 9.33
9/22/2021 4:45:00 AM 16.3 61.34 0.039 6.48 2.4 9.33
9/22/2021 5:00:00 AM 16.29 61.322 0.039 6.49 2.25 9.34
9/22/2021 5:15:00 AM 16.28 61.304 0.039 6.49 2.29 9.34
9/22/2021 5:30:00 AM 16.27 61.286 0.039 6.5 2.31 9.35
9/22/2021 5:45:00 AM 16.27 61.286 0.039 6.5 2.35 9.35
9/22/2021 6:00:00 AM 16.26 61.268 0.039 6.49 2.21 9.35
9/22/2021 6:15:00 AM 16.26 61.268 0.039 6.51 2.26 9.36
9/22/2021 6:30:00 AM 16.25 61.25 0.039 6.51 2.44 9.36
9/22/2021 6:45:00 AM 16.25 61.25 0.039 6.51 2.2 9.36
9/22/2021 7:00:00 AM 16.24 61.232 0.039 6.51 2.29 9.36
9/22/2021 7:15:00 AM 16.24 61.232 0.039 6.51 2.38 9.36
9/22/2021 7:30:00 AM 16.23 61.214 0.039 6.52 2.88 9.37
9/22/2021 7:45:00 AM 16.23 61.214 0.039 6.52 2.17 9.39
9/22/2021 8:00:00 AM 16.24 61.232 0.038 6.52 2.23 9.4
9/22/2021 8:15:00 AM 16.24 61.232 0.038 6.52 2.42 9.42
9/22/2021 8:30:00 AM 16.24 61.232 0.038 6.53 2.24 9.43
9/22/2021 8:45:00 AM 16.25 61.25 0.038 6.54 2.13 9.45
9/22/2021 9:00:00 AM 16.25 61.25 0.038 6.54 2.25 9.47
9/22/2021 9:15:00 AM 16.26 61.268 0.038 6.52 2.16 9.48
9/22/2021 9:30:00 AM 16.27 61.286 0.038 6.54 2.16 9.5
9/22/2021 9:45:00 AM 16.29 61.322 0.038 6.55 2.32 9.56
9/22/2021 10:00:00 AM 16.32 61.376 0.038 6.56 2.14 9.6
9/22/2021 10:15:00 AM 16.35 61.43 0.038 6.56 2.7 9.63
9/22/2021 10:30:00 AM 16.38 61.484 0.038 6.57 2.48 9.67
9/22/2021 10:45:00 AM 16.41 61.538 0.037 6.61 2.19 9.71
9/22/2021 11:00:00 AM 16.44 61.592 0.037 6.6 2.25 9.7
9/22/2021 11:15:00 AM 16.48 61.664 0.037 6.61 2.37 9.73
9/22/2021 11:30:00 AM 16.52 61.736 0.037 6.64 2.27 9.73
9/22/2021 11:45:00 AM 16.55 61.79 0.037 6.65 2.4 9.72
9/22/2021 12:00:00 PM 16.58 61.844 0.037 6.64 2.15 9.69
9/22/2021 12:15:00 PM 16.62 61.916 0.037 6.66 2.21 9.71
9/22/2021 12:30:00 PM 16.65 61.97 0.037 6.67 2.19 9.73
9/22/2021 12:45:00 PM 16.68 62.024 0.037 6.67 2.21 9.72
9/22/2021 1:00:00 PM 16.73 62.114 0.037 6.68 2.36 9.73
9/22/2021 1:15:00 PM 16.78 62.204 0.037 6.71 2.38 9.72
9/22/2021 1:30:00 PM 16.79 62.222 0.037 6.67 2.5 9.64
9/22/2021 1:45:00 PM 16.8 62.24 0.037 6.68 2.35 9.58
9/22/2021 2:00:00 PM 16.81 62.258 0.037 6.65 2.87 9.55
9/22/2021 2:15:00 PM 16.84 62.312 0.037 6.66 2.51 9.59
9/22/2021 2:30:00 PM 16.87 62.366 0.037 6.69 2.56 9.62
9/22/2021 2:45:00 PM 16.93 62.474 0.037 6.71 2.71 9.66
9/22/2021 3:00:00 PM 17.01 62.618 0.038 6.73 3.09 9.69
9/22/2021 3:15:00 PM 17.09 62.762 0.038 6.75 3.71 9.7
9/22/2021 3:30:00 PM 17.17 62.906 0.038 6.75 4.32 9.7
9/22/2021 3:45:00 PM 17.21 62.978 0.037 6.76 4.73 9.67
9/22/2021 4:00:00 PM 17.24 63.032 0.038 6.75 5.34 9.62
9/22/2021 4:15:00 PM 17.25 63.05 0.038 6.77 7.59 9.58
9/22/2021 4:30:00 PM 17.24 63.032 0.038 6.74 9.32 9.52
9/22/2021 4:45:00 PM 17.23 63.014 0.038 6.72 9.89 9.45
9/22/2021 5:00:00 PM 17.22 62.996 0.038 6.68 8.38 9.38
9/22/2021 5:15:00 PM 17.23 63.014 0.038 6.69 8.13 9.37
9/22/2021 5:30:00 PM 17.24 63.032 0.037 6.68 7.97 9.35
9/22/2021 5:45:00 PM 17.24 63.032 0.037 6.67 7.44 9.34
9/22/2021 6:00:00 PM 17.24 63.032 0.037 6.68 8.37 9.32
9/22/2021 6:15:00 PM 17.23 63.014 0.038 6.67 10.69 9.29
9/22/2021 6:30:00 PM 17.23 63.014 0.038 6.65 11.08 9.25
9/22/2021 6:45:00 PM 17.22 62.996 0.038 6.63 9.91 9.21
9/22/2021 7:00:00 PM 17.2 62.96 0.038 6.62 8.14 9.19
9/22/2021 7:15:00 PM 17.17 62.906 0.038 6.62 7.2 9.19
9/22/2021 7:30:00 PM 17.16 62.888 0.038 6.58 6.19 9.18
9/22/2021 7:45:00 PM 17.15 62.87 0.038 6.59 4.82 9.18
9/22/2021 8:00:00 PM 17.15 62.87 0.038 6.58 4.49 9.18
9/22/2021 8:15:00 PM 17.15 62.87 0.037 6.59 3.94 9.18
9/22/2021 8:30:00 PM 17.15 62.87 0.037 6.58 3.96 9.17
9/22/2021 8:45:00 PM 17.15 62.87 0.037 6.58 3.94 9.18
9/22/2021 9:00:00 PM 17.15 62.87 0.037 6.59 3.99 9.18
9/22/2021 9:15:00 PM 17.15 62.87 0.037 6.59 4.11 9.18
9/22/2021 9:30:00 PM 17.16 62.888 0.037 6.59 4.55 9.16
9/22/2021 9:45:00 PM 17.17 62.906 0.037 6.57 4.49 9.17
9/22/2021 10:00:00 PM 17.17 62.906 0.037 6.58 4.46 9.17
9/22/2021 10:15:00 PM 17.18 62.924 0.037 6.58 4.49 9.18
9/22/2021 10:30:00 PM 17.23 63.014 0.036 6.59 5.11 9.18
9/22/2021 10:45:00 PM 17.23 63.014 0.036 6.59 5.49 9.17
9/22/2021 11:00:00 PM 17.2 62.96 0.036 6.57 5.9 9.17
9/22/2021 11:15:00 PM 17.18 62.924 0.036 6.57 6.47 9.18
9/22/2021 11:30:00 PM 17.16 62.888 0.036 6.56 5.96 9.18
9/22/2021 11:45:00 PM 17.13 62.834 0.037 6.57 7.42 9.18
9/23/2021 12:00:00 AM 17.1 62.78 0.037 6.57 7.13 9.19
9/23/2021 12:15:00 AM 17.06 62.708 0.037 6.57 12.31 9.2
9/23/2021 12:30:00 AM 17.02 62.636 0.036 6.58 16.97 9.22
9/23/2021 12:45:00 AM 16.99 62.582 0.036 6.56 21.58 9.22
9/23/2021 1:00:00 AM 16.95 62.51 0.036 6.55 17.78 9.25
9/23/2021 1:15:00 AM 16.91 62.438 0.036 6.55 16.85 9.25
9/23/2021 1:30:00 AM 16.86 62.348 0.036 6.56 21.38 9.27
9/23/2021 1:45:00 AM 16.81 62.258 0.036 6.58 26.99 9.29
9/23/2021 2:00:00 AM 16.76 62.168 0.036 6.56 28.37 9.3
9/23/2021 2:15:00 AM 16.71 62.078 0.036 6.55 27.39 9.32
9/23/2021 2:30:00 AM 16.66 61.988 0.036 6.54 27.96 9.34
9/23/2021 2:45:00 AM 16.61 61.898 0.036 6.54 26.78 9.37
9/23/2021 3:00:00 AM 16.55 61.79 0.035 6.52 26.38 9.4
9/23/2021 3:15:00 AM 16.49 61.682 0.035 6.52 26.92 9.42
9/23/2021 3:30:00 AM 16.44 61.592 0.035 6.49 32.6 9.44
9/23/2021 3:45:00 AM 16.4 61.52 0.035 6.52 35.14 9.46
9/23/2021 4:00:00 AM 16.35 61.43 0.034 6.52 40.12 9.47
9/23/2021 4:15:00 AM 16.31 61.358 0.034 6.48 42.84 9.49
9/23/2021 4:30:00 AM 16.26 61.268 0.033 6.5 49.84 9.51
9/23/2021 4:45:00 AM 16.22 61.196 0.033 6.49 50.12 9.53
9/23/2021 5:00:00 AM 16.18 61.124 0.033 6.45 52.27 9.55
9/23/2021 5:15:00 AM 16.13 61.034 0.033 6.48 55.65 9.57
9/23/2021 5:30:00 AM 16.07 60.926 0.033 6.45 58.21 9.59
9/23/2021 5:45:00 AM 16.02 60.836 0.032 6.42 64.9 9.61
9/23/2021 6:00:00 AM 15.97 60.746 0.032 6.4 64.97 9.62
9/23/2021 6:15:00 AM 15.92 60.656 0.032 6.36 73.66 9.63
9/23/2021 6:30:00 AM 15.88 60.584 0.031 6.32 77.34 9.65
9/23/2021 6:45:00 AM 15.83 60.494 0.031 6.29 72.4 9.67
9/23/2021 7:00:00 AM 15.79 60.422 0.03 6.28 71.51 9.67
9/23/2021 7:15:00 AM 15.76 60.368 0.029 6.26 78.36 9.68
9/23/2021 7:30:00 AM 15.72 60.296 0.029 6.16 76.06 9.69
9/23/2021 7:45:00 AM 15.69 60.242 0.028 6.14 76.32 9.71
9/23/2021 8:00:00 AM 15.66 60.188 0.028 6.11 76.14 9.72
9/23/2021 8:15:00 AM 15.63 60.134 0.028 6.07 75.79 9.72
9/23/2021 8:30:00 AM 15.6 60.08 0.028 6.04 77.58 9.73
9/23/2021 8:45:00 AM 15.58 60.044 0.027 6.04 72.64 9.74
9/23/2021 9:00:00 AM 15.55 59.99 0.027 5.99 71.79 9.75
9/23/2021 9:15:00 AM 15.53 59.954 0.026 5.94 69.77 9.76
9/23/2021 9:30:00 AM 15.51 59.918 0.026 5.88 66.62 9.76
9/23/2021 9:45:00 AM 15.49 59.882 0.026 5.86 63.48 9.77
9/23/2021 10:00:00 AM 15.46 59.828 0.026 5.86 60.21 9.79
9/23/2021 10:15:00 AM 15.45 59.81 0.026 5.84 56.78 9.8
9/23/2021 10:30:00 AM 15.44 59.792 0.026 5.84 53.11 9.8
9/23/2021 10:45:00 AM 15.42 59.756 0.025 5.88 48.35 9.81
9/23/2021 11:00:00 AM 15.4 59.72 0.025 5.88 44.87 9.81
9/23/2021 11:15:00 AM 15.38 59.684 0.025 5.9 39.18 9.82
9/23/2021 11:30:00 AM 15.37 59.666 0.025 5.9 37.81 9.82
9/23/2021 11:45:00 AM 15.36 59.648 0.026 5.91 35.41 9.83
9/23/2021 12:00:00 PM 15.34 59.612 0.026 5.89 33.72 9.83
9/23/2021 12:15:00 PM 15.33 59.594 0.026 5.91 30.6 9.83
9/23/2021 12:30:00 PM 15.31 59.558 0.026 5.93 29.62 9.84
9/23/2021 12:45:00 PM 15.31 59.558 0.026 5.94 28.08 9.84
9/23/2021 1:00:00 PM 15.31 59.558 0.026 5.94 26.38 9.85
9/23/2021 1:15:00 PM 15.31 59.558 0.026 5.97 25.71 9.85
9/23/2021 1:30:00 PM 15.29 59.522 0.026 5.96 25.57 9.85
9/23/2021 1:45:00 PM 15.27 59.486 0.026 5.95 23.9 9.85
9/23/2021 2:00:00 PM 15.26 59.468 0.027 5.98 23.18 9.86
9/23/2021 2:15:00 PM 15.24 59.432 0.027 5.98 22.29 9.86
9/23/2021 2:30:00 PM 15.21 59.378 0.027 5.96 21.05 9.86
9/23/2021 2:45:00 PM 15.19 59.342 0.027 5.99 20.31 9.88
9/23/2021 3:00:00 PM 15.16 59.288 0.027 6 19.92 9.88
9/23/2021 3:15:00 PM 15.13 59.234 0.027 6.01 19.01 9.89
9/23/2021 3:30:00 PM 15.08 59.144 0.027 5.99 18.86 9.89
9/23/2021 3:45:00 PM 15.03 59.054 0.027 5.98 18.45 9.9
9/23/2021 4:00:00 PM 14.98 58.964 0.027 5.99 18.11 9.91
9/23/2021 4:15:00 PM 14.92 58.856 0.027 6 17.93 9.92
9/23/2021 4:30:00 PM 14.87 58.766 0.028 6.03 17.92 9.94
9/23/2021 4:45:00 PM 14.82 58.676 0.028 6.02 17.32 9.94
9/23/2021 5:00:00 PM 14.77 58.586 0.028 6.02 17.08 9.95
9/23/2021 5:15:00 PM 14.7 58.46 0.028 6.04 17.25 9.96
9/23/2021 5:30:00 PM 14.64 58.352 0.028 6.04 16.26 9.98
9/23/2021 5:45:00 PM 14.58 58.244 0.028 6.03 16.61 9.99
9/23/2021 6:00:00 PM 14.51 58.118 0.028 6.05 16.12 10.01
9/23/2021 6:15:00 PM 14.44 57.992 0.028 6.05 15.67 10.02
9/23/2021 6:30:00 PM 14.37 57.866 0.028 6.07 15.88 10.04
9/23/2021 6:45:00 PM 14.3 57.74 0.028 6.06 15.37 10.05
9/23/2021 7:00:00 PM 14.24 57.632 0.028 6.06 15.26 10.07
9/23/2021 7:15:00 PM 14.17 57.506 0.028 6.08 14.93 10.09
9/23/2021 7:30:00 PM 14.11 57.398 0.028 6.06 15.14 10.11
9/23/2021 7:45:00 PM 14.05 57.29 0.028 6.07 14.49 10.11
9/23/2021 8:00:00 PM 13.99 57.182 0.029 6.08 13.9 10.14
9/23/2021 8:15:00 PM 13.93 57.074 0.029 6.06 13.96 10.15
9/23/2021 8:30:00 PM 13.87 56.966 0.029 6.09 14.12 10.16
9/23/2021 8:45:00 PM 13.81 56.858 0.029 6.08 13.83 10.17
9/23/2021 9:00:00 PM 13.75 56.75 0.029 6.08 12.7 10.19
9/23/2021 9:15:00 PM 13.7 56.66 0.029 6.11 13 10.2
9/23/2021 9:30:00 PM 13.65 56.57 0.029 6.12 12.56 10.21
9/23/2021 9:45:00 PM 13.6 56.48 0.029 6.13 12.84 10.23
9/23/2021 10:00:00 PM 13.56 56.408 0.029 6.1 12.88 10.24
9/23/2021 10:15:00 PM 13.51 56.318 0.029 6.11 12.37 10.25
9/23/2021 10:30:00 PM 13.46 56.228 0.029 6.11 12.16 10.26
9/23/2021 10:45:00 PM 13.42 56.156 0.029 6.13 12.29 10.27
9/23/2021 11:00:00 PM 13.37 56.066 0.029 6.09 12.42 10.28
9/23/2021 11:15:00 PM 13.33 55.994 0.029 6.11 11.86 10.29
9/23/2021 11:30:00 PM 13.29 55.922 0.029 6.11 11.81 10.3
9/23/2021 11:45:00 PM 13.25 55.85 0.029 6.11 11.84 10.31
9/24/2021 12:00:00 AM 13.22 55.796 0.029 6.09 11.08 10.32
9/24/2021 12:15:00 AM 13.19 55.742 0.029 6.08 11.25 10.33
9/24/2021 12:30:00 AM 13.16 55.688 0.029 6.11 11.15 10.33
9/24/2021 12:45:00 AM 13.14 55.652 0.029 6.1 11.51 10.34
9/24/2021 1:00:00 AM 13.11 55.598 0.029 6.08 10.8 10.34
9/24/2021 1:15:00 AM 13.08 55.544 0.029 6.1 10.98 10.35
9/24/2021 1:30:00 AM 13.06 55.508 0.029 6.14 11.01 10.35
9/24/2021 1:45:00 AM 13.04 55.472 0.029 6.09 10.76 10.36
9/24/2021 2:00:00 AM 13.02 55.436 0.029 6.11 10.67 10.36
9/24/2021 2:15:00 AM 13 55.4 0.029 6.08 10.59 10.37
9/24/2021 2:30:00 AM 12.98 55.364 0.029 6.1 10.5 10.38
9/24/2021 2:45:00 AM 12.97 55.346 0.029 6.1 10.4 10.38
9/24/2021 3:00:00 AM 12.95 55.31 0.029 6.1 10.2 10.39
9/24/2021 3:15:00 AM 12.94 55.292 0.029 6.11 10.2 10.39
9/24/2021 3:30:00 AM 12.92 55.256 0.029 6.11 10.29 10.39
9/24/2021 3:45:00 AM 12.9 55.22 0.029 6.1 9.98 10.4
9/24/2021 4:00:00 AM 12.88 55.184 0.029 6.1 9.53 10.41
9/24/2021 4:15:00 AM 12.85 55.13 0.029 6.12 10.27 10.41
9/24/2021 4:30:00 AM 12.83 55.094 0.029 6.1 9.94 10.42
9/24/2021 4:45:00 AM 12.8 55.04 0.029 6.11 9.83 10.43
9/24/2021 5:00:00 AM 12.77 54.986 0.029 6.15 9.7 10.44
9/24/2021 5:15:00 AM 12.75 54.95 0.029 6.1 9.33 10.44
9/24/2021 5:30:00 AM 12.71 54.878 0.029 6.09 9.3 10.45
9/24/2021 5:45:00 AM 12.68 54.824 0.029 6.1 9.33 10.46
9/24/2021 6:00:00 AM 12.65 54.77 0.029 6.07 9.16 10.47
9/24/2021 6:15:00 AM 12.62 54.716 0.029 6.07 9.06 10.48
9/24/2021 6:30:00 AM 12.58 54.644 0.029 6.13 9.04 10.49
9/24/2021 6:45:00 AM 12.55 54.59 0.029 6.1 9.15 10.49
9/24/2021 7:00:00 AM 12.52 54.536 0.029 6.09 8.9 10.51
9/24/2021 7:15:00 AM 12.48 54.464 0.029 6.06 9.46 10.52
9/24/2021 7:30:00 AM 12.46 54.428 0.029 6.11 8.94 10.53
9/24/2021 7:45:00 AM 12.43 54.374 0.029 6.1 8.9 10.54
9/24/2021 8:00:00 AM 12.42 54.356 0.029 6.11 8.68 10.55
9/24/2021 8:15:00 AM 12.4 54.32 0.029 6.07 8.52 10.56
9/24/2021 8:30:00 AM 12.4 54.32 0.029 6.07 8.29 10.57
9/24/2021 8:45:00 AM 12.4 54.32 0.029 6.05 8.35 10.57
9/24/2021 9:00:00 AM 12.4 54.32 0.029 6.07 8.35 10.57
9/24/2021 9:15:00 AM 12.41 54.338 0.029 6.07 7.97 10.58
9/24/2021 9:30:00 AM 12.42 54.356 0.029 6.11 7.91 10.59
9/24/2021 9:45:00 AM 12.43 54.374 0.029 6.07 8.09 10.59
9/24/2021 10:00:00 AM 12.45 54.41 0.029 6.1 7.79 10.58
9/24/2021 10:15:00 AM 12.48 54.464 0.029 6.09 7.85 10.58
9/24/2021 10:30:00 AM 12.51 54.518 0.029 6.08 7.79 10.58
9/24/2021 10:45:00 AM 12.54 54.572 0.029 6.07 8.01 10.57
9/24/2021 11:00:00 AM 12.57 54.626 0.029 6.11 7.48 10.56
9/24/2021 11:15:00 AM 12.62 54.716 0.029 6.07 7.64 10.56
9/24/2021 11:30:00 AM 12.66 54.788 0.029 6.07 7.56 10.55
9/24/2021 11:45:00 AM 12.73 54.914 0.029 6.08 7.55 10.54
9/24/2021 12:00:00 PM 12.79 55.022 0.029 6.08 7.87 10.52
9/24/2021 12:15:00 PM 12.85 55.13 0.029 6.11 7.56 10.51
9/24/2021 12:30:00 PM 12.91 55.238 0.029 6.12 7.3 10.5
9/24/2021 12:45:00 PM 12.97 55.346 0.029 6.11 7.53 10.48
9/24/2021 1:00:00 PM 13.03 55.454 0.029 6.12 7.39 10.47
9/24/2021 1:15:00 PM 13.09 55.562 0.029 6.11 7.46 10.46
9/24/2021 1:30:00 PM 13.17 55.706 0.029 6.13 7.51 10.45
9/24/2021 1:45:00 PM 13.23 55.814 0.029 6.12 7.4 10.43
9/24/2021 2:00:00 PM 13.3 55.94 0.029 6.11 7.31 10.41
9/24/2021 2:15:00 PM 13.36 56.048 0.029 6.13 7.32 10.4
9/24/2021 2:30:00 PM 13.4 56.12 0.029 6.1 7.04 10.38
9/24/2021 2:45:00 PM 13.42 56.156 0.029 6.1 7.57 10.36
9/24/2021 3:00:00 PM 13.45 56.21 0.029 6.13 7.18 10.36
9/24/2021 3:15:00 PM 13.48 56.264 0.029 6.09 7.06 10.34
9/24/2021 3:30:00 PM 13.53 56.354 0.029 6.1 7.2 10.34
9/24/2021 3:45:00 PM 13.55 56.39 0.029 6.09 7.08 10.33
9/24/2021 4:00:00 PM 13.58 56.444 0.029 6.12 6.84 10.32
9/24/2021 4:15:00 PM 13.6 56.48 0.029 6.1 7.28 10.31
9/24/2021 4:30:00 PM 13.63 56.534 0.029 6.11 7.04 10.31
9/24/2021 4:45:00 PM 13.64 56.552 0.029 6.1 7.04 10.3
9/24/2021 5:00:00 PM 13.65 56.57 0.029 6.08 6.64 10.28
9/24/2021 5:15:00 PM 13.66 56.588 0.029 6.09 6.87 10.28
9/24/2021 5:30:00 PM 13.67 56.606 0.029 6.09 6.95 10.27
9/24/2021 5:45:00 PM 13.67 56.606 0.029 6.09 6.86 10.27
9/24/2021 6:00:00 PM 13.66 56.588 0.029 6.07 7.22 10.26
9/24/2021 6:15:00 PM 13.65 56.57 0.029 6.06 7.12 10.25
9/24/2021 6:30:00 PM 13.63 56.534 0.029 6.09 6.68 10.25
9/24/2021 6:45:00 PM 13.62 56.516 0.029 6.09 6.95 10.26
9/24/2021 7:00:00 PM 13.6 56.48 0.029 6.11 6.86 10.26
9/24/2021 7:15:00 PM 13.57 56.426 0.029 6.1 7.1 10.26
9/24/2021 7:30:00 PM 13.55 56.39 0.029 6.09 6.74 10.26
9/24/2021 7:45:00 PM 13.52 56.336 0.029 6.09 6.91 10.28
9/24/2021 8:00:00 PM 13.49 56.282 0.029 6.1 7.03 10.28
9/24/2021 8:15:00 PM 13.46 56.228 0.029 6.12 6.91 10.29
9/24/2021 8:30:00 PM 13.42 56.156 0.029 6.09 6.73 10.29
9/24/2021 8:45:00 PM 13.39 56.102 0.029 6.09 6.7 10.3
9/24/2021 9:00:00 PM 13.35 56.03 0.029 6.09 6.37 10.31
9/24/2021 9:15:00 PM 13.31 55.958 0.029 6.07 6.6 10.32
9/24/2021 9:30:00 PM 13.26 55.868 0.029 6.1 6.43 10.33
9/24/2021 9:45:00 PM 13.22 55.796 0.029 6.11 6.52 10.34
9/24/2021 10:00:00 PM 13.17 55.706 0.029 6.09 6.51 10.35
9/24/2021 10:15:00 PM 13.13 55.634 0.029 6.1 6.36 10.37
9/24/2021 10:30:00 PM 13.08 55.544 0.029 6.1 6.41 10.38
9/24/2021 10:45:00 PM 13.03 55.454 0.029 6.08 6.27 10.39
9/24/2021 11:00:00 PM 12.98 55.364 0.029 6.08 6.02 10.4
9/24/2021 11:15:00 PM 12.93 55.274 0.029 6.09 6.19 10.41
9/24/2021 11:30:00 PM 12.88 55.184 0.029 6.09 6.03 10.43
9/24/2021 11:45:00 PM 12.83 55.094 0.029 6.07 6.29 10.44
9/25/2021 12:00:00 AM 12.78 55.004 0.029 6.1 6.11 10.46
9/25/2021 12:15:00 AM 12.74 54.932 0.029 6.09 6.1 10.46
9/25/2021 12:30:00 AM 12.69 54.842 0.029 6.1 6.22 10.48
9/25/2021 12:45:00 AM 12.64 54.752 0.029 6.12 6.2 10.49
9/25/2021 1:00:00 AM 12.59 54.662 0.029 6.1 6.23 10.5
9/25/2021 1:15:00 AM 12.55 54.59 0.029 6.11 5.98 10.51
9/25/2021 1:30:00 AM 12.51 54.518 0.029 6.11 6.05 10.52
9/25/2021 1:45:00 AM 12.46 54.428 0.029 6.13 5.86 10.53
9/25/2021 2:00:00 AM 12.42 54.356 0.029 6.12 5.87 10.54
9/25/2021 2:15:00 AM 12.38 54.284 0.029 6.13 5.85 10.55
9/25/2021 2:30:00 AM 12.34 54.212 0.029 6.13 6.08 10.56
9/25/2021 2:45:00 AM 12.31 54.158 0.029 6.14 6.04 10.57
9/25/2021 3:00:00 AM 12.27 54.086 0.029 6.16 5.98 10.58
9/25/2021 3:15:00 AM 12.23 54.014 0.029 6.13 5.71 10.59
9/25/2021 3:30:00 AM 12.19 53.942 0.029 6.13 5.86 10.6
9/25/2021 3:45:00 AM 12.16 53.888 0.029 6.14 5.7 10.61
9/25/2021 4:00:00 AM 12.12 53.816 0.029 6.16 5.87 10.61
9/25/2021 4:15:00 AM 12.08 53.744 0.029 6.12 5.94 10.62
9/25/2021 4:30:00 AM 12.04 53.672 0.029 6.15 5.98 10.63
9/25/2021 4:45:00 AM 12 53.6 0.029 6.17 5.68 10.64
9/25/2021 5:00:00 AM 11.96 53.528 0.029 6.16 5.97 10.65
9/25/2021 5:15:00 AM 11.92 53.456 0.029 6.18 5.92 10.66
9/25/2021 5:30:00 AM 11.89 53.402 0.029 6.18 5.71 10.67
9/25/2021 5:45:00 AM 11.85 53.33 0.029 6.19 5.75 10.68
9/25/2021 6:00:00 AM 11.82 53.276 0.029 6.18 5.52 10.69
9/25/2021 6:15:00 AM 11.79 53.222 0.029 6.16 5.59 10.69
9/25/2021 6:30:00 AM 11.75 53.15 0.029 6.17 5.86 10.7
9/25/2021 6:45:00 AM 11.72 53.096 0.029 6.19 8.27 10.71
9/25/2021 7:00:00 AM 11.69 53.042 0.029 6.15 5.36 10.72
9/25/2021 7:15:00 AM 11.65 52.97 0.029 6.18 5.51 10.74
9/25/2021 7:30:00 AM 11.62 52.916 0.029 6.17 5.96 10.74
9/25/2021 7:45:00 AM 11.6 52.88 0.029 6.19 5.61 10.76
9/25/2021 8:00:00 AM 11.58 52.844 0.029 6.17 5.65 10.77
9/25/2021 8:15:00 AM 11.56 52.808 0.029 6.2 5.71 10.78
9/25/2021 8:30:00 AM 11.55 52.79 0.029 6.2 5.55 10.79
9/25/2021 8:45:00 AM 11.53 52.754 0.029 6.19 5.36 10.79
9/25/2021 9:00:00 AM 11.53 52.754 0.029 6.21 5.45 10.81
9/25/2021 9:15:00 AM 11.54 52.772 0.029 6.2 5.31 10.82
9/25/2021 9:30:00 AM 11.55 52.79 0.029 6.21 5.21 10.83
9/25/2021 9:45:00 AM 11.57 52.826 0.029 6.23 5.16 10.83
9/25/2021 10:00:00 AM 11.61 52.898 0.029 6.22 5.11 10.82
9/25/2021 10:15:00 AM 11.64 52.952 0.029 6.23 5.08 10.81
9/25/2021 10:30:00 AM 11.68 53.024 0.029 6.25 5.21 10.8
9/25/2021 10:45:00 AM 11.72 53.096 0.029 6.21 4.87 10.77
9/25/2021 11:00:00 AM 11.77 53.186 0.029 6.23 4.96 10.77
9/25/2021 11:15:00 AM 11.84 53.312 0.029 6.24 4.88 10.75
9/25/2021 11:30:00 AM 11.92 53.456 0.029 6.24 5.04 10.74
9/25/2021 11:45:00 AM 12 53.6 0.029 6.28 5.05 10.72
9/25/2021 12:00:00 PM 12.1 53.78 0.029 6.27 4.93 10.7
9/25/2021 12:15:00 PM 12.19 53.942 0.029 6.24 5.07 10.67
9/25/2021 12:30:00 PM 12.28 54.104 0.029 6.28 4.82 10.65
9/25/2021 12:45:00 PM 12.4 54.32 0.029 6.28 4.78 10.63
9/25/2021 1:00:00 PM 12.5 54.5 0.029 6.26 4.71 10.62
9/25/2021 1:15:00 PM 12.59 54.662 0.029 6.3 4.79 10.59
9/25/2021 1:30:00 PM 12.68 54.824 0.029 6.31 4.85 10.56
9/25/2021 1:45:00 PM 12.78 55.004 0.029 6.3 4.88 10.54
9/25/2021 2:00:00 PM 12.85 55.13 0.029 6.27 4.69 10.53
9/25/2021 2:15:00 PM 12.94 55.292 0.029 6.28 4.56 10.5
9/25/2021 2:30:00 PM 13.03 55.454 0.029 6.3 4.79 10.48
9/25/2021 2:45:00 PM 13.06 55.508 0.029 6.26 5.02 10.46
9/25/2021 3:00:00 PM 13.1 55.58 0.029 6.29 4.89 10.44
9/25/2021 3:15:00 PM 13.15 55.67 0.029 6.27 4.9 10.43
9/25/2021 3:30:00 PM 13.2 55.76 0.029 6.29 4.71 10.42
9/25/2021 3:45:00 PM 13.23 55.814 0.029 6.28 4.93 10.4
9/25/2021 4:00:00 PM 13.26 55.868 0.029 6.26 4.91 10.38
9/25/2021 4:15:00 PM 13.29 55.922 0.029 6.25 4.72 10.36
9/25/2021 4:30:00 PM 13.32 55.976 0.029 6.23 4.93 10.35
9/25/2021 4:45:00 PM 13.34 56.012 0.029 6.22 4.66 10.34
9/25/2021 5:00:00 PM 13.38 56.084 0.029 6.26 4.71 10.34
9/25/2021 5:15:00 PM 13.4 56.12 0.029 6.26 4.79 10.33
9/25/2021 5:30:00 PM 13.41 56.138 0.029 6.23 5.09 10.31
9/25/2021 5:45:00 PM 13.42 56.156 0.029 6.24 4.88 10.28
9/25/2021 6:00:00 PM 13.42 56.156 0.029 6.25 4.98 10.27
9/25/2021 6:15:00 PM 13.41 56.138 0.029 6.23 4.67 10.27
9/25/2021 6:30:00 PM 13.41 56.138 0.029 6.23 4.57 10.26
9/25/2021 6:45:00 PM 13.4 56.12 0.029 6.22 4.72 10.25
9/25/2021 7:00:00 PM 13.4 56.12 0.029 6.22 4.77 10.24
9/25/2021 7:15:00 PM 13.39 56.102 0.029 6.19 4.76 10.25
9/25/2021 7:30:00 PM 13.38 56.084 0.029 6.23 4.69 10.24
9/25/2021 7:45:00 PM 13.38 56.084 0.029 6.22 4.94 10.24
9/25/2021 8:00:00 PM 13.38 56.084 0.029 6.21 4.83 10.25
9/25/2021 8:15:00 PM 13.38 56.084 0.029 6.23 4.74 10.24
9/25/2021 8:30:00 PM 13.37 56.066 0.029 6.25 4.95 10.25
9/25/2021 8:45:00 PM 13.37 56.066 0.029 6.19 4.97 10.25
9/25/2021 9:00:00 PM 13.36 56.048 0.029 6.23 4.82 10.25
9/25/2021 9:15:00 PM 13.35 56.03 0.029 6.23 4.67 10.25
9/25/2021 9:30:00 PM 13.34 56.012 0.029 6.21 13.27 10.26
9/25/2021 9:45:00 PM 13.33 55.994 0.029 6.21 13.19 10.26
9/25/2021 10:00:00 PM 13.32 55.976 0.029 6.2 8.56 10.26
9/25/2021 10:15:00 PM 13.31 55.958 0.029 6.21 4.86 10.27
9/25/2021 10:30:00 PM 13.3 55.94 0.029 6.23 5.31 10.27
9/25/2021 10:45:00 PM 13.28 55.904 0.029 6.24 4.71 10.28
9/25/2021 11:00:00 PM 13.27 55.886 0.029 6.24 4.55 10.28
9/25/2021 11:15:00 PM 13.25 55.85 0.029 6.23 4.45 10.28
9/25/2021 11:30:00 PM 13.23 55.814 0.029 6.22 4.42 10.29
9/25/2021 11:45:00 PM 13.21 55.778 0.029 6.22 4.66 10.3
9/26/2021 12:00:00 AM 13.19 55.742 0.029 6.21 4.58 10.3
9/26/2021 12:15:00 AM 13.17 55.706 0.029 6.24 4.34 10.31
9/26/2021 12:30:00 AM 13.14 55.652 0.029 6.24 4.35 10.31
9/26/2021 12:45:00 AM 13.1 55.58 0.029 6.21 4.58 10.32
9/26/2021 1:00:00 AM 13.07 55.526 0.029 6.21 4.41 10.32
9/26/2021 1:15:00 AM 13.03 55.454 0.029 6.22 4.41 10.34
9/26/2021 1:30:00 AM 12.99 55.382 0.029 6.21 4.49 10.35
9/26/2021 1:45:00 AM 12.95 55.31 0.029 6.2 4.49 10.36
9/26/2021 2:00:00 AM 12.91 55.238 0.029 6.22 4.42 10.37
9/26/2021 2:15:00 AM 12.87 55.166 0.029 6.22 4.21 10.38
9/26/2021 2:30:00 AM 12.83 55.094 0.029 6.24 4.35 10.39
9/26/2021 2:45:00 AM 12.79 55.022 0.029 6.18 4.29 10.4
9/26/2021 3:00:00 AM 12.75 54.95 0.029 6.23 4.48 10.41
9/26/2021 3:15:00 AM 12.71 54.878 0.029 6.21 4.37 10.42
9/26/2021 3:30:00 AM 12.66 54.788 0.029 6.23 4.48 10.42
9/26/2021 3:45:00 AM 12.62 54.716 0.029 6.22 4.41 10.43
9/26/2021 4:00:00 AM 12.57 54.626 0.029 6.21 4.48 10.44
9/26/2021 4:15:00 AM 12.53 54.554 0.029 6.21 4.61 10.45
9/26/2021 4:30:00 AM 12.49 54.482 0.029 6.22 4.33 10.46
9/26/2021 4:45:00 AM 12.45 54.41 0.029 6.21 4.28 10.47
9/26/2021 5:00:00 AM 12.41 54.338 0.029 6.19 4.24 10.49
9/26/2021 5:15:00 AM 12.38 54.284 0.029 6.19 4.42 10.49
9/26/2021 5:30:00 AM 12.34 54.212 0.029 6.22 4.07 10.5
9/26/2021 5:45:00 AM 12.3 54.14 0.029 6.21 4.18 10.52
9/26/2021 6:00:00 AM 12.26 54.068 0.029 6.22 4.12 10.53
9/26/2021 6:15:00 AM 12.23 54.014 0.029 6.22 4.36 10.53
9/26/2021 6:30:00 AM 12.2 53.96 0.029 6.2 4.11 10.54
9/26/2021 6:45:00 AM 12.16 53.888 0.029 6.21 4.11 10.55
9/26/2021 7:00:00 AM 12.13 53.834 0.029 6.22 4.27 10.56
9/26/2021 7:15:00 AM 12.1 53.78 0.029 6.2 4.19 10.57
9/26/2021 7:30:00 AM 12.08 53.744 0.029 6.23 4.18 10.58
9/26/2021 7:45:00 AM 12.05 53.69 0.029 6.21 4.07 10.59
9/26/2021 8:00:00 AM 12.03 53.654 0.029 6.23 4.25 10.61
9/26/2021 8:15:00 AM 12 53.6 0.029 6.24 4.08 10.62
9/26/2021 8:30:00 AM 11.98 53.564 0.029 6.23 3.95 10.63
9/26/2021 8:45:00 AM 11.96 53.528 0.029 6.22 3.96 10.64
9/26/2021 9:00:00 AM 11.95 53.51 0.029 6.24 4.11 10.65
9/26/2021 9:15:00 AM 11.96 53.528 0.029 6.25 3.9 10.67
9/26/2021 9:30:00 AM 11.98 53.564 0.029 6.27 3.79 10.68
9/26/2021 9:45:00 AM 11.98 53.564 0.029 6.27 3.79 10.68
9/26/2021 10:00:00 AM 11.99 53.582 0.029 6.26 5.5 10.68
9/26/2021 10:15:00 AM 12 53.6 0.029 6.26 3.83 10.67
9/26/2021 10:30:00 AM 12.03 53.654 0.029 6.27 3.94 10.67
9/26/2021 10:45:00 AM 12.06 53.708 0.029 6.26 3.78 10.66
9/26/2021 11:00:00 AM 12.1 53.78 0.029 6.25 3.81 10.66
9/26/2021 11:15:00 AM 12.15 53.87 0.029 6.29 3.73 10.66
9/26/2021 11:30:00 AM 12.21 53.978 0.029 6.28 3.8 10.66
9/26/2021 11:45:00 AM 12.27 54.086 0.029 6.29 3.8 10.64
9/26/2021 12:00:00 PM 12.34 54.212 0.029 6.28 3.74 10.63
9/26/2021 12:15:00 PM 12.41 54.338 0.029 6.3 3.63 10.61
9/26/2021 12:30:00 PM 12.48 54.464 0.029 6.32 3.77 10.59
9/26/2021 12:45:00 PM 12.55 54.59 0.029 6.3 3.7 10.58
9/26/2021 1:00:00 PM 12.62 54.716 0.029 6.29 3.55 10.56
9/26/2021 1:15:00 PM 12.7 54.86 0.029 6.29 3.73 10.55
9/26/2021 1:30:00 PM 12.78 55.004 0.029 6.32 3.55 10.53
9/26/2021 1:45:00 PM 12.84 55.112 0.029 6.31 3.71 10.51
9/26/2021 2:00:00 PM 12.89 55.202 0.029 6.31 3.62 10.49
9/26/2021 2:15:00 PM 12.96 55.328 0.029 6.3 3.84 10.47
9/26/2021 2:30:00 PM 13.04 55.472 0.029 6.33 3.85 10.45
9/26/2021 2:45:00 PM 13.12 55.616 0.029 6.33 3.77 10.44
9/26/2021 3:00:00 PM 13.17 55.706 0.029 6.32 3.71 10.43
9/26/2021 3:15:00 PM 13.23 55.814 0.029 6.33 3.51 10.42
9/26/2021 3:30:00 PM 13.24 55.832 0.029 6.3 3.83 10.4
9/26/2021 3:45:00 PM 13.25 55.85 0.029 6.29 3.84 10.38
9/26/2021 4:00:00 PM 13.28 55.904 0.029 6.32 3.74 10.38
9/26/2021 4:15:00 PM 13.29 55.922 0.029 6.31 3.85 10.38
9/26/2021 4:30:00 PM 13.31 55.958 0.029 6.31 3.89 10.37
9/26/2021 4:45:00 PM 13.32 55.976 0.029 6.3 3.68 10.35
9/26/2021 5:00:00 PM 13.33 55.994 0.029 6.29 3.8 10.34
9/26/2021 5:15:00 PM 13.33 55.994 0.029 6.27 3.62 10.32
9/26/2021 5:30:00 PM 13.34 56.012 0.029 6.27 3.61 10.31
9/26/2021 5:45:00 PM 13.34 56.012 0.029 6.29 3.62 10.31
9/26/2021 6:00:00 PM 13.35 56.03 0.029 6.25 3.76 10.3
9/26/2021 6:15:00 PM 13.34 56.012 0.029 6.27 3.54 10.28
9/26/2021 6:30:00 PM 13.33 55.994 0.029 6.26 3.75 10.28
9/26/2021 6:45:00 PM 13.33 55.994 0.03 6.24 3.57 10.27
9/26/2021 7:00:00 PM 13.31 55.958 0.03 6.24 3.79 10.26
9/26/2021 7:15:00 PM 13.3 55.94 0.03 6.23 3.71 10.25
9/26/2021 7:30:00 PM 13.29 55.922 0.03 6.26 3.69 10.25
9/26/2021 7:45:00 PM 13.28 55.904 0.03 6.22 3.71 10.25
9/26/2021 8:00:00 PM 13.26 55.868 0.03 6.25 3.74 10.26
9/26/2021 8:15:00 PM 13.24 55.832 0.03 6.22 3.88 10.26
9/26/2021 8:30:00 PM 13.22 55.796 0.03 6.23 3.94 10.26
9/26/2021 8:45:00 PM 13.2 55.76 0.03 6.24 3.69 10.27
9/26/2021 9:00:00 PM 13.18 55.724 0.03 6.23 3.83 10.27
9/26/2021 9:15:00 PM 13.17 55.706 0.03 6.2 18.19 10.28
9/26/2021 9:30:00 PM 13.15 55.67 0.03 6.23 3.75 10.29
9/26/2021 9:45:00 PM 13.13 55.634 0.03 6.23 3.89 10.29
9/26/2021 10:00:00 PM 13.11 55.598 0.03 6.22 3.59 10.3
9/26/2021 10:15:00 PM 13.09 55.562 0.03 6.22 3.81 10.3
9/26/2021 10:30:00 PM 13.06 55.508 0.03 6.23 3.96 10.3
9/26/2021 10:45:00 PM 13.03 55.454 0.03 6.23 3.91 10.31
9/26/2021 11:00:00 PM 13.01 55.418 0.03 6.23 3.77 10.32
9/26/2021 11:15:00 PM 12.98 55.364 0.03 6.25 3.68 10.33
9/26/2021 11:30:00 PM 12.94 55.292 0.03 6.22 4.11 10.34
9/26/2021 11:45:00 PM 12.91 55.238 0.03 6.23 3.81 10.34
9/27/2021 12:00:00 AM 12.88 55.184 0.03 6.22 3.6 10.35
9/27/2021 12:15:00 AM 12.84 55.112 0.03 6.22 3.78 10.36
9/27/2021 12:30:00 AM 12.81 55.058 0.03 6.22 3.56 10.36
9/27/2021 12:45:00 AM 12.77 54.986 0.03 6.23 3.64 10.38
9/27/2021 1:00:00 AM 12.74 54.932 0.03 6.23 3.56 10.38
9/27/2021 1:15:00 AM 12.7 54.86 0.03 6.22 3.6 10.39
9/27/2021 1:30:00 AM 12.66 54.788 0.03 6.21 3.67 10.4
9/27/2021 1:45:00 AM 12.62 54.716 0.03 6.24 3.51 10.42
9/27/2021 2:00:00 AM 12.59 54.662 0.03 6.22 3.71 10.42
9/27/2021 2:15:00 AM 12.55 54.59 0.03 6.21 3.55 10.43
9/27/2021 2:30:00 AM 12.52 54.536 0.03 6.21 3.68 10.44
9/27/2021 2:45:00 AM 12.48 54.464 0.03 6.21 3.58 10.45
9/27/2021 3:00:00 AM 12.44 54.392 0.03 6.21 3.66 10.46
9/27/2021 3:15:00 AM 12.41 54.338 0.03 6.18 3.57 10.47
9/27/2021 3:30:00 AM 12.38 54.284 0.03 6.23 3.58 10.48
9/27/2021 3:45:00 AM 12.36 54.248 0.03 6.21 3.34 10.48
9/27/2021 4:00:00 AM 12.33 54.194 0.03 6.23 3.49 10.49
9/27/2021 4:15:00 AM 12.31 54.158 0.03 6.19 3.57 10.5
9/27/2021 4:30:00 AM 12.29 54.122 0.03 6.24 3.43 10.5
9/27/2021 4:45:00 AM 12.27 54.086 0.03 6.21 3.61 10.51
9/27/2021 5:00:00 AM 12.25 54.05 0.03 6.22 3.45 10.52
9/27/2021 5:15:00 AM 12.24 54.032 0.03 6.2 3.44 10.52
9/27/2021 5:30:00 AM 12.22 53.996 0.03 6.23 3.38 10.52
9/27/2021 5:45:00 AM 12.21 53.978 0.03 6.23 3.64 10.53
9/27/2021 6:00:00 AM 12.2 53.96 0.03 6.23 3.46 10.53
9/27/2021 6:15:00 AM 12.19 53.942 0.03 6.23 3.61 10.53
9/27/2021 6:30:00 AM 12.17 53.906 0.03 6.23 3.44 10.54
9/27/2021 6:45:00 AM 12.16 53.888 0.03 6.23 3.49 10.54
9/27/2021 7:00:00 AM 12.15 53.87 0.03 6.21 3.9 10.54
9/27/2021 7:15:00 AM 12.13 53.834 0.03 6.23 3.65 10.54
9/27/2021 7:30:00 AM 12.12 53.816 0.03 6.24 3.48 10.55
9/27/2021 7:45:00 AM 12.11 53.798 0.03 6.24 3.46 10.56
9/27/2021 8:00:00 AM 12.11 53.798 0.03 6.25 3.49 10.57
9/27/2021 8:15:00 AM 12.1 53.78 0.03 6.23 3.46 10.58
9/27/2021 8:30:00 AM 12.09 53.762 0.03 6.22 3.3 10.59
9/27/2021 8:45:00 AM 12.09 53.762 0.03 6.26 3.26 10.59
9/27/2021 9:00:00 AM 12.1 53.78 0.03 6.27 3.39 10.6
9/27/2021 9:15:00 AM 12.11 53.798 0.03 6.25 3.25 10.6
9/27/2021 9:30:00 AM 12.15 53.87 0.03 6.27 3.18 10.61
9/27/2021 9:45:00 AM 12.18 53.924 0.03 6.27 3.39 10.61
9/27/2021 10:00:00 AM 12.22 53.996 0.03 6.29 3.25 10.61
9/27/2021 10:15:00 AM 12.26 54.068 0.03 6.3 3.39 10.61
9/27/2021 10:30:00 AM 12.31 54.158 0.03 6.32 3.16 10.6
9/27/2021 10:45:00 AM 12.37 54.266 0.03 6.31 5.52 10.59
9/27/2021 11:00:00 AM 12.47 54.446 0.03 6.89 3.36 10.46
9/27/2021 11:15:00 AM 12.54 54.572 0.03 6.78 3.1 10.45
9/27/2021 11:30:00 AM 12.6 54.68 0.03 6.77 3.04 10.44
9/27/2021 11:45:00 AM 12.68 54.824 0.03 6.74 3.41 10.43
9/27/2021 12:00:00 PM 12.76 54.968 0.03 6.71 3.37 10.42
9/27/2021 12:15:00 PM 12.85 55.13 0.03 6.65 3.51 10.4
9/27/2021 12:30:00 PM 12.94 55.292 0.03 6.69 3.19 10.38
9/27/2021 12:45:00 PM 13.04 55.472 0.03 6.68 2.97 10.37
9/27/2021 1:00:00 PM 13.14 55.652 0.03 6.65 2.98 10.35
9/27/2021 1:15:00 PM 13.25 55.85 0.03 6.7 3.09 10.32
9/27/2021 1:30:00 PM 13.36 56.048 0.03 6.68 3.04 10.3
9/27/2021 1:45:00 PM 13.46 56.228 0.03 6.72 3.06 10.28
9/27/2021 2:00:00 PM 13.56 56.408 0.03 6.71 3.1 10.26
9/27/2021 2:15:00 PM 13.65 56.57 0.03 6.74 3.14 10.24
9/27/2021 2:30:00 PM 13.74 56.732 0.03 6.73 2.9 10.2
9/27/2021 2:45:00 PM 13.83 56.894 0.03 6.74 3.02 10.18
9/27/2021 3:00:00 PM 13.91 57.038 0.03 6.75 3.04 10.17
9/27/2021 3:15:00 PM 13.95 57.11 0.03 6.72 2.96 10.15
9/27/2021 3:30:00 PM 13.98 57.164 0.03 6.76 2.98 10.13
9/27/2021 3:45:00 PM 14.01 57.218 0.03 6.71 2.94 10.1
9/27/2021 4:00:00 PM 14.03 57.254 0.03 6.76 2.88 10.08
9/27/2021 4:15:00 PM 14.06 57.308 0.03 6.72 2.92 10.06
9/27/2021 4:30:00 PM 14.08 57.344 0.03 6.74 2.95 10.05
9/27/2021 4:45:00 PM 14.09 57.362 0.03 6.73 2.98 10.04
9/27/2021 5:00:00 PM 14.1 57.38 0.03 6.75 3 10.03
9/27/2021 5:15:00 PM 14.1 57.38 0.03 6.73 2.89 10.02
9/27/2021 5:30:00 PM 14.11 57.398 0.03 6.71 2.87 10.01
9/27/2021 5:45:00 PM 14.11 57.398 0.03 6.7 2.92 9.99
9/27/2021 6:00:00 PM 14.11 57.398 0.03 6.69 2.91 9.98
9/27/2021 6:15:00 PM 14.1 57.38 0.03 6.67 2.95 9.96
9/27/2021 6:30:00 PM 14.09 57.362 0.03 6.67 2.88 9.95
9/27/2021 6:45:00 PM 14.08 57.344 0.03 6.67 2.88 9.93
9/27/2021 7:00:00 PM 14.06 57.308 0.03 6.64 2.89 9.92
9/27/2021 7:15:00 PM 14.05 57.29 0.03 6.63 2.95 9.91
9/27/2021 7:30:00 PM 14.04 57.272 0.03 6.63 3.04 9.91
9/27/2021 7:45:00 PM 14.02 57.236 0.03 6.63 2.97 9.92
9/27/2021 8:00:00 PM 14.01 57.218 0.03 6.62 2.98 9.91
9/27/2021 8:15:00 PM 14 57.2 0.03 6.61 3.03 9.92
9/27/2021 8:30:00 PM 13.98 57.164 0.03 6.62 3.08 9.92
9/27/2021 8:45:00 PM 13.97 57.146 0.03 6.58 3.04 9.92
9/27/2021 9:00:00 PM 13.95 57.11 0.03 6.6 3 9.93
9/27/2021 9:15:00 PM 13.94 57.092 0.03 6.62 3.06 9.93
9/27/2021 9:30:00 PM 13.92 57.056 0.03 6.62 2.91 9.93
9/27/2021 9:45:00 PM 13.9 57.02 0.03 6.61 2.94 9.95
9/27/2021 10:00:00 PM 13.88 56.984 0.03 6.57 3.01 9.94
9/27/2021 10:15:00 PM 13.86 56.948 0.03 6.58 2.99 9.95
9/27/2021 10:30:00 PM 13.84 56.912 0.03 6.61 2.98 9.95
9/27/2021 10:45:00 PM 13.82 56.876 0.03 6.58 3 9.96
9/27/2021 11:00:00 PM 13.8 56.84 0.03 6.59 2.95 9.97
9/27/2021 11:15:00 PM 13.78 56.804 0.03 6.61 3 9.97
9/27/2021 11:30:00 PM 13.76 56.768 0.03 6.6 3.03 9.97
9/27/2021 11:45:00 PM 13.74 56.732 0.03 6.58 2.95 9.98
9/28/2021 12:00:00 AM 13.72 56.696 0.03 6.6 3 9.98
9/28/2021 12:15:00 AM 13.7 56.66 0.03 6.6 2.93 9.98
9/28/2021 12:30:00 AM 13.68 56.624 0.03 6.56 2.93 10
9/28/2021 12:45:00 AM 13.66 56.588 0.03 6.6 2.99 10
9/28/2021 1:00:00 AM 13.64 56.552 0.03 6.57 2.96 9.99
9/28/2021 1:15:00 AM 13.63 56.534 0.03 6.6 3.04 10
9/28/2021 1:30:00 AM 13.61 56.498 0.03 6.59 2.98 10
9/28/2021 1:45:00 AM 13.6 56.48 0.03 6.58 2.97 10
9/28/2021 2:00:00 AM 13.59 56.462 0.03 6.6 2.93 10.01
9/28/2021 2:15:00 AM 13.58 56.444 0.03 6.6 2.99 10.01
9/28/2021 2:30:00 AM 13.57 56.426 0.03 6.58 2.89 10.01
9/28/2021 2:45:00 AM 13.56 56.408 0.03 6.59 2.96 10.01
9/28/2021 3:00:00 AM 13.55 56.39 0.03 6.6 2.91 10.02
9/28/2021 3:15:00 AM 13.54 56.372 0.03 6.6 2.85 10.03
9/28/2021 3:30:00 AM 13.53 56.354 0.03 6.6 2.9 10.02
9/28/2021 3:45:00 AM 13.51 56.318 0.031 6.6 3.05 10.03
9/28/2021 4:00:00 AM 13.5 56.3 0.031 6.6 2.82 10.03
9/28/2021 4:15:00 AM 13.49 56.282 0.031 6.6 2.88 10.02
9/28/2021 4:30:00 AM 13.48 56.264 0.031 6.6 2.97 10.02
9/28/2021 4:45:00 AM 13.47 56.246 0.031 6.6 2.89 10.03
9/28/2021 5:00:00 AM 13.46 56.228 0.031 6.6 2.99 10.03
9/28/2021 5:15:00 AM 13.45 56.21 0.031 6.6 2.92 10.03
9/28/2021 5:30:00 AM 13.43 56.174 0.031 6.59 3.03 10.04
9/28/2021 5:45:00 AM 13.42 56.156 0.031 6.59 2.92 10.04
9/28/2021 6:00:00 AM 13.4 56.12 0.031 6.6 2.9 10.04
9/28/2021 6:15:00 AM 13.39 56.102 0.031 6.59 2.99 10.05
9/28/2021 6:30:00 AM 13.38 56.084 0.031 6.61 2.91 10.05
9/28/2021 6:45:00 AM 13.37 56.066 0.031 6.6 2.87 10.06
9/28/2021 7:00:00 AM 13.37 56.066 0.031 6.6 3.04 10.06
9/28/2021 7:15:00 AM 13.36 56.048 0.031 6.6 2.94 10.06
9/28/2021 7:30:00 AM 13.36 56.048 0.031 6.59 2.94 10.07
9/28/2021 7:45:00 AM 13.35 56.03 0.031 6.6 2.85 10.07
9/28/2021 8:00:00 AM 13.35 56.03 0.031 6.57 2.89 10.08
9/28/2021 8:15:00 AM 13.35 56.03 0.031 6.57 2.81 10.08
9/28/2021 8:30:00 AM 13.35 56.03 0.031 6.6 2.8 10.08
9/28/2021 8:45:00 AM 13.35 56.03 0.031 6.58 2.87 10.09
9/28/2021 9:00:00 AM 13.35 56.03 0.031 6.59 2.72 10.08
9/28/2021 9:15:00 AM 13.35 56.03 0.031 6.59 2.8 10.08
9/28/2021 9:30:00 AM 13.35 56.03 0.031 6.59 2.74 10.08
9/28/2021 9:45:00 AM 13.35 56.03 0.031 6.57 2.77 10.09
9/28/2021 10:00:00 AM 13.35 56.03 0.031 6.59 2.74 10.09
9/28/2021 10:15:00 AM 13.36 56.048 0.031 6.58 2.72 10.1
9/28/2021 10:30:00 AM 13.36 56.048 0.031 6.59 2.81 10.1
9/28/2021 10:45:00 AM 13.37 56.066 0.031 6.59 2.7 10.11
9/28/2021 11:00:00 AM 13.38 56.084 0.031 6.58 2.77 10.12
9/28/2021 11:15:00 AM 13.42 56.156 0.031 6.6 2.8 10.17
9/28/2021 11:30:00 AM 13.46 56.228 0.031 6.62 2.82 10.21
9/28/2021 11:45:00 AM 13.51 56.318 0.031 6.64 3.29 10.21
9/28/2021 12:00:00 PM 13.54 56.372 0.031 6.66 3.29 10.21
9/28/2021 12:15:00 PM 13.57 56.426 0.031 6.66 2.91 10.21
9/28/2021 12:30:00 PM 13.62 56.516 0.031 6.69 2.82 10.2
9/28/2021 12:45:00 PM 13.68 56.624 0.031 6.7 2.66 10.2
9/28/2021 1:00:00 PM 13.76 56.768 0.031 6.72 2.8 10.19
9/28/2021 1:15:00 PM 13.85 56.93 0.031 6.73 2.74 10.19
9/28/2021 1:30:00 PM 13.91 57.038 0.031 6.75 2.68 10.17
9/28/2021 1:45:00 PM 13.91 57.038 0.031 6.76 2.73 10.15
9/28/2021 2:00:00 PM 13.99 57.182 0.031 6.72 2.71 10.15
9/28/2021 2:15:00 PM 14.11 57.398 0.031 6.78 2.77 10.14
9/28/2021 2:30:00 PM 14.19 57.542 0.031 6.77 2.77 10.12
9/28/2021 2:45:00 PM 14.27 57.686 0.031 6.79 2.7 10.12
9/28/2021 3:00:00 PM 14.26 57.668 0.03 6.79 2.69 10.08
9/28/2021 3:15:00 PM 14.33 57.794 0.03 6.78 2.83 10.07
9/28/2021 3:30:00 PM 14.36 57.848 0.03 6.78 2.71 10.05
9/28/2021 3:45:00 PM 14.39 57.902 0.03 6.78 2.79 10.03
9/28/2021 4:00:00 PM 14.4 57.92 0.03 6.79 3 10
9/28/2021 4:15:00 PM 14.41 57.938 0.03 6.78 2.85 10
9/28/2021 4:30:00 PM 14.4 57.92 0.03 6.77 2.78 9.98
9/28/2021 4:45:00 PM 14.37 57.866 0.03 6.77 2.8 9.97
9/28/2021 5:00:00 PM 14.34 57.812 0.031 6.76 2.75 9.96
9/28/2021 5:15:00 PM 14.3 57.74 0.031 6.74 2.73 9.95
9/28/2021 5:30:00 PM 14.27 57.686 0.031 6.74 2.82 9.95
9/28/2021 5:45:00 PM 14.24 57.632 0.031 6.74 2.78 9.94
9/28/2021 6:00:00 PM 14.2 57.56 0.031 6.73 2.72 9.93
9/28/2021 6:15:00 PM 14.16 57.488 0.031 6.7 2.78 9.93
9/28/2021 6:30:00 PM 14.13 57.434 0.031 6.72 2.66 9.93
9/28/2021 6:45:00 PM 14.08 57.344 0.031 6.7 2.95 9.93
9/28/2021 7:00:00 PM 14.04 57.272 0.031 6.7 2.74 9.93
9/28/2021 7:15:00 PM 14 57.2 0.031 6.69 2.77 9.93
9/28/2021 7:30:00 PM 13.96 57.128 0.031 6.69 2.82 9.93
9/28/2021 7:45:00 PM 13.92 57.056 0.031 6.67 2.81 9.94
9/28/2021 8:00:00 PM 13.88 56.984 0.031 6.68 2.85 9.95
9/28/2021 8:15:00 PM 13.85 56.93 0.031 6.67 3 9.96
9/28/2021 8:30:00 PM 13.81 56.858 0.031 6.66 2.83 9.97
9/28/2021 8:45:00 PM 13.77 56.786 0.031 6.63 2.92 9.98
9/28/2021 9:00:00 PM 13.74 56.732 0.031 6.65 2.97 9.99
9/28/2021 9:15:00 PM 13.7 56.66 0.031 6.63 2.93 9.99
9/28/2021 9:30:00 PM 13.65 56.57 0.031 6.64 2.92 10.01
9/28/2021 9:45:00 PM 13.6 56.48 0.031 6.63 2.96 10.02
9/28/2021 10:00:00 PM 13.56 56.408 0.031 6.58 2.9 10.03
9/28/2021 10:15:00 PM 13.51 56.318 0.031 6.61 2.89 10.05
9/28/2021 10:30:00 PM 13.46 56.228 0.031 6.61 2.9 10.06
9/28/2021 10:45:00 PM 13.41 56.138 0.031 6.6 2.89 10.07
9/28/2021 11:00:00 PM 13.36 56.048 0.031 6.6 2.88 10.08
9/28/2021 11:15:00 PM 13.32 55.976 0.031 6.58 2.82 10.09
9/28/2021 11:30:00 PM 13.28 55.904 0.031 6.58 2.91 10.1
9/28/2021 11:45:00 PM 13.22 55.796 0.031 6.59 2.82 10.11
9/29/2021 12:00:00 AM 13.18 55.724 0.031 6.57 3.01 10.12
9/29/2021 12:15:00 AM 13.13 55.634 0.031 6.58 2.96 10.14
9/29/2021 12:30:00 AM 13.09 55.562 0.031 6.57 2.88 10.14
9/29/2021 12:45:00 AM 13.05 55.49 0.031 6.58 2.89 10.16
9/29/2021 1:00:00 AM 13 55.4 0.031 6.58 2.89 10.17
9/29/2021 1:15:00 AM 12.96 55.328 0.031 6.55 2.8 10.18
9/29/2021 1:30:00 AM 12.91 55.238 0.031 6.56 2.77 10.2
9/29/2021 1:45:00 AM 12.87 55.166 0.031 6.56 2.79 10.19
9/29/2021 2:00:00 AM 12.82 55.076 0.031 6.57 2.86 10.22
9/29/2021 2:15:00 AM 12.78 55.004 0.031 6.57 2.81 10.23
9/29/2021 2:30:00 AM 12.73 54.914 0.031 6.57 2.75 10.23
9/29/2021 2:45:00 AM 12.69 54.842 0.031 6.55 2.85 10.25
9/29/2021 3:00:00 AM 12.64 54.752 0.031 6.57 2.89 10.26
9/29/2021 3:15:00 AM 12.6 54.68 0.031 6.55 2.81 10.27
9/29/2021 3:30:00 AM 12.55 54.59 0.031 6.56 2.86 10.28
9/29/2021 3:45:00 AM 12.5 54.5 0.031 6.58 2.83 10.29
9/29/2021 4:00:00 AM 12.46 54.428 0.031 6.55 2.75 10.29
9/29/2021 4:15:00 AM 12.42 54.356 0.031 6.55 2.89 10.31
9/29/2021 4:30:00 AM 12.37 54.266 0.031 6.56 2.77 10.32
9/29/2021 4:45:00 AM 12.33 54.194 0.031 6.56 2.78 10.33
9/29/2021 5:00:00 AM 12.29 54.122 0.031 6.54 2.83 10.34
9/29/2021 5:15:00 AM 12.23 54.014 0.031 6.57 2.87 10.36
9/29/2021 5:30:00 AM 12.19 53.942 0.031 6.56 2.81 10.37
9/29/2021 5:45:00 AM 12.15 53.87 0.031 6.53 2.83 10.37
9/29/2021 6:00:00 AM 12.1 53.78 0.031 6.55 2.82 10.4
9/29/2021 6:15:00 AM 12.06 53.708 0.031 6.55 2.83 10.41
9/29/2021 6:30:00 AM 12.01 53.618 0.031 6.56 2.91 10.43
9/29/2021 6:45:00 AM 11.97 53.546 0.031 6.55 2.87 10.43
9/29/2021 7:00:00 AM 11.93 53.474 0.031 6.53 2.74 10.44
9/29/2021 7:15:00 AM 11.9 53.42 0.031 6.53 2.81 10.44
9/29/2021 7:30:00 AM 11.86 53.348 0.031 6.52 2.84 10.46
9/29/2021 7:45:00 AM 11.82 53.276 0.031 6.57 2.74 10.5
9/29/2021 8:00:00 AM 11.79 53.222 0.031 6.52 2.8 10.52
9/29/2021 8:15:00 AM 11.77 53.186 0.031 6.55 2.71 10.54
9/29/2021 8:30:00 AM 11.74 53.132 0.031 6.55 2.79 10.55
9/29/2021 8:45:00 AM 11.71 53.078 0.031 6.58 3.14 10.58
9/29/2021 9:00:00 AM 11.68 53.024 0.031 6.57 5.41 10.58
9/29/2021 9:15:00 AM 11.67 53.006 0.031 6.59 3.1 10.61
9/29/2021 9:30:00 AM 11.69 53.042 0.031 6.59 2.83 10.62
9/29/2021 9:45:00 AM 11.7 53.06 0.031 6.61 2.75 10.64
9/29/2021 10:00:00 AM 11.73 53.114 0.031 6.61 2.75 10.63
9/29/2021 10:15:00 AM 11.76 53.168 0.031 6.63 2.72 10.64
9/29/2021 10:30:00 AM 11.8 53.24 0.031 6.63 2.68 10.64
9/29/2021 10:45:00 AM 11.84 53.312 0.031 6.65 2.68 10.63
9/29/2021 11:00:00 AM 11.89 53.402 0.031 6.66 2.68 10.63
9/29/2021 11:15:00 AM 11.95 53.51 0.031 6.66 2.67 10.62
9/29/2021 11:30:00 AM 12.02 53.636 0.031 6.67 2.67 10.62
9/29/2021 11:45:00 AM 12.09 53.762 0.031 6.71 2.72 10.61
9/29/2021 12:00:00 PM 12.16 53.888 0.031 6.72 2.8 10.6
9/29/2021 12:15:00 PM 12.23 54.014 0.031 6.73 2.75 10.6
9/29/2021 12:30:00 PM 12.32 54.176 0.031 6.74 2.66 10.57
9/29/2021 12:45:00 PM 12.38 54.284 0.031 6.74 2.7 10.56
9/29/2021 1:00:00 PM 12.46 54.428 0.031 6.75 2.66 10.55
9/29/2021 1:15:00 PM 12.56 54.608 0.031 6.75 2.61 10.54
9/29/2021 1:30:00 PM 12.7 54.86 0.031 6.73 2.6 10.51
9/29/2021 1:45:00 PM 12.81 55.058 0.031 6.75 2.61 10.5
9/29/2021 2:00:00 PM 12.92 55.256 0.031 6.76 2.7 10.47
9/29/2021 2:15:00 PM 12.98 55.364 0.031 6.76 2.59 10.45
9/29/2021 2:30:00 PM 13.01 55.418 0.031 6.79 2.71 10.44
9/29/2021 2:45:00 PM 13.07 55.526 0.031 6.74 2.67 10.4
9/29/2021 3:00:00 PM 13.14 55.652 0.031 6.78 2.63 10.39
9/29/2021 3:15:00 PM 13.25 55.85 0.031 6.77 2.56 10.37
9/29/2021 3:30:00 PM 13.26 55.868 0.031 6.78 2.62 10.35
9/29/2021 3:45:00 PM 13.25 55.85 0.031 6.77 2.57 10.33
9/29/2021 4:00:00 PM 13.27 55.886 0.031 6.76 2.63 10.3
9/29/2021 4:15:00 PM 13.27 55.886 0.031 6.76 2.77 10.28
9/29/2021 4:30:00 PM 13.29 55.922 0.031 6.74 3.33 10.26
9/29/2021 4:45:00 PM 13.29 55.922 0.031 6.72 2.88 10.24
9/29/2021 5:00:00 PM 13.26 55.868 0.031 6.73 2.72 10.24
9/29/2021 5:15:00 PM 13.25 55.85 0.031 6.72 2.59 10.21
9/29/2021 5:30:00 PM 13.23 55.814 0.031 6.72 2.63 10.2
9/29/2021 5:45:00 PM 13.2 55.76 0.031 6.72 2.68 10.19
9/29/2021 6:00:00 PM 13.17 55.706 0.031 6.7 2.71 10.19
9/29/2021 6:15:00 PM 13.13 55.634 0.031 6.68 2.58 10.18
9/29/2021 6:30:00 PM 13.1 55.58 0.031 6.7 2.65 10.19
9/29/2021 6:45:00 PM 13.07 55.526 0.031 6.7 2.72 10.19
9/29/2021 7:00:00 PM 13.03 55.454 0.031 6.66 2.69 10.17
9/29/2021 7:15:00 PM 13 55.4 0.031 6.68 2.7 10.17
9/29/2021 7:30:00 PM 12.96 55.328 0.031 6.64 2.66 10.18
9/29/2021 7:45:00 PM 12.93 55.274 0.031 6.67 2.72 10.19
9/29/2021 8:00:00 PM 12.9 55.22 0.031 6.68 2.74 10.2
9/29/2021 8:15:00 PM 12.87 55.166 0.031 6.65 2.72 10.19
9/29/2021 8:30:00 PM 12.83 55.094 0.031 6.62 2.73 10.19
9/29/2021 8:45:00 PM 12.8 55.04 0.031 6.65 2.74 10.21
9/29/2021 9:00:00 PM 12.76 54.968 0.031 6.66 2.79 10.23
9/29/2021 9:15:00 PM 12.72 54.896 0.031 6.64 2.71 10.23
9/29/2021 9:30:00 PM 12.68 54.824 0.031 6.62 2.74 10.23
9/29/2021 9:45:00 PM 12.64 54.752 0.031 6.63 2.72 10.24
9/29/2021 10:00:00 PM 12.6 54.68 0.031 6.62 2.67 10.25
9/29/2021 10:15:00 PM 12.56 54.608 0.031 6.61 2.79 10.27
9/29/2021 10:30:00 PM 12.52 54.536 0.031 6.62 2.74 10.29
9/29/2021 10:45:00 PM 12.47 54.446 0.031 6.6 2.78 10.3
9/29/2021 11:00:00 PM 12.43 54.374 0.031 6.6 2.91 10.3
9/29/2021 11:15:00 PM 12.38 54.284 0.031 6.59 2.73 10.32
9/29/2021 11:30:00 PM 12.33 54.194 0.031 6.6 2.7 10.32
9/29/2021 11:45:00 PM 12.28 54.104 0.031 6.6 2.73 10.34
9/30/2021 12:00:00 AM 12.23 54.014 0.031 6.58 2.75 10.36
9/30/2021 12:15:00 AM 12.18 53.924 0.031 6.59 2.75 10.36
9/30/2021 12:30:00 AM 12.13 53.834 0.031 6.54 2.72 10.39
9/30/2021 12:45:00 AM 12.08 53.744 0.031 6.57 2.7 10.39
9/30/2021 1:00:00 AM 12.03 53.654 0.031 6.58 2.77 10.41
9/30/2021 1:15:00 AM 12 53.6 0.031 6.57 2.72 10.41
9/30/2021 1:30:00 AM 11.96 53.528 0.031 6.56 2.74 10.44
9/30/2021 1:45:00 AM 11.91 53.438 0.031 6.58 2.67 10.45
9/30/2021 2:00:00 AM 11.87 53.366 0.031 6.54 2.73 10.45
9/30/2021 2:15:00 AM 11.82 53.276 0.032 6.55 2.74 10.46
9/30/2021 2:30:00 AM 11.78 53.204 0.032 6.56 2.75 10.47
9/30/2021 2:45:00 AM 11.74 53.132 0.031 6.55 2.72 10.49
9/30/2021 3:00:00 AM 11.7 53.06 0.031 6.54 2.72 10.5
9/30/2021 3:15:00 AM 11.65 52.97 0.031 6.55 2.73 10.5
9/30/2021 3:30:00 AM 11.61 52.898 0.031 6.55 3.08 10.52
9/30/2021 3:45:00 AM 11.57 52.826 0.032 6.55 2.79 10.53
9/30/2021 4:00:00 AM 11.54 52.772 0.032 6.54 2.76 10.53
9/30/2021 4:15:00 AM 11.5 52.7 0.032 6.56 2.88 10.56
9/30/2021 4:30:00 AM 11.46 52.628 0.032 6.56 2.71 10.56
9/30/2021 4:45:00 AM 11.43 52.574 0.032 6.55 2.68 10.57
9/30/2021 5:00:00 AM 11.4 52.52 0.032 6.56 2.7 10.58
9/30/2021 5:15:00 AM 11.37 52.466 0.032 6.57 2.69 10.59
9/30/2021 5:30:00 AM 11.34 52.412 0.032 6.56 2.68 10.59
9/30/2021 5:45:00 AM 11.31 52.358 0.031 6.56 2.77 10.62
9/30/2021 6:00:00 AM 11.28 52.304 0.032 6.57 2.91 10.61
9/30/2021 6:15:00 AM 11.25 52.25 0.031 6.57 2.85 10.63
9/30/2021 6:30:00 AM 11.23 52.214 0.032 6.58 2.78 10.62
9/30/2021 6:45:00 AM 11.21 52.178 0.032 6.57 2.73 10.64
9/30/2021 7:00:00 AM 11.19 52.142 0.032 6.56 2.77 10.64
9/30/2021 7:15:00 AM 11.16 52.088 0.032 6.57 2.74 10.65
9/30/2021 7:30:00 AM 11.13 52.034 0.031 6.6 2.73 10.69
9/30/2021 7:45:00 AM 11.12 52.016 0.032 6.58 2.82 10.69
9/30/2021 8:00:00 AM 11.1 51.98 0.031 6.59 2.75 10.72
9/30/2021 8:15:00 AM 11.08 51.944 0.032 6.59 2.74 10.74
9/30/2021 8:30:00 AM 11.07 51.926 0.032 6.59 2.75 10.77
9/30/2021 8:45:00 AM 11.06 51.908 0.031 6.61 3.11 10.8
9/30/2021 9:00:00 AM 11.06 51.908 0.031 6.59 3.42 10.81
9/30/2021 9:15:00 AM 11.06 51.908 0.031 6.64 2.87 10.86
9/30/2021 9:30:00 AM 11.09 51.962 0.031 6.59 2.79 10.86
9/30/2021 9:45:00 AM 11.1 51.98 0.031 6.64 2.72 10.87
9/30/2021 10:00:00 AM 11.11 51.998 0.031 6.65